<?xml version="1.0" encoding="UTF-8" standalone="no" ?>
<gpx xmlns="http://www.topografix.com/GPX/1/1" xmlns:xsi="http://www.w3.org/2001/XMLSchema-instance" xsi:schemaLocation="http://www.topografix.com/GPX/1/1 http://www.topografix.com/GPX/1/1/gpx.xsd" version="1.1" creator="VisuGPX - https://www.visugpx.com">
  <metadata>
    <name>2009 LAGAHL</name>
    <desc><![CDATA[Lozère-Aveyron-Gard-Ardèche-Haute Loire]]></desc>
  </metadata>
  <trk>
    <name><![CDATA[B02]]></name>
    <trkseg>
      <trkpt lat="44.43392" lon="3.59723">
        <ele>1212</ele>
        <time>2009-07-07T12:27:27Z</time>
      </trkpt>
      <trkpt lat="44.43388" lon="3.59721">
        <ele>1212</ele>
        <time>2009-07-07T12:27:53Z</time>
      </trkpt>
      <trkpt lat="44.43389" lon="3.59717">
        <ele>1211</ele>
        <time>2009-07-07T12:28:19Z</time>
      </trkpt>
      <trkpt lat="44.43389" lon="3.59718">
        <ele>1206</ele>
        <time>2009-07-07T12:28:21Z</time>
      </trkpt>
      <trkpt lat="44.4339" lon="3.59718">
        <ele>1212</ele>
        <time>2009-07-07T12:28:22Z</time>
      </trkpt>
      <trkpt lat="44.4339" lon="3.59718">
        <ele>1215</ele>
        <time>2009-07-07T12:28:23Z</time>
      </trkpt>
      <trkpt lat="44.4339" lon="3.59719">
        <ele>1211</ele>
        <time>2009-07-07T12:28:24Z</time>
      </trkpt>
      <trkpt lat="44.43389" lon="3.59717">
        <ele>1211</ele>
        <time>2009-07-07T12:28:26Z</time>
      </trkpt>
      <trkpt lat="44.43386" lon="3.59716">
        <ele>1211</ele>
        <time>2009-07-07T12:28:39Z</time>
      </trkpt>
      <trkpt lat="44.43386" lon="3.59716">
        <ele>1211</ele>
        <time>2009-07-07T12:29:19Z</time>
      </trkpt>
      <trkpt lat="44.43386" lon="3.5971">
        <ele>1213</ele>
        <time>2009-07-07T12:30:25Z</time>
      </trkpt>
      <trkpt lat="44.43386" lon="3.59709">
        <ele>1212</ele>
        <time>2009-07-07T12:30:52Z</time>
      </trkpt>
      <trkpt lat="44.43386" lon="3.59709">
        <ele>1212</ele>
        <time>2009-07-07T12:30:54Z</time>
      </trkpt>
      <trkpt lat="44.43371" lon="3.59673">
        <ele>1213</ele>
        <time>2009-07-07T12:31:10Z</time>
      </trkpt>
      <trkpt lat="44.43361" lon="3.59637">
        <ele>1215</ele>
        <time>2009-07-07T12:31:24Z</time>
      </trkpt>
      <trkpt lat="44.43347" lon="3.59602">
        <ele>1216</ele>
        <time>2009-07-07T12:31:36Z</time>
      </trkpt>
      <trkpt lat="44.43334" lon="3.59553">
        <ele>1217</ele>
        <time>2009-07-07T12:31:52Z</time>
      </trkpt>
      <trkpt lat="44.43333" lon="3.59547">
        <ele>1217</ele>
        <time>2009-07-07T12:31:56Z</time>
      </trkpt>
      <trkpt lat="44.43326" lon="3.5954">
        <ele>1216</ele>
        <time>2009-07-07T12:32:00Z</time>
      </trkpt>
      <trkpt lat="44.43316" lon="3.59533">
        <ele>1214</ele>
        <time>2009-07-07T12:32:03Z</time>
      </trkpt>
      <trkpt lat="44.43305" lon="3.59536">
        <ele>1213</ele>
        <time>2009-07-07T12:32:07Z</time>
      </trkpt>
      <trkpt lat="44.43297" lon="3.59539">
        <ele>1212</ele>
        <time>2009-07-07T12:32:09Z</time>
      </trkpt>
      <trkpt lat="44.43277" lon="3.59535">
        <ele>1210</ele>
        <time>2009-07-07T12:32:14Z</time>
      </trkpt>
      <trkpt lat="44.43263" lon="3.59528">
        <ele>1210</ele>
        <time>2009-07-07T12:32:18Z</time>
      </trkpt>
      <trkpt lat="44.43249" lon="3.59515">
        <ele>1210</ele>
        <time>2009-07-07T12:32:22Z</time>
      </trkpt>
      <trkpt lat="44.43228" lon="3.59494">
        <ele>1208</ele>
        <time>2009-07-07T12:32:28Z</time>
      </trkpt>
      <trkpt lat="44.43206" lon="3.59444">
        <ele>1209</ele>
        <time>2009-07-07T12:32:41Z</time>
      </trkpt>
      <trkpt lat="44.43186" lon="3.59418">
        <ele>1208</ele>
        <time>2009-07-07T12:32:50Z</time>
      </trkpt>
      <trkpt lat="44.43177" lon="3.59359">
        <ele>1204</ele>
        <time>2009-07-07T12:33:02Z</time>
      </trkpt>
      <trkpt lat="44.43173" lon="3.59338">
        <ele>1203</ele>
        <time>2009-07-07T12:33:08Z</time>
      </trkpt>
      <trkpt lat="44.43165" lon="3.59332">
        <ele>1201</ele>
        <time>2009-07-07T12:33:13Z</time>
      </trkpt>
      <trkpt lat="44.43156" lon="3.59326">
        <ele>1200</ele>
        <time>2009-07-07T12:33:24Z</time>
      </trkpt>
      <trkpt lat="44.43143" lon="3.59314">
        <ele>1197</ele>
        <time>2009-07-07T12:33:34Z</time>
      </trkpt>
      <trkpt lat="44.43134" lon="3.59296">
        <ele>1194</ele>
        <time>2009-07-07T12:33:41Z</time>
      </trkpt>
      <trkpt lat="44.43133" lon="3.59292">
        <ele>1194</ele>
        <time>2009-07-07T12:33:42Z</time>
      </trkpt>
      <trkpt lat="44.43133" lon="3.59274">
        <ele>1191</ele>
        <time>2009-07-07T12:33:46Z</time>
      </trkpt>
      <trkpt lat="44.43135" lon="3.59258">
        <ele>1188</ele>
        <time>2009-07-07T12:33:49Z</time>
      </trkpt>
      <trkpt lat="44.43151" lon="3.59219">
        <ele>1185</ele>
        <time>2009-07-07T12:33:59Z</time>
      </trkpt>
      <trkpt lat="44.43154" lon="3.59203">
        <ele>1182</ele>
        <time>2009-07-07T12:34:02Z</time>
      </trkpt>
      <trkpt lat="44.43157" lon="3.59161">
        <ele>1181</ele>
        <time>2009-07-07T12:34:12Z</time>
      </trkpt>
      <trkpt lat="44.4315" lon="3.59145">
        <ele>1179</ele>
        <time>2009-07-07T12:34:17Z</time>
      </trkpt>
      <trkpt lat="44.43148" lon="3.59138">
        <ele>1177</ele>
        <time>2009-07-07T12:34:19Z</time>
      </trkpt>
      <trkpt lat="44.43138" lon="3.59117">
        <ele>1174</ele>
        <time>2009-07-07T12:34:26Z</time>
      </trkpt>
      <trkpt lat="44.43135" lon="3.59109">
        <ele>1172</ele>
        <time>2009-07-07T12:34:28Z</time>
      </trkpt>
      <trkpt lat="44.43131" lon="3.59083">
        <ele>1171</ele>
        <time>2009-07-07T12:34:35Z</time>
      </trkpt>
      <trkpt lat="44.43128" lon="3.59061">
        <ele>1169</ele>
        <time>2009-07-07T12:34:40Z</time>
      </trkpt>
      <trkpt lat="44.43125" lon="3.5903">
        <ele>1165</ele>
        <time>2009-07-07T12:34:49Z</time>
      </trkpt>
      <trkpt lat="44.43125" lon="3.59025">
        <ele>1165</ele>
        <time>2009-07-07T12:34:50Z</time>
      </trkpt>
      <trkpt lat="44.43121" lon="3.59006">
        <ele>1162</ele>
        <time>2009-07-07T12:34:56Z</time>
      </trkpt>
      <trkpt lat="44.43119" lon="3.58992">
        <ele>1161</ele>
        <time>2009-07-07T12:35:00Z</time>
      </trkpt>
      <trkpt lat="44.43116" lon="3.58974">
        <ele>1157</ele>
        <time>2009-07-07T12:35:05Z</time>
      </trkpt>
      <trkpt lat="44.43114" lon="3.58946">
        <ele>1154</ele>
        <time>2009-07-07T12:35:11Z</time>
      </trkpt>
      <trkpt lat="44.43115" lon="3.58936">
        <ele>1153</ele>
        <time>2009-07-07T12:35:13Z</time>
      </trkpt>
      <trkpt lat="44.43121" lon="3.58901">
        <ele>1151</ele>
        <time>2009-07-07T12:35:23Z</time>
      </trkpt>
      <trkpt lat="44.43121" lon="3.58898">
        <ele>1150</ele>
        <time>2009-07-07T12:35:25Z</time>
      </trkpt>
      <trkpt lat="44.4312" lon="3.58901">
        <ele>1151</ele>
        <time>2009-07-07T12:35:27Z</time>
      </trkpt>
      <trkpt lat="44.43119" lon="3.58891">
        <ele>1149</ele>
        <time>2009-07-07T12:35:39Z</time>
      </trkpt>
      <trkpt lat="44.43117" lon="3.58886">
        <ele>1148</ele>
        <time>2009-07-07T12:35:41Z</time>
      </trkpt>
      <trkpt lat="44.43113" lon="3.58876">
        <ele>1148</ele>
        <time>2009-07-07T12:35:50Z</time>
      </trkpt>
      <trkpt lat="44.43106" lon="3.58863">
        <ele>1147</ele>
        <time>2009-07-07T12:36:03Z</time>
      </trkpt>
      <trkpt lat="44.43104" lon="3.58857">
        <ele>1147</ele>
        <time>2009-07-07T12:36:20Z</time>
      </trkpt>
      <trkpt lat="44.43105" lon="3.58856">
        <ele>1147</ele>
        <time>2009-07-07T12:36:40Z</time>
      </trkpt>
      <trkpt lat="44.43102" lon="3.58857">
        <ele>1146</ele>
        <time>2009-07-07T12:37:45Z</time>
      </trkpt>
      <trkpt lat="44.43101" lon="3.58853">
        <ele>1146</ele>
        <time>2009-07-07T12:38:00Z</time>
      </trkpt>
      <trkpt lat="44.43101" lon="3.58851">
        <ele>1146</ele>
        <time>2009-07-07T12:38:03Z</time>
      </trkpt>
      <trkpt lat="44.43098" lon="3.58835">
        <ele>1144</ele>
        <time>2009-07-07T12:38:09Z</time>
      </trkpt>
      <trkpt lat="44.43097" lon="3.58823">
        <ele>1142</ele>
        <time>2009-07-07T12:38:12Z</time>
      </trkpt>
      <trkpt lat="44.43096" lon="3.58802">
        <ele>1140</ele>
        <time>2009-07-07T12:38:21Z</time>
      </trkpt>
      <trkpt lat="44.4309" lon="3.58799">
        <ele>1138</ele>
        <time>2009-07-07T12:38:35Z</time>
      </trkpt>
      <trkpt lat="44.43085" lon="3.58806">
        <ele>1136</ele>
        <time>2009-07-07T12:38:49Z</time>
      </trkpt>
      <trkpt lat="44.4308" lon="3.58816">
        <ele>1133</ele>
        <time>2009-07-07T12:39:01Z</time>
      </trkpt>
      <trkpt lat="44.43075" lon="3.58816">
        <ele>1132</ele>
        <time>2009-07-07T12:39:12Z</time>
      </trkpt>
      <trkpt lat="44.4307" lon="3.58804">
        <ele>1128</ele>
        <time>2009-07-07T12:39:17Z</time>
      </trkpt>
      <trkpt lat="44.43071" lon="3.58798">
        <ele>1128</ele>
        <time>2009-07-07T12:39:20Z</time>
      </trkpt>
      <trkpt lat="44.43071" lon="3.58792">
        <ele>1126</ele>
        <time>2009-07-07T12:39:22Z</time>
      </trkpt>
      <trkpt lat="44.4307" lon="3.58788">
        <ele>1125</ele>
        <time>2009-07-07T12:39:24Z</time>
      </trkpt>
      <trkpt lat="44.43067" lon="3.58784">
        <ele>1122</ele>
        <time>2009-07-07T12:39:28Z</time>
      </trkpt>
      <trkpt lat="44.43063" lon="3.58778">
        <ele>1121</ele>
        <time>2009-07-07T12:39:40Z</time>
      </trkpt>
      <trkpt lat="44.4306" lon="3.58768">
        <ele>1118</ele>
        <time>2009-07-07T12:39:51Z</time>
      </trkpt>
      <trkpt lat="44.4306" lon="3.58765">
        <ele>1116</ele>
        <time>2009-07-07T12:39:52Z</time>
      </trkpt>
      <trkpt lat="44.43058" lon="3.5876">
        <ele>1115</ele>
        <time>2009-07-07T12:39:55Z</time>
      </trkpt>
      <trkpt lat="44.43059" lon="3.58754">
        <ele>1113</ele>
        <time>2009-07-07T12:40:06Z</time>
      </trkpt>
      <trkpt lat="44.43056" lon="3.58743">
        <ele>1112</ele>
        <time>2009-07-07T12:40:18Z</time>
      </trkpt>
      <trkpt lat="44.43053" lon="3.58742">
        <ele>1110</ele>
        <time>2009-07-07T12:40:25Z</time>
      </trkpt>
      <trkpt lat="44.43053" lon="3.58733">
        <ele>1108</ele>
        <time>2009-07-07T12:40:38Z</time>
      </trkpt>
      <trkpt lat="44.4305" lon="3.58725">
        <ele>1105</ele>
        <time>2009-07-07T12:40:53Z</time>
      </trkpt>
      <trkpt lat="44.43048" lon="3.58714">
        <ele>1103</ele>
        <time>2009-07-07T12:40:59Z</time>
      </trkpt>
      <trkpt lat="44.43047" lon="3.58712">
        <ele>1102</ele>
        <time>2009-07-07T12:41:00Z</time>
      </trkpt>
      <trkpt lat="44.43034" lon="3.58706">
        <ele>1102</ele>
        <time>2009-07-07T12:41:10Z</time>
      </trkpt>
      <trkpt lat="44.43025" lon="3.58699">
        <ele>1102</ele>
        <time>2009-07-07T12:41:15Z</time>
      </trkpt>
      <trkpt lat="44.43024" lon="3.5869">
        <ele>1104</ele>
        <time>2009-07-07T12:41:20Z</time>
      </trkpt>
      <trkpt lat="44.43028" lon="3.58671">
        <ele>1105</ele>
        <time>2009-07-07T12:41:29Z</time>
      </trkpt>
      <trkpt lat="44.4303" lon="3.58668">
        <ele>1106</ele>
        <time>2009-07-07T12:41:31Z</time>
      </trkpt>
      <trkpt lat="44.43042" lon="3.58644">
        <ele>1109</ele>
        <time>2009-07-07T12:41:43Z</time>
      </trkpt>
      <trkpt lat="44.43044" lon="3.58639">
        <ele>1111</ele>
        <time>2009-07-07T12:41:47Z</time>
      </trkpt>
      <trkpt lat="44.43042" lon="3.58635">
        <ele>1111</ele>
        <time>2009-07-07T12:41:51Z</time>
      </trkpt>
      <trkpt lat="44.4304" lon="3.58643">
        <ele>1112</ele>
        <time>2009-07-07T12:42:04Z</time>
      </trkpt>
      <trkpt lat="44.43038" lon="3.58645">
        <ele>1112</ele>
        <time>2009-07-07T12:42:15Z</time>
      </trkpt>
      <trkpt lat="44.43008" lon="3.58649">
        <ele>1114</ele>
        <time>2009-07-07T12:42:30Z</time>
      </trkpt>
      <trkpt lat="44.43" lon="3.58661">
        <ele>1115</ele>
        <time>2009-07-07T12:42:37Z</time>
      </trkpt>
      <trkpt lat="44.43001" lon="3.58674">
        <ele>1116</ele>
        <time>2009-07-07T12:42:42Z</time>
      </trkpt>
      <trkpt lat="44.42995" lon="3.58714">
        <ele>1118</ele>
        <time>2009-07-07T12:42:57Z</time>
      </trkpt>
      <trkpt lat="44.42988" lon="3.58757">
        <ele>1121</ele>
        <time>2009-07-07T12:43:15Z</time>
      </trkpt>
      <trkpt lat="44.42985" lon="3.58774">
        <ele>1123</ele>
        <time>2009-07-07T12:43:23Z</time>
      </trkpt>
      <trkpt lat="44.42984" lon="3.58776">
        <ele>1123</ele>
        <time>2009-07-07T12:43:24Z</time>
      </trkpt>
      <trkpt lat="44.42979" lon="3.58765">
        <ele>1124</ele>
        <time>2009-07-07T12:43:31Z</time>
      </trkpt>
      <trkpt lat="44.42979" lon="3.58762">
        <ele>1124</ele>
        <time>2009-07-07T12:43:33Z</time>
      </trkpt>
      <trkpt lat="44.42978" lon="3.58753">
        <ele>1124</ele>
        <time>2009-07-07T12:43:37Z</time>
      </trkpt>
      <trkpt lat="44.42976" lon="3.58741">
        <ele>1125</ele>
        <time>2009-07-07T12:43:42Z</time>
      </trkpt>
      <trkpt lat="44.42975" lon="3.58728">
        <ele>1125</ele>
        <time>2009-07-07T12:43:47Z</time>
      </trkpt>
      <trkpt lat="44.42974" lon="3.58712">
        <ele>1127</ele>
        <time>2009-07-07T12:43:53Z</time>
      </trkpt>
      <trkpt lat="44.42974" lon="3.5871">
        <ele>1127</ele>
        <time>2009-07-07T12:43:54Z</time>
      </trkpt>
      <trkpt lat="44.42977" lon="3.58701">
        <ele>1128</ele>
        <time>2009-07-07T12:43:58Z</time>
      </trkpt>
      <trkpt lat="44.42964" lon="3.58673">
        <ele>1129</ele>
        <time>2009-07-07T12:44:15Z</time>
      </trkpt>
      <trkpt lat="44.42953" lon="3.58662">
        <ele>1130</ele>
        <time>2009-07-07T12:44:23Z</time>
      </trkpt>
      <trkpt lat="44.42952" lon="3.58656">
        <ele>1130</ele>
        <time>2009-07-07T12:44:26Z</time>
      </trkpt>
      <trkpt lat="44.42942" lon="3.5865">
        <ele>1131</ele>
        <time>2009-07-07T12:44:32Z</time>
      </trkpt>
      <trkpt lat="44.42915" lon="3.58636">
        <ele>1134</ele>
        <time>2009-07-07T12:44:48Z</time>
      </trkpt>
      <trkpt lat="44.42888" lon="3.5863">
        <ele>1137</ele>
        <time>2009-07-07T12:45:03Z</time>
      </trkpt>
      <trkpt lat="44.42851" lon="3.58613">
        <ele>1139</ele>
        <time>2009-07-07T12:45:24Z</time>
      </trkpt>
      <trkpt lat="44.42842" lon="3.58608">
        <ele>1140</ele>
        <time>2009-07-07T12:45:29Z</time>
      </trkpt>
      <trkpt lat="44.42806" lon="3.58592">
        <ele>1144</ele>
        <time>2009-07-07T12:45:49Z</time>
      </trkpt>
      <trkpt lat="44.4279" lon="3.58583">
        <ele>1145</ele>
        <time>2009-07-07T12:46:05Z</time>
      </trkpt>
      <trkpt lat="44.42788" lon="3.58582">
        <ele>1144</ele>
        <time>2009-07-07T12:46:29Z</time>
      </trkpt>
      <trkpt lat="44.42787" lon="3.58581">
        <ele>1145</ele>
        <time>2009-07-07T12:46:40Z</time>
      </trkpt>
      <trkpt lat="44.42776" lon="3.5859">
        <ele>1145</ele>
        <time>2009-07-07T12:46:47Z</time>
      </trkpt>
      <trkpt lat="44.4275" lon="3.5861">
        <ele>1148</ele>
        <time>2009-07-07T12:47:00Z</time>
      </trkpt>
      <trkpt lat="44.42715" lon="3.58647">
        <ele>1151</ele>
        <time>2009-07-07T12:47:17Z</time>
      </trkpt>
      <trkpt lat="44.42669" lon="3.58677">
        <ele>1152</ele>
        <time>2009-07-07T12:47:36Z</time>
      </trkpt>
      <trkpt lat="44.42619" lon="3.58658">
        <ele>1155</ele>
        <time>2009-07-07T12:47:54Z</time>
      </trkpt>
      <trkpt lat="44.4256" lon="3.5861">
        <ele>1154</ele>
        <time>2009-07-07T12:48:12Z</time>
      </trkpt>
      <trkpt lat="44.42556" lon="3.58607">
        <ele>1154</ele>
        <time>2009-07-07T12:48:13Z</time>
      </trkpt>
      <trkpt lat="44.42542" lon="3.58585">
        <ele>1153</ele>
        <time>2009-07-07T12:48:18Z</time>
      </trkpt>
      <trkpt lat="44.42479" lon="3.58522">
        <ele>1153</ele>
        <time>2009-07-07T12:48:34Z</time>
      </trkpt>
      <trkpt lat="44.42411" lon="3.58455">
        <ele>1149</ele>
        <time>2009-07-07T12:48:49Z</time>
      </trkpt>
      <trkpt lat="44.42405" lon="3.5845">
        <ele>1149</ele>
        <time>2009-07-07T12:48:50Z</time>
      </trkpt>
      <trkpt lat="44.42391" lon="3.58438">
        <ele>1146</ele>
        <time>2009-07-07T12:48:52Z</time>
      </trkpt>
      <trkpt lat="44.42366" lon="3.58422">
        <ele>1143</ele>
        <time>2009-07-07T12:48:55Z</time>
      </trkpt>
      <trkpt lat="44.42253" lon="3.58384">
        <ele>1141</ele>
        <time>2009-07-07T12:49:07Z</time>
      </trkpt>
      <trkpt lat="44.42218" lon="3.58394">
        <ele>1141</ele>
        <time>2009-07-07T12:49:11Z</time>
      </trkpt>
      <trkpt lat="44.4212" lon="3.58392">
        <ele>1142</ele>
        <time>2009-07-07T12:49:24Z</time>
      </trkpt>
      <trkpt lat="44.42082" lon="3.58385">
        <ele>1142</ele>
        <time>2009-07-07T12:49:30Z</time>
      </trkpt>
      <trkpt lat="44.42058" lon="3.58361">
        <ele>1143</ele>
        <time>2009-07-07T12:49:35Z</time>
      </trkpt>
      <trkpt lat="44.42021" lon="3.58279">
        <ele>1142</ele>
        <time>2009-07-07T12:49:47Z</time>
      </trkpt>
      <trkpt lat="44.42018" lon="3.58264">
        <ele>1141</ele>
        <time>2009-07-07T12:49:49Z</time>
      </trkpt>
      <trkpt lat="44.42019" lon="3.58249">
        <ele>1141</ele>
        <time>2009-07-07T12:49:51Z</time>
      </trkpt>
      <trkpt lat="44.42029" lon="3.58193">
        <ele>1144</ele>
        <time>2009-07-07T12:49:59Z</time>
      </trkpt>
      <trkpt lat="44.42032" lon="3.58179">
        <ele>1145</ele>
        <time>2009-07-07T12:50:01Z</time>
      </trkpt>
      <trkpt lat="44.42034" lon="3.58165">
        <ele>1143</ele>
        <time>2009-07-07T12:50:03Z</time>
      </trkpt>
      <trkpt lat="44.4206" lon="3.58013">
        <ele>1146</ele>
        <time>2009-07-07T12:50:24Z</time>
      </trkpt>
      <trkpt lat="44.42075" lon="3.57919">
        <ele>1142</ele>
        <time>2009-07-07T12:50:36Z</time>
      </trkpt>
      <trkpt lat="44.42077" lon="3.57911">
        <ele>1145</ele>
        <time>2009-07-07T12:50:37Z</time>
      </trkpt>
      <trkpt lat="44.42086" lon="3.57853">
        <ele>1142</ele>
        <time>2009-07-07T12:50:44Z</time>
      </trkpt>
      <trkpt lat="44.42089" lon="3.57835">
        <ele>1142</ele>
        <time>2009-07-07T12:50:46Z</time>
      </trkpt>
      <trkpt lat="44.42092" lon="3.57818">
        <ele>1144</ele>
        <time>2009-07-07T12:50:48Z</time>
      </trkpt>
      <trkpt lat="44.42096" lon="3.57794">
        <ele>1146</ele>
        <time>2009-07-07T12:50:51Z</time>
      </trkpt>
      <trkpt lat="44.42113" lon="3.57697">
        <ele>1147</ele>
        <time>2009-07-07T12:51:06Z</time>
      </trkpt>
      <trkpt lat="44.42143" lon="3.57571">
        <ele>1146</ele>
        <time>2009-07-07T12:51:24Z</time>
      </trkpt>
      <trkpt lat="44.42185" lon="3.57456">
        <ele>1143</ele>
        <time>2009-07-07T12:51:40Z</time>
      </trkpt>
      <trkpt lat="44.42222" lon="3.57384">
        <ele>1136</ele>
        <time>2009-07-07T12:51:49Z</time>
      </trkpt>
      <trkpt lat="44.42235" lon="3.57357">
        <ele>1135</ele>
        <time>2009-07-07T12:51:52Z</time>
      </trkpt>
      <trkpt lat="44.42251" lon="3.57319">
        <ele>1133</ele>
        <time>2009-07-07T12:51:56Z</time>
      </trkpt>
      <trkpt lat="44.42289" lon="3.57174">
        <ele>1131</ele>
        <time>2009-07-07T12:52:11Z</time>
      </trkpt>
      <trkpt lat="44.42305" lon="3.5703">
        <ele>1131</ele>
        <time>2009-07-07T12:52:26Z</time>
      </trkpt>
      <trkpt lat="44.42306" lon="3.56939">
        <ele>1128</ele>
        <time>2009-07-07T12:52:36Z</time>
      </trkpt>
      <trkpt lat="44.42306" lon="3.56917">
        <ele>1127</ele>
        <time>2009-07-07T12:52:38Z</time>
      </trkpt>
      <trkpt lat="44.42302" lon="3.56861">
        <ele>1123</ele>
        <time>2009-07-07T12:52:43Z</time>
      </trkpt>
      <trkpt lat="44.423" lon="3.5685">
        <ele>1124</ele>
        <time>2009-07-07T12:52:44Z</time>
      </trkpt>
      <trkpt lat="44.42273" lon="3.56736">
        <ele>1123</ele>
        <time>2009-07-07T12:52:55Z</time>
      </trkpt>
      <trkpt lat="44.42259" lon="3.56697">
        <ele>1121</ele>
        <time>2009-07-07T12:52:59Z</time>
      </trkpt>
      <trkpt lat="44.42228" lon="3.56623">
        <ele>1120</ele>
        <time>2009-07-07T12:53:07Z</time>
      </trkpt>
      <trkpt lat="44.42199" lon="3.56553">
        <ele>1120</ele>
        <time>2009-07-07T12:53:16Z</time>
      </trkpt>
      <trkpt lat="44.42178" lon="3.5649">
        <ele>1118</ele>
        <time>2009-07-07T12:53:24Z</time>
      </trkpt>
      <trkpt lat="44.42153" lon="3.56356">
        <ele>1117</ele>
        <time>2009-07-07T12:53:38Z</time>
      </trkpt>
      <trkpt lat="44.42138" lon="3.56271">
        <ele>1113</ele>
        <time>2009-07-07T12:53:46Z</time>
      </trkpt>
      <trkpt lat="44.42134" lon="3.56247">
        <ele>1109</ele>
        <time>2009-07-07T12:53:48Z</time>
      </trkpt>
      <trkpt lat="44.42133" lon="3.56235">
        <ele>1110</ele>
        <time>2009-07-07T12:53:49Z</time>
      </trkpt>
      <trkpt lat="44.42113" lon="3.56138">
        <ele>1106</ele>
        <time>2009-07-07T12:53:57Z</time>
      </trkpt>
      <trkpt lat="44.42109" lon="3.56113">
        <ele>1104</ele>
        <time>2009-07-07T12:53:59Z</time>
      </trkpt>
      <trkpt lat="44.42102" lon="3.56075">
        <ele>1101</ele>
        <time>2009-07-07T12:54:02Z</time>
      </trkpt>
      <trkpt lat="44.421" lon="3.56062">
        <ele>1101</ele>
        <time>2009-07-07T12:54:03Z</time>
      </trkpt>
      <trkpt lat="44.42091" lon="3.56011">
        <ele>1097</ele>
        <time>2009-07-07T12:54:07Z</time>
      </trkpt>
      <trkpt lat="44.42089" lon="3.55998">
        <ele>1098</ele>
        <time>2009-07-07T12:54:08Z</time>
      </trkpt>
      <trkpt lat="44.42082" lon="3.5596">
        <ele>1096</ele>
        <time>2009-07-07T12:54:11Z</time>
      </trkpt>
      <trkpt lat="44.42072" lon="3.55896">
        <ele>1094</ele>
        <time>2009-07-07T12:54:16Z</time>
      </trkpt>
      <trkpt lat="44.4205" lon="3.55771">
        <ele>1090</ele>
        <time>2009-07-07T12:54:25Z</time>
      </trkpt>
      <trkpt lat="44.42035" lon="3.55684">
        <ele>1088</ele>
        <time>2009-07-07T12:54:31Z</time>
      </trkpt>
      <trkpt lat="44.42028" lon="3.55641">
        <ele>1087</ele>
        <time>2009-07-07T12:54:34Z</time>
      </trkpt>
      <trkpt lat="44.42021" lon="3.55599">
        <ele>1083</ele>
        <time>2009-07-07T12:54:37Z</time>
      </trkpt>
      <trkpt lat="44.41987" lon="3.554">
        <ele>1083</ele>
        <time>2009-07-07T12:54:53Z</time>
      </trkpt>
      <trkpt lat="44.41967" lon="3.55297">
        <ele>1084</ele>
        <time>2009-07-07T12:55:06Z</time>
      </trkpt>
      <trkpt lat="44.41966" lon="3.55278">
        <ele>1083</ele>
        <time>2009-07-07T12:55:10Z</time>
      </trkpt>
      <trkpt lat="44.41954" lon="3.55252">
        <ele>1083</ele>
        <time>2009-07-07T12:55:22Z</time>
      </trkpt>
      <trkpt lat="44.41947" lon="3.55235">
        <ele>1082</ele>
        <time>2009-07-07T12:55:32Z</time>
      </trkpt>
      <trkpt lat="44.41935" lon="3.55159">
        <ele>1079</ele>
        <time>2009-07-07T12:55:42Z</time>
      </trkpt>
      <trkpt lat="44.41936" lon="3.5513">
        <ele>1078</ele>
        <time>2009-07-07T12:55:45Z</time>
      </trkpt>
      <trkpt lat="44.4194" lon="3.5511">
        <ele>1077</ele>
        <time>2009-07-07T12:55:47Z</time>
      </trkpt>
      <trkpt lat="44.41942" lon="3.551">
        <ele>1074</ele>
        <time>2009-07-07T12:55:48Z</time>
      </trkpt>
      <trkpt lat="44.41973" lon="3.54941">
        <ele>1075</ele>
        <time>2009-07-07T12:56:04Z</time>
      </trkpt>
      <trkpt lat="44.41974" lon="3.54933">
        <ele>1075</ele>
        <time>2009-07-07T12:56:05Z</time>
      </trkpt>
      <trkpt lat="44.41979" lon="3.54882">
        <ele>1074</ele>
        <time>2009-07-07T12:56:12Z</time>
      </trkpt>
      <trkpt lat="44.41982" lon="3.548">
        <ele>1071</ele>
        <time>2009-07-07T12:56:22Z</time>
      </trkpt>
      <trkpt lat="44.41984" lon="3.54711">
        <ele>1072</ele>
        <time>2009-07-07T12:56:32Z</time>
      </trkpt>
      <trkpt lat="44.41981" lon="3.54667">
        <ele>1070</ele>
        <time>2009-07-07T12:56:37Z</time>
      </trkpt>
      <trkpt lat="44.41972" lon="3.54621">
        <ele>1067</ele>
        <time>2009-07-07T12:56:42Z</time>
      </trkpt>
      <trkpt lat="44.41969" lon="3.54611">
        <ele>1067</ele>
        <time>2009-07-07T12:56:43Z</time>
      </trkpt>
      <trkpt lat="44.41966" lon="3.54602">
        <ele>1065</ele>
        <time>2009-07-07T12:56:44Z</time>
      </trkpt>
      <trkpt lat="44.41953" lon="3.54573">
        <ele>1061</ele>
        <time>2009-07-07T12:56:47Z</time>
      </trkpt>
      <trkpt lat="44.41931" lon="3.54531">
        <ele>1058</ele>
        <time>2009-07-07T12:56:51Z</time>
      </trkpt>
      <trkpt lat="44.41898" lon="3.54453">
        <ele>1054</ele>
        <time>2009-07-07T12:56:58Z</time>
      </trkpt>
      <trkpt lat="44.41891" lon="3.54426">
        <ele>1052</ele>
        <time>2009-07-07T12:57:01Z</time>
      </trkpt>
      <trkpt lat="44.41888" lon="3.54407">
        <ele>1049</ele>
        <time>2009-07-07T12:57:03Z</time>
      </trkpt>
      <trkpt lat="44.4188" lon="3.54364">
        <ele>1052</ele>
        <time>2009-07-07T12:57:08Z</time>
      </trkpt>
      <trkpt lat="44.41879" lon="3.54358">
        <ele>1052</ele>
        <time>2009-07-07T12:57:09Z</time>
      </trkpt>
      <trkpt lat="44.41867" lon="3.54316">
        <ele>1052</ele>
        <time>2009-07-07T12:57:21Z</time>
      </trkpt>
      <trkpt lat="44.41854" lon="3.54245">
        <ele>1053</ele>
        <time>2009-07-07T12:57:37Z</time>
      </trkpt>
      <trkpt lat="44.41849" lon="3.54205">
        <ele>1055</ele>
        <time>2009-07-07T12:57:45Z</time>
      </trkpt>
      <trkpt lat="44.41854" lon="3.54126">
        <ele>1058</ele>
        <time>2009-07-07T12:58:02Z</time>
      </trkpt>
      <trkpt lat="44.41867" lon="3.54055">
        <ele>1059</ele>
        <time>2009-07-07T12:58:17Z</time>
      </trkpt>
      <trkpt lat="44.41863" lon="3.54016">
        <ele>1062</ele>
        <time>2009-07-07T12:58:25Z</time>
      </trkpt>
      <trkpt lat="44.41853" lon="3.53917">
        <ele>1065</ele>
        <time>2009-07-07T12:58:45Z</time>
      </trkpt>
      <trkpt lat="44.41855" lon="3.53854">
        <ele>1069</ele>
        <time>2009-07-07T12:58:59Z</time>
      </trkpt>
      <trkpt lat="44.41855" lon="3.53849">
        <ele>1069</ele>
        <time>2009-07-07T12:59:00Z</time>
      </trkpt>
      <trkpt lat="44.4184" lon="3.53771">
        <ele>1070</ele>
        <time>2009-07-07T12:59:19Z</time>
      </trkpt>
      <trkpt lat="44.41828" lon="3.53752">
        <ele>1071</ele>
        <time>2009-07-07T12:59:25Z</time>
      </trkpt>
      <trkpt lat="44.41792" lon="3.53722">
        <ele>1074</ele>
        <time>2009-07-07T12:59:40Z</time>
      </trkpt>
      <trkpt lat="44.41753" lon="3.53706">
        <ele>1076</ele>
        <time>2009-07-07T12:59:54Z</time>
      </trkpt>
      <trkpt lat="44.41722" lon="3.53675">
        <ele>1079</ele>
        <time>2009-07-07T13:00:07Z</time>
      </trkpt>
      <trkpt lat="44.41711" lon="3.53662">
        <ele>1080</ele>
        <time>2009-07-07T13:00:12Z</time>
      </trkpt>
      <trkpt lat="44.41666" lon="3.53625">
        <ele>1082</ele>
        <time>2009-07-07T13:00:31Z</time>
      </trkpt>
      <trkpt lat="44.41635" lon="3.53604">
        <ele>1086</ele>
        <time>2009-07-07T13:00:44Z</time>
      </trkpt>
      <trkpt lat="44.4159" lon="3.53596">
        <ele>1087</ele>
        <time>2009-07-07T13:01:02Z</time>
      </trkpt>
      <trkpt lat="44.41554" lon="3.53597">
        <ele>1090</ele>
        <time>2009-07-07T13:01:16Z</time>
      </trkpt>
      <trkpt lat="44.41507" lon="3.53628">
        <ele>1092</ele>
        <time>2009-07-07T13:01:36Z</time>
      </trkpt>
      <trkpt lat="44.41499" lon="3.53636">
        <ele>1093</ele>
        <time>2009-07-07T13:01:40Z</time>
      </trkpt>
      <trkpt lat="44.41501" lon="3.53615">
        <ele>1095</ele>
        <time>2009-07-07T13:01:48Z</time>
      </trkpt>
      <trkpt lat="44.41541" lon="3.53572">
        <ele>1098</ele>
        <time>2009-07-07T13:02:06Z</time>
      </trkpt>
      <trkpt lat="44.41549" lon="3.53556">
        <ele>1099</ele>
        <time>2009-07-07T13:02:11Z</time>
      </trkpt>
      <trkpt lat="44.41566" lon="3.53488">
        <ele>1099</ele>
        <time>2009-07-07T13:02:30Z</time>
      </trkpt>
      <trkpt lat="44.41564" lon="3.53439">
        <ele>1095</ele>
        <time>2009-07-07T13:02:39Z</time>
      </trkpt>
      <trkpt lat="44.41564" lon="3.53432">
        <ele>1095</ele>
        <time>2009-07-07T13:02:40Z</time>
      </trkpt>
      <trkpt lat="44.4156" lon="3.53409">
        <ele>1092</ele>
        <time>2009-07-07T13:02:43Z</time>
      </trkpt>
      <trkpt lat="44.41558" lon="3.53392">
        <ele>1091</ele>
        <time>2009-07-07T13:02:45Z</time>
      </trkpt>
      <trkpt lat="44.41553" lon="3.53349">
        <ele>1091</ele>
        <time>2009-07-07T13:02:50Z</time>
      </trkpt>
      <trkpt lat="44.41551" lon="3.5333">
        <ele>1090</ele>
        <time>2009-07-07T13:02:52Z</time>
      </trkpt>
      <trkpt lat="44.41548" lon="3.5331">
        <ele>1088</ele>
        <time>2009-07-07T13:02:54Z</time>
      </trkpt>
      <trkpt lat="44.4154" lon="3.53245">
        <ele>1083</ele>
        <time>2009-07-07T13:03:00Z</time>
      </trkpt>
      <trkpt lat="44.41541" lon="3.53165">
        <ele>1079</ele>
        <time>2009-07-07T13:03:07Z</time>
      </trkpt>
      <trkpt lat="44.41543" lon="3.5313">
        <ele>1075</ele>
        <time>2009-07-07T13:03:10Z</time>
      </trkpt>
      <trkpt lat="44.41543" lon="3.53118">
        <ele>1075</ele>
        <time>2009-07-07T13:03:11Z</time>
      </trkpt>
      <trkpt lat="44.41532" lon="3.53014">
        <ele>1072</ele>
        <time>2009-07-07T13:03:20Z</time>
      </trkpt>
      <trkpt lat="44.4153" lon="3.52991">
        <ele>1070</ele>
        <time>2009-07-07T13:03:22Z</time>
      </trkpt>
      <trkpt lat="44.41531" lon="3.52932">
        <ele>1067</ele>
        <time>2009-07-07T13:03:27Z</time>
      </trkpt>
      <trkpt lat="44.41534" lon="3.52884">
        <ele>1065</ele>
        <time>2009-07-07T13:03:31Z</time>
      </trkpt>
      <trkpt lat="44.41533" lon="3.52848">
        <ele>1062</ele>
        <time>2009-07-07T13:03:34Z</time>
      </trkpt>
      <trkpt lat="44.41519" lon="3.5278">
        <ele>1058</ele>
        <time>2009-07-07T13:03:40Z</time>
      </trkpt>
      <trkpt lat="44.41515" lon="3.5277">
        <ele>1059</ele>
        <time>2009-07-07T13:03:41Z</time>
      </trkpt>
      <trkpt lat="44.415" lon="3.52713">
        <ele>1055</ele>
        <time>2009-07-07T13:03:46Z</time>
      </trkpt>
      <trkpt lat="44.41496" lon="3.5269">
        <ele>1053</ele>
        <time>2009-07-07T13:03:48Z</time>
      </trkpt>
      <trkpt lat="44.41491" lon="3.52655">
        <ele>1052</ele>
        <time>2009-07-07T13:03:51Z</time>
      </trkpt>
      <trkpt lat="44.41487" lon="3.5256">
        <ele>1052</ele>
        <time>2009-07-07T13:04:00Z</time>
      </trkpt>
      <trkpt lat="44.41485" lon="3.52485">
        <ele>1049</ele>
        <time>2009-07-07T13:04:07Z</time>
      </trkpt>
      <trkpt lat="44.41484" lon="3.5243">
        <ele>1048</ele>
        <time>2009-07-07T13:04:12Z</time>
      </trkpt>
      <trkpt lat="44.41483" lon="3.52361">
        <ele>1045</ele>
        <time>2009-07-07T13:04:18Z</time>
      </trkpt>
      <trkpt lat="44.41482" lon="3.52338">
        <ele>1042</ele>
        <time>2009-07-07T13:04:20Z</time>
      </trkpt>
      <trkpt lat="44.41481" lon="3.52269">
        <ele>1040</ele>
        <time>2009-07-07T13:04:26Z</time>
      </trkpt>
      <trkpt lat="44.41479" lon="3.52198">
        <ele>1038</ele>
        <time>2009-07-07T13:04:32Z</time>
      </trkpt>
      <trkpt lat="44.41478" lon="3.52149">
        <ele>1036</ele>
        <time>2009-07-07T13:04:36Z</time>
      </trkpt>
      <trkpt lat="44.41477" lon="3.52074">
        <ele>1032</ele>
        <time>2009-07-07T13:04:42Z</time>
      </trkpt>
      <trkpt lat="44.41474" lon="3.51899">
        <ele>1028</ele>
        <time>2009-07-07T13:04:58Z</time>
      </trkpt>
      <trkpt lat="44.41474" lon="3.51873">
        <ele>1030</ele>
        <time>2009-07-07T13:05:01Z</time>
      </trkpt>
      <trkpt lat="44.41471" lon="3.51763">
        <ele>1029</ele>
        <time>2009-07-07T13:05:14Z</time>
      </trkpt>
      <trkpt lat="44.41467" lon="3.51609">
        <ele>1029</ele>
        <time>2009-07-07T13:05:33Z</time>
      </trkpt>
      <trkpt lat="44.41464" lon="3.51472">
        <ele>1029</ele>
        <time>2009-07-07T13:05:53Z</time>
      </trkpt>
      <trkpt lat="44.41464" lon="3.51458">
        <ele>1031</ele>
        <time>2009-07-07T13:05:55Z</time>
      </trkpt>
      <trkpt lat="44.41462" lon="3.51342">
        <ele>1030</ele>
        <time>2009-07-07T13:06:13Z</time>
      </trkpt>
      <trkpt lat="44.41459" lon="3.51181">
        <ele>1031</ele>
        <time>2009-07-07T13:06:38Z</time>
      </trkpt>
      <trkpt lat="44.41457" lon="3.51052">
        <ele>1033</ele>
        <time>2009-07-07T13:07:00Z</time>
      </trkpt>
      <trkpt lat="44.41458" lon="3.51048">
        <ele>1032</ele>
        <time>2009-07-07T13:07:01Z</time>
      </trkpt>
      <trkpt lat="44.41466" lon="3.51042">
        <ele>1033</ele>
        <time>2009-07-07T13:07:04Z</time>
      </trkpt>
      <trkpt lat="44.41476" lon="3.51041">
        <ele>1033</ele>
        <time>2009-07-07T13:07:07Z</time>
      </trkpt>
      <trkpt lat="44.41516" lon="3.51045">
        <ele>1032</ele>
        <time>2009-07-07T13:07:20Z</time>
      </trkpt>
      <trkpt lat="44.41527" lon="3.51046">
        <ele>1035</ele>
        <time>2009-07-07T13:07:24Z</time>
      </trkpt>
      <trkpt lat="44.41531" lon="3.51047">
        <ele>1034</ele>
        <time>2009-07-07T13:07:27Z</time>
      </trkpt>
      <trkpt lat="44.4154" lon="3.51048">
        <ele>1033</ele>
        <time>2009-07-07T13:07:34Z</time>
      </trkpt>
      <trkpt lat="44.41543" lon="3.51048">
        <ele>1034</ele>
        <time>2009-07-07T13:07:36Z</time>
      </trkpt>
      <trkpt lat="44.41538" lon="3.51043">
        <ele>1034</ele>
        <time>2009-07-07T13:07:43Z</time>
      </trkpt>
      <trkpt lat="44.41533" lon="3.51043">
        <ele>1034</ele>
        <time>2009-07-07T13:07:45Z</time>
      </trkpt>
      <trkpt lat="44.4153" lon="3.51035">
        <ele>1034</ele>
        <time>2009-07-07T13:07:49Z</time>
      </trkpt>
      <trkpt lat="44.41533" lon="3.51014">
        <ele>1034</ele>
        <time>2009-07-07T13:08:03Z</time>
      </trkpt>
      <trkpt lat="44.41532" lon="3.51004">
        <ele>1036</ele>
        <time>2009-07-07T13:08:18Z</time>
      </trkpt>
      <trkpt lat="44.41533" lon="3.51003">
        <ele>1035</ele>
        <time>2009-07-07T13:08:40Z</time>
      </trkpt>
      <trkpt lat="44.41533" lon="3.51001">
        <ele>1034</ele>
        <time>2009-07-07T13:08:51Z</time>
      </trkpt>
      <trkpt lat="44.41541" lon="3.50961">
        <ele>1037</ele>
        <time>2009-07-07T13:09:05Z</time>
      </trkpt>
      <trkpt lat="44.41549" lon="3.50901">
        <ele>1040</ele>
        <time>2009-07-07T13:09:22Z</time>
      </trkpt>
      <trkpt lat="44.4156" lon="3.50824">
        <ele>1041</ele>
        <time>2009-07-07T13:09:43Z</time>
      </trkpt>
      <trkpt lat="44.41567" lon="3.50771">
        <ele>1043</ele>
        <time>2009-07-07T13:10:01Z</time>
      </trkpt>
      <trkpt lat="44.41567" lon="3.50718">
        <ele>1044</ele>
        <time>2009-07-07T13:10:19Z</time>
      </trkpt>
      <trkpt lat="44.41568" lon="3.50659">
        <ele>1044</ele>
        <time>2009-07-07T13:10:33Z</time>
      </trkpt>
      <trkpt lat="44.41573" lon="3.50624">
        <ele>1045</ele>
        <time>2009-07-07T13:10:42Z</time>
      </trkpt>
      <trkpt lat="44.41573" lon="3.50601">
        <ele>1046</ele>
        <time>2009-07-07T13:10:50Z</time>
      </trkpt>
      <trkpt lat="44.41572" lon="3.50585">
        <ele>1049</ele>
        <time>2009-07-07T13:10:55Z</time>
      </trkpt>
      <trkpt lat="44.41573" lon="3.5053">
        <ele>1052</ele>
        <time>2009-07-07T13:11:12Z</time>
      </trkpt>
      <trkpt lat="44.41577" lon="3.50507">
        <ele>1052</ele>
        <time>2009-07-07T13:11:18Z</time>
      </trkpt>
      <trkpt lat="44.41577" lon="3.50441">
        <ele>1054</ele>
        <time>2009-07-07T13:11:36Z</time>
      </trkpt>
      <trkpt lat="44.41573" lon="3.50372">
        <ele>1055</ele>
        <time>2009-07-07T13:11:55Z</time>
      </trkpt>
      <trkpt lat="44.41569" lon="3.50295">
        <ele>1055</ele>
        <time>2009-07-07T13:12:13Z</time>
      </trkpt>
      <trkpt lat="44.41573" lon="3.50256">
        <ele>1052</ele>
        <time>2009-07-07T13:12:20Z</time>
      </trkpt>
      <trkpt lat="44.41574" lon="3.50206">
        <ele>1049</ele>
        <time>2009-07-07T13:12:28Z</time>
      </trkpt>
      <trkpt lat="44.41581" lon="3.50181">
        <ele>1049</ele>
        <time>2009-07-07T13:12:32Z</time>
      </trkpt>
      <trkpt lat="44.41586" lon="3.50168">
        <ele>1049</ele>
        <time>2009-07-07T13:12:34Z</time>
      </trkpt>
      <trkpt lat="44.41588" lon="3.50136">
        <ele>1047</ele>
        <time>2009-07-07T13:12:39Z</time>
      </trkpt>
      <trkpt lat="44.41568" lon="3.50104">
        <ele>1049</ele>
        <time>2009-07-07T13:12:50Z</time>
      </trkpt>
      <trkpt lat="44.41536" lon="3.5009">
        <ele>1050</ele>
        <time>2009-07-07T13:13:04Z</time>
      </trkpt>
      <trkpt lat="44.41532" lon="3.50075">
        <ele>1048</ele>
        <time>2009-07-07T13:13:17Z</time>
      </trkpt>
      <trkpt lat="44.41533" lon="3.50076">
        <ele>1048</ele>
        <time>2009-07-07T13:14:02Z</time>
      </trkpt>
      <trkpt lat="44.41533" lon="3.50075">
        <ele>1047</ele>
        <time>2009-07-07T13:14:32Z</time>
      </trkpt>
      <trkpt lat="44.41531" lon="3.50076">
        <ele>1048</ele>
        <time>2009-07-07T13:14:44Z</time>
      </trkpt>
      <trkpt lat="44.41525" lon="3.50079">
        <ele>1048</ele>
        <time>2009-07-07T13:14:48Z</time>
      </trkpt>
      <trkpt lat="44.41475" lon="3.50081">
        <ele>1050</ele>
        <time>2009-07-07T13:15:07Z</time>
      </trkpt>
      <trkpt lat="44.4144" lon="3.50089">
        <ele>1050</ele>
        <time>2009-07-07T13:15:21Z</time>
      </trkpt>
      <trkpt lat="44.41417" lon="3.50109">
        <ele>1053</ele>
        <time>2009-07-07T13:15:35Z</time>
      </trkpt>
      <trkpt lat="44.41411" lon="3.50115">
        <ele>1054</ele>
        <time>2009-07-07T13:15:39Z</time>
      </trkpt>
      <trkpt lat="44.41408" lon="3.50115">
        <ele>1055</ele>
        <time>2009-07-07T13:15:41Z</time>
      </trkpt>
      <trkpt lat="44.41405" lon="3.50112">
        <ele>1056</ele>
        <time>2009-07-07T13:15:55Z</time>
      </trkpt>
      <trkpt lat="44.41402" lon="3.50105">
        <ele>1056</ele>
        <time>2009-07-07T13:16:03Z</time>
      </trkpt>
      <trkpt lat="44.41397" lon="3.50099">
        <ele>1055</ele>
        <time>2009-07-07T13:16:15Z</time>
      </trkpt>
      <trkpt lat="44.41393" lon="3.501">
        <ele>1055</ele>
        <time>2009-07-07T13:16:49Z</time>
      </trkpt>
      <trkpt lat="44.41368" lon="3.50104">
        <ele>1056</ele>
        <time>2009-07-07T13:17:03Z</time>
      </trkpt>
      <trkpt lat="44.41357" lon="3.50105">
        <ele>1054</ele>
        <time>2009-07-07T13:17:12Z</time>
      </trkpt>
      <trkpt lat="44.41356" lon="3.5009">
        <ele>1053</ele>
        <time>2009-07-07T13:17:16Z</time>
      </trkpt>
      <trkpt lat="44.41325" lon="3.50073">
        <ele>1054</ele>
        <time>2009-07-07T13:17:29Z</time>
      </trkpt>
      <trkpt lat="44.41312" lon="3.50067">
        <ele>1055</ele>
        <time>2009-07-07T13:17:41Z</time>
      </trkpt>
      <trkpt lat="44.41309" lon="3.50066">
        <ele>1055</ele>
        <time>2009-07-07T13:17:52Z</time>
      </trkpt>
      <trkpt lat="44.41299" lon="3.50067">
        <ele>1055</ele>
        <time>2009-07-07T13:18:04Z</time>
      </trkpt>
      <trkpt lat="44.4129" lon="3.50058">
        <ele>1056</ele>
        <time>2009-07-07T13:18:09Z</time>
      </trkpt>
      <trkpt lat="44.41268" lon="3.50023">
        <ele>1053</ele>
        <time>2009-07-07T13:18:21Z</time>
      </trkpt>
      <trkpt lat="44.41227" lon="3.49977">
        <ele>1054</ele>
        <time>2009-07-07T13:18:38Z</time>
      </trkpt>
      <trkpt lat="44.41215" lon="3.49966">
        <ele>1054</ele>
        <time>2009-07-07T13:18:43Z</time>
      </trkpt>
      <trkpt lat="44.41161" lon="3.49933">
        <ele>1052</ele>
        <time>2009-07-07T13:19:01Z</time>
      </trkpt>
      <trkpt lat="44.41142" lon="3.49923">
        <ele>1050</ele>
        <time>2009-07-07T13:19:07Z</time>
      </trkpt>
      <trkpt lat="44.41117" lon="3.49906">
        <ele>1049</ele>
        <time>2009-07-07T13:19:15Z</time>
      </trkpt>
      <trkpt lat="44.41085" lon="3.49853">
        <ele>1051</ele>
        <time>2009-07-07T13:19:31Z</time>
      </trkpt>
      <trkpt lat="44.41068" lon="3.49801">
        <ele>1052</ele>
        <time>2009-07-07T13:19:47Z</time>
      </trkpt>
      <trkpt lat="44.41064" lon="3.49789">
        <ele>1049</ele>
        <time>2009-07-07T13:19:52Z</time>
      </trkpt>
      <trkpt lat="44.41053" lon="3.49786">
        <ele>1050</ele>
        <time>2009-07-07T13:19:58Z</time>
      </trkpt>
      <trkpt lat="44.41031" lon="3.49756">
        <ele>1051</ele>
        <time>2009-07-07T13:20:12Z</time>
      </trkpt>
      <trkpt lat="44.41003" lon="3.49718">
        <ele>1051</ele>
        <time>2009-07-07T13:20:28Z</time>
      </trkpt>
      <trkpt lat="44.40996" lon="3.49683">
        <ele>1053</ele>
        <time>2009-07-07T13:20:40Z</time>
      </trkpt>
      <trkpt lat="44.40987" lon="3.49635">
        <ele>1055</ele>
        <time>2009-07-07T13:20:58Z</time>
      </trkpt>
      <trkpt lat="44.40979" lon="3.49589">
        <ele>1059</ele>
        <time>2009-07-07T13:21:15Z</time>
      </trkpt>
      <trkpt lat="44.40971" lon="3.49565">
        <ele>1062</ele>
        <time>2009-07-07T13:21:25Z</time>
      </trkpt>
      <trkpt lat="44.4096" lon="3.4954">
        <ele>1064</ele>
        <time>2009-07-07T13:21:35Z</time>
      </trkpt>
      <trkpt lat="44.40945" lon="3.49498">
        <ele>1062</ele>
        <time>2009-07-07T13:21:52Z</time>
      </trkpt>
      <trkpt lat="44.40946" lon="3.4948">
        <ele>1059</ele>
        <time>2009-07-07T13:22:00Z</time>
      </trkpt>
      <trkpt lat="44.40947" lon="3.49472">
        <ele>1060</ele>
        <time>2009-07-07T13:22:06Z</time>
      </trkpt>
      <trkpt lat="44.40947" lon="3.49472">
        <ele>1063</ele>
        <time>2009-07-07T13:22:10Z</time>
      </trkpt>
      <trkpt lat="44.40947" lon="3.49473">
        <ele>1061</ele>
        <time>2009-07-07T13:22:24Z</time>
      </trkpt>
      <trkpt lat="44.40947" lon="3.49473">
        <ele>1059</ele>
        <time>2009-07-07T13:22:35Z</time>
      </trkpt>
      <trkpt lat="44.40948" lon="3.49472">
        <ele>1061</ele>
        <time>2009-07-07T13:22:50Z</time>
      </trkpt>
      <trkpt lat="44.40947" lon="3.49472">
        <ele>1062</ele>
        <time>2009-07-07T13:23:00Z</time>
      </trkpt>
      <trkpt lat="44.40947" lon="3.49472">
        <ele>1062</ele>
        <time>2009-07-07T13:23:17Z</time>
      </trkpt>
      <trkpt lat="44.40947" lon="3.49468">
        <ele>1060</ele>
        <time>2009-07-07T13:23:19Z</time>
      </trkpt>
      <trkpt lat="44.40948" lon="3.49462">
        <ele>1059</ele>
        <time>2009-07-07T13:23:21Z</time>
      </trkpt>
      <trkpt lat="44.40946" lon="3.49431">
        <ele>1058</ele>
        <time>2009-07-07T13:23:28Z</time>
      </trkpt>
      <trkpt lat="44.40951" lon="3.494">
        <ele>1053</ele>
        <time>2009-07-07T13:23:33Z</time>
      </trkpt>
      <trkpt lat="44.40952" lon="3.49393">
        <ele>1054</ele>
        <time>2009-07-07T13:23:34Z</time>
      </trkpt>
      <trkpt lat="44.4095" lon="3.49322">
        <ele>1056</ele>
        <time>2009-07-07T13:23:45Z</time>
      </trkpt>
      <trkpt lat="44.40948" lon="3.49277">
        <ele>1055</ele>
        <time>2009-07-07T13:23:52Z</time>
      </trkpt>
      <trkpt lat="44.40953" lon="3.49227">
        <ele>1053</ele>
        <time>2009-07-07T13:23:59Z</time>
      </trkpt>
      <trkpt lat="44.40961" lon="3.49125">
        <ele>1049</ele>
        <time>2009-07-07T13:24:13Z</time>
      </trkpt>
      <trkpt lat="44.40966" lon="3.49041">
        <ele>1048</ele>
        <time>2009-07-07T13:24:24Z</time>
      </trkpt>
      <trkpt lat="44.40965" lon="3.49026">
        <ele>1046</ele>
        <time>2009-07-07T13:24:26Z</time>
      </trkpt>
      <trkpt lat="44.40963" lon="3.49009">
        <ele>1044</ele>
        <time>2009-07-07T13:24:28Z</time>
      </trkpt>
      <trkpt lat="44.40945" lon="3.48942">
        <ele>1042</ele>
        <time>2009-07-07T13:24:36Z</time>
      </trkpt>
      <trkpt lat="44.40943" lon="3.48916">
        <ele>1040</ele>
        <time>2009-07-07T13:24:39Z</time>
      </trkpt>
      <trkpt lat="44.40945" lon="3.48898">
        <ele>1040</ele>
        <time>2009-07-07T13:24:41Z</time>
      </trkpt>
      <trkpt lat="44.40951" lon="3.48856">
        <ele>1038</ele>
        <time>2009-07-07T13:24:46Z</time>
      </trkpt>
      <trkpt lat="44.40936" lon="3.48756">
        <ele>1040</ele>
        <time>2009-07-07T13:24:59Z</time>
      </trkpt>
      <trkpt lat="44.40936" lon="3.48723">
        <ele>1037</ele>
        <time>2009-07-07T13:25:03Z</time>
      </trkpt>
      <trkpt lat="44.40943" lon="3.48681">
        <ele>1037</ele>
        <time>2009-07-07T13:25:08Z</time>
      </trkpt>
      <trkpt lat="44.4095" lon="3.48659">
        <ele>1036</ele>
        <time>2009-07-07T13:25:11Z</time>
      </trkpt>
      <trkpt lat="44.40962" lon="3.48634">
        <ele>1037</ele>
        <time>2009-07-07T13:25:15Z</time>
      </trkpt>
      <trkpt lat="44.40967" lon="3.48621">
        <ele>1038</ele>
        <time>2009-07-07T13:25:17Z</time>
      </trkpt>
      <trkpt lat="44.4097" lon="3.48606">
        <ele>1037</ele>
        <time>2009-07-07T13:25:19Z</time>
      </trkpt>
      <trkpt lat="44.40975" lon="3.48585">
        <ele>1036</ele>
        <time>2009-07-07T13:25:22Z</time>
      </trkpt>
      <trkpt lat="44.40986" lon="3.4856">
        <ele>1034</ele>
        <time>2009-07-07T13:25:26Z</time>
      </trkpt>
      <trkpt lat="44.40996" lon="3.48546">
        <ele>1036</ele>
        <time>2009-07-07T13:25:29Z</time>
      </trkpt>
      <trkpt lat="44.4101" lon="3.48527">
        <ele>1034</ele>
        <time>2009-07-07T13:25:33Z</time>
      </trkpt>
      <trkpt lat="44.41013" lon="3.48522">
        <ele>1033</ele>
        <time>2009-07-07T13:25:34Z</time>
      </trkpt>
      <trkpt lat="44.41029" lon="3.48476">
        <ele>1032</ele>
        <time>2009-07-07T13:25:41Z</time>
      </trkpt>
      <trkpt lat="44.41042" lon="3.48453">
        <ele>1032</ele>
        <time>2009-07-07T13:25:45Z</time>
      </trkpt>
      <trkpt lat="44.41059" lon="3.48438">
        <ele>1031</ele>
        <time>2009-07-07T13:25:49Z</time>
      </trkpt>
      <trkpt lat="44.4107" lon="3.48425">
        <ele>1032</ele>
        <time>2009-07-07T13:25:52Z</time>
      </trkpt>
      <trkpt lat="44.41104" lon="3.48368">
        <ele>1033</ele>
        <time>2009-07-07T13:26:04Z</time>
      </trkpt>
      <trkpt lat="44.41127" lon="3.48303">
        <ele>1033</ele>
        <time>2009-07-07T13:26:19Z</time>
      </trkpt>
      <trkpt lat="44.41145" lon="3.48228">
        <ele>1034</ele>
        <time>2009-07-07T13:26:38Z</time>
      </trkpt>
      <trkpt lat="44.41172" lon="3.48179">
        <ele>1037</ele>
        <time>2009-07-07T13:26:53Z</time>
      </trkpt>
      <trkpt lat="44.41206" lon="3.48143">
        <ele>1039</ele>
        <time>2009-07-07T13:27:07Z</time>
      </trkpt>
      <trkpt lat="44.41224" lon="3.48132">
        <ele>1041</ele>
        <time>2009-07-07T13:27:14Z</time>
      </trkpt>
      <trkpt lat="44.41243" lon="3.48111">
        <ele>1042</ele>
        <time>2009-07-07T13:27:23Z</time>
      </trkpt>
      <trkpt lat="44.41268" lon="3.48061">
        <ele>1043</ele>
        <time>2009-07-07T13:27:39Z</time>
      </trkpt>
      <trkpt lat="44.41283" lon="3.48003">
        <ele>1047</ele>
        <time>2009-07-07T13:27:57Z</time>
      </trkpt>
      <trkpt lat="44.41294" lon="3.4795">
        <ele>1047</ele>
        <time>2009-07-07T13:28:13Z</time>
      </trkpt>
      <trkpt lat="44.41295" lon="3.47891">
        <ele>1050</ele>
        <time>2009-07-07T13:28:29Z</time>
      </trkpt>
      <trkpt lat="44.41291" lon="3.47837">
        <ele>1051</ele>
        <time>2009-07-07T13:28:44Z</time>
      </trkpt>
      <trkpt lat="44.41278" lon="3.47756">
        <ele>1052</ele>
        <time>2009-07-07T13:29:02Z</time>
      </trkpt>
      <trkpt lat="44.41276" lon="3.47683">
        <ele>1052</ele>
        <time>2009-07-07T13:29:18Z</time>
      </trkpt>
      <trkpt lat="44.41303" lon="3.47607">
        <ele>1053</ele>
        <time>2009-07-07T13:29:37Z</time>
      </trkpt>
      <trkpt lat="44.4133" lon="3.47571">
        <ele>1055</ele>
        <time>2009-07-07T13:29:48Z</time>
      </trkpt>
      <trkpt lat="44.41368" lon="3.47522">
        <ele>1053</ele>
        <time>2009-07-07T13:30:02Z</time>
      </trkpt>
      <trkpt lat="44.41397" lon="3.47469">
        <ele>1052</ele>
        <time>2009-07-07T13:30:16Z</time>
      </trkpt>
      <trkpt lat="44.41395" lon="3.47426">
        <ele>1055</ele>
        <time>2009-07-07T13:30:25Z</time>
      </trkpt>
      <trkpt lat="44.41365" lon="3.47378">
        <ele>1055</ele>
        <time>2009-07-07T13:30:38Z</time>
      </trkpt>
      <trkpt lat="44.41344" lon="3.4736">
        <ele>1053</ele>
        <time>2009-07-07T13:30:44Z</time>
      </trkpt>
      <trkpt lat="44.41289" lon="3.47305">
        <ele>1052</ele>
        <time>2009-07-07T13:31:02Z</time>
      </trkpt>
      <trkpt lat="44.41257" lon="3.47269">
        <ele>1054</ele>
        <time>2009-07-07T13:31:13Z</time>
      </trkpt>
      <trkpt lat="44.41229" lon="3.4721">
        <ele>1053</ele>
        <time>2009-07-07T13:31:27Z</time>
      </trkpt>
      <trkpt lat="44.41215" lon="3.4711">
        <ele>1054</ele>
        <time>2009-07-07T13:31:46Z</time>
      </trkpt>
      <trkpt lat="44.41201" lon="3.47083">
        <ele>1056</ele>
        <time>2009-07-07T13:31:53Z</time>
      </trkpt>
      <trkpt lat="44.41171" lon="3.47042">
        <ele>1056</ele>
        <time>2009-07-07T13:32:07Z</time>
      </trkpt>
      <trkpt lat="44.41146" lon="3.47">
        <ele>1053</ele>
        <time>2009-07-07T13:32:19Z</time>
      </trkpt>
      <trkpt lat="44.41144" lon="3.46996">
        <ele>1053</ele>
        <time>2009-07-07T13:32:20Z</time>
      </trkpt>
      <trkpt lat="44.41101" lon="3.46941">
        <ele>1050</ele>
        <time>2009-07-07T13:32:34Z</time>
      </trkpt>
      <trkpt lat="44.41073" lon="3.46908">
        <ele>1045</ele>
        <time>2009-07-07T13:32:40Z</time>
      </trkpt>
      <trkpt lat="44.41068" lon="3.46901">
        <ele>1045</ele>
        <time>2009-07-07T13:32:41Z</time>
      </trkpt>
      <trkpt lat="44.41054" lon="3.46878">
        <ele>1040</ele>
        <time>2009-07-07T13:32:44Z</time>
      </trkpt>
      <trkpt lat="44.41016" lon="3.46825">
        <ele>1036</ele>
        <time>2009-07-07T13:32:51Z</time>
      </trkpt>
      <trkpt lat="44.40975" lon="3.46776">
        <ele>1033</ele>
        <time>2009-07-07T13:32:58Z</time>
      </trkpt>
      <trkpt lat="44.40964" lon="3.46766">
        <ele>1032</ele>
        <time>2009-07-07T13:33:00Z</time>
      </trkpt>
      <trkpt lat="44.40929" lon="3.46764">
        <ele>1030</ele>
        <time>2009-07-07T13:33:06Z</time>
      </trkpt>
      <trkpt lat="44.40918" lon="3.46772">
        <ele>1030</ele>
        <time>2009-07-07T13:33:08Z</time>
      </trkpt>
      <trkpt lat="44.40878" lon="3.4676">
        <ele>1030</ele>
        <time>2009-07-07T13:33:17Z</time>
      </trkpt>
      <trkpt lat="44.40879" lon="3.46744">
        <ele>1029</ele>
        <time>2009-07-07T13:33:20Z</time>
      </trkpt>
      <trkpt lat="44.4088" lon="3.46729">
        <ele>1031</ele>
        <time>2009-07-07T13:33:29Z</time>
      </trkpt>
      <trkpt lat="44.40881" lon="3.46727">
        <ele>1031</ele>
        <time>2009-07-07T13:33:55Z</time>
      </trkpt>
      <trkpt lat="44.40882" lon="3.46728">
        <ele>1030</ele>
        <time>2009-07-07T13:34:32Z</time>
      </trkpt>
      <trkpt lat="44.40881" lon="3.46727">
        <ele>1029</ele>
        <time>2009-07-07T13:35:29Z</time>
      </trkpt>
      <trkpt lat="44.40881" lon="3.46727">
        <ele>1029</ele>
        <time>2009-07-07T13:36:24Z</time>
      </trkpt>
      <trkpt lat="44.40881" lon="3.46726">
        <ele>1030</ele>
        <time>2009-07-07T13:36:53Z</time>
      </trkpt>
      <trkpt lat="44.40873" lon="3.467">
        <ele>1030</ele>
        <time>2009-07-07T13:37:08Z</time>
      </trkpt>
      <trkpt lat="44.40841" lon="3.46651">
        <ele>1028</ele>
        <time>2009-07-07T13:37:22Z</time>
      </trkpt>
      <trkpt lat="44.40804" lon="3.46606">
        <ele>1032</ele>
        <time>2009-07-07T13:37:37Z</time>
      </trkpt>
      <trkpt lat="44.40802" lon="3.46603">
        <ele>1032</ele>
        <time>2009-07-07T13:37:38Z</time>
      </trkpt>
      <trkpt lat="44.40788" lon="3.46592">
        <ele>1034</ele>
        <time>2009-07-07T13:37:44Z</time>
      </trkpt>
      <trkpt lat="44.40758" lon="3.4658">
        <ele>1037</ele>
        <time>2009-07-07T13:37:58Z</time>
      </trkpt>
      <trkpt lat="44.40715" lon="3.46578">
        <ele>1040</ele>
        <time>2009-07-07T13:38:17Z</time>
      </trkpt>
      <trkpt lat="44.40711" lon="3.46575">
        <ele>1040</ele>
        <time>2009-07-07T13:38:19Z</time>
      </trkpt>
      <trkpt lat="44.40707" lon="3.46515">
        <ele>1041</ele>
        <time>2009-07-07T13:38:36Z</time>
      </trkpt>
      <trkpt lat="44.40702" lon="3.46452">
        <ele>1044</ele>
        <time>2009-07-07T13:38:55Z</time>
      </trkpt>
      <trkpt lat="44.40706" lon="3.46392">
        <ele>1046</ele>
        <time>2009-07-07T13:39:12Z</time>
      </trkpt>
      <trkpt lat="44.40703" lon="3.46382">
        <ele>1047</ele>
        <time>2009-07-07T13:39:15Z</time>
      </trkpt>
      <trkpt lat="44.40675" lon="3.46332">
        <ele>1050</ele>
        <time>2009-07-07T13:39:33Z</time>
      </trkpt>
      <trkpt lat="44.40644" lon="3.46294">
        <ele>1047</ele>
        <time>2009-07-07T13:39:45Z</time>
      </trkpt>
      <trkpt lat="44.40633" lon="3.46272">
        <ele>1044</ele>
        <time>2009-07-07T13:39:49Z</time>
      </trkpt>
      <trkpt lat="44.40629" lon="3.46258">
        <ele>1044</ele>
        <time>2009-07-07T13:39:51Z</time>
      </trkpt>
      <trkpt lat="44.40613" lon="3.46208">
        <ele>1041</ele>
        <time>2009-07-07T13:39:58Z</time>
      </trkpt>
      <trkpt lat="44.40596" lon="3.46154">
        <ele>1039</ele>
        <time>2009-07-07T13:40:05Z</time>
      </trkpt>
      <trkpt lat="44.40587" lon="3.46135">
        <ele>1039</ele>
        <time>2009-07-07T13:40:08Z</time>
      </trkpt>
      <trkpt lat="44.40536" lon="3.46088">
        <ele>1040</ele>
        <time>2009-07-07T13:40:20Z</time>
      </trkpt>
      <trkpt lat="44.40519" lon="3.4606">
        <ele>1041</ele>
        <time>2009-07-07T13:40:26Z</time>
      </trkpt>
      <trkpt lat="44.40514" lon="3.46044">
        <ele>1039</ele>
        <time>2009-07-07T13:40:29Z</time>
      </trkpt>
      <trkpt lat="44.40513" lon="3.46032">
        <ele>1039</ele>
        <time>2009-07-07T13:40:31Z</time>
      </trkpt>
      <trkpt lat="44.4052" lon="3.45964">
        <ele>1042</ele>
        <time>2009-07-07T13:40:45Z</time>
      </trkpt>
      <trkpt lat="44.40529" lon="3.45902">
        <ele>1045</ele>
        <time>2009-07-07T13:41:04Z</time>
      </trkpt>
      <trkpt lat="44.40537" lon="3.45842">
        <ele>1044</ele>
        <time>2009-07-07T13:41:17Z</time>
      </trkpt>
      <trkpt lat="44.40535" lon="3.4579">
        <ele>1045</ele>
        <time>2009-07-07T13:41:29Z</time>
      </trkpt>
      <trkpt lat="44.4053" lon="3.45724">
        <ele>1044</ele>
        <time>2009-07-07T13:41:42Z</time>
      </trkpt>
      <trkpt lat="44.40511" lon="3.45636">
        <ele>1043</ele>
        <time>2009-07-07T13:41:59Z</time>
      </trkpt>
      <trkpt lat="44.40504" lon="3.45597">
        <ele>1042</ele>
        <time>2009-07-07T13:42:06Z</time>
      </trkpt>
      <trkpt lat="44.40497" lon="3.45493">
        <ele>1042</ele>
        <time>2009-07-07T13:42:24Z</time>
      </trkpt>
      <trkpt lat="44.40488" lon="3.45424">
        <ele>1040</ele>
        <time>2009-07-07T13:42:38Z</time>
      </trkpt>
      <trkpt lat="44.40487" lon="3.45418">
        <ele>1041</ele>
        <time>2009-07-07T13:42:39Z</time>
      </trkpt>
      <trkpt lat="44.40485" lon="3.45367">
        <ele>1037</ele>
        <time>2009-07-07T13:42:47Z</time>
      </trkpt>
      <trkpt lat="44.40479" lon="3.45339">
        <ele>1035</ele>
        <time>2009-07-07T13:42:51Z</time>
      </trkpt>
      <trkpt lat="44.40475" lon="3.4531">
        <ele>1030</ele>
        <time>2009-07-07T13:42:55Z</time>
      </trkpt>
      <trkpt lat="44.40473" lon="3.45302">
        <ele>1031</ele>
        <time>2009-07-07T13:42:56Z</time>
      </trkpt>
      <trkpt lat="44.40467" lon="3.45251">
        <ele>1027</ele>
        <time>2009-07-07T13:43:02Z</time>
      </trkpt>
      <trkpt lat="44.40462" lon="3.45213">
        <ele>1026</ele>
        <time>2009-07-07T13:43:06Z</time>
      </trkpt>
      <trkpt lat="44.40462" lon="3.45183">
        <ele>1024</ele>
        <time>2009-07-07T13:43:09Z</time>
      </trkpt>
      <trkpt lat="44.40467" lon="3.45134">
        <ele>1023</ele>
        <time>2009-07-07T13:43:15Z</time>
      </trkpt>
      <trkpt lat="44.40466" lon="3.45106">
        <ele>1027</ele>
        <time>2009-07-07T13:43:20Z</time>
      </trkpt>
      <trkpt lat="44.4046" lon="3.45079">
        <ele>1027</ele>
        <time>2009-07-07T13:43:26Z</time>
      </trkpt>
      <trkpt lat="44.40454" lon="3.45064">
        <ele>1027</ele>
        <time>2009-07-07T13:43:29Z</time>
      </trkpt>
      <trkpt lat="44.4045" lon="3.45047">
        <ele>1026</ele>
        <time>2009-07-07T13:43:32Z</time>
      </trkpt>
      <trkpt lat="44.40448" lon="3.45034">
        <ele>1024</ele>
        <time>2009-07-07T13:43:34Z</time>
      </trkpt>
      <trkpt lat="44.40447" lon="3.45021">
        <ele>1025</ele>
        <time>2009-07-07T13:43:36Z</time>
      </trkpt>
      <trkpt lat="44.40445" lon="3.45007">
        <ele>1026</ele>
        <time>2009-07-07T13:43:38Z</time>
      </trkpt>
      <trkpt lat="44.40449" lon="3.4497">
        <ele>1027</ele>
        <time>2009-07-07T13:43:44Z</time>
      </trkpt>
      <trkpt lat="44.40474" lon="3.4492">
        <ele>1028</ele>
        <time>2009-07-07T13:43:58Z</time>
      </trkpt>
      <trkpt lat="44.40487" lon="3.44861">
        <ele>1028</ele>
        <time>2009-07-07T13:44:12Z</time>
      </trkpt>
      <trkpt lat="44.40476" lon="3.44826">
        <ele>1026</ele>
        <time>2009-07-07T13:44:20Z</time>
      </trkpt>
      <trkpt lat="44.40458" lon="3.44808">
        <ele>1024</ele>
        <time>2009-07-07T13:44:25Z</time>
      </trkpt>
      <trkpt lat="44.40439" lon="3.44784">
        <ele>1020</ele>
        <time>2009-07-07T13:44:30Z</time>
      </trkpt>
      <trkpt lat="44.40436" lon="3.44764">
        <ele>1017</ele>
        <time>2009-07-07T13:44:33Z</time>
      </trkpt>
      <trkpt lat="44.40436" lon="3.44689">
        <ele>1019</ele>
        <time>2009-07-07T13:44:44Z</time>
      </trkpt>
      <trkpt lat="44.4045" lon="3.44614">
        <ele>1019</ele>
        <time>2009-07-07T13:44:55Z</time>
      </trkpt>
      <trkpt lat="44.40468" lon="3.4458">
        <ele>1022</ele>
        <time>2009-07-07T13:45:03Z</time>
      </trkpt>
      <trkpt lat="44.40476" lon="3.44554">
        <ele>1024</ele>
        <time>2009-07-07T13:45:11Z</time>
      </trkpt>
      <trkpt lat="44.40463" lon="3.44552">
        <ele>1025</ele>
        <time>2009-07-07T13:45:21Z</time>
      </trkpt>
      <trkpt lat="44.40461" lon="3.44553">
        <ele>1025</ele>
        <time>2009-07-07T13:45:22Z</time>
      </trkpt>
      <trkpt lat="44.40449" lon="3.44559">
        <ele>1027</ele>
        <time>2009-07-07T13:45:28Z</time>
      </trkpt>
      <trkpt lat="44.40415" lon="3.44576">
        <ele>1029</ele>
        <time>2009-07-07T13:45:45Z</time>
      </trkpt>
      <trkpt lat="44.40389" lon="3.44598">
        <ele>1032</ele>
        <time>2009-07-07T13:45:59Z</time>
      </trkpt>
      <trkpt lat="44.40372" lon="3.44628">
        <ele>1035</ele>
        <time>2009-07-07T13:46:12Z</time>
      </trkpt>
      <trkpt lat="44.40364" lon="3.44644">
        <ele>1038</ele>
        <time>2009-07-07T13:46:19Z</time>
      </trkpt>
      <trkpt lat="44.40352" lon="3.4467">
        <ele>1041</ele>
        <time>2009-07-07T13:46:30Z</time>
      </trkpt>
      <trkpt lat="44.40351" lon="3.44672">
        <ele>1041</ele>
        <time>2009-07-07T13:46:31Z</time>
      </trkpt>
      <trkpt lat="44.40339" lon="3.44697">
        <ele>1044</ele>
        <time>2009-07-07T13:46:42Z</time>
      </trkpt>
      <trkpt lat="44.40335" lon="3.44712">
        <ele>1045</ele>
        <time>2009-07-07T13:46:48Z</time>
      </trkpt>
      <trkpt lat="44.40332" lon="3.44723">
        <ele>1045</ele>
        <time>2009-07-07T13:46:53Z</time>
      </trkpt>
      <trkpt lat="44.40329" lon="3.44757">
        <ele>1049</ele>
        <time>2009-07-07T13:47:05Z</time>
      </trkpt>
      <trkpt lat="44.40311" lon="3.44768">
        <ele>1052</ele>
        <time>2009-07-07T13:47:15Z</time>
      </trkpt>
      <trkpt lat="44.40274" lon="3.44767">
        <ele>1054</ele>
        <time>2009-07-07T13:47:31Z</time>
      </trkpt>
      <trkpt lat="44.40269" lon="3.4477">
        <ele>1055</ele>
        <time>2009-07-07T13:47:33Z</time>
      </trkpt>
      <trkpt lat="44.40213" lon="3.44798">
        <ele>1054</ele>
        <time>2009-07-07T13:47:53Z</time>
      </trkpt>
      <trkpt lat="44.40164" lon="3.44819">
        <ele>1054</ele>
        <time>2009-07-07T13:48:09Z</time>
      </trkpt>
      <trkpt lat="44.40123" lon="3.44836">
        <ele>1052</ele>
        <time>2009-07-07T13:48:18Z</time>
      </trkpt>
      <trkpt lat="44.40042" lon="3.44896">
        <ele>1052</ele>
        <time>2009-07-07T13:48:36Z</time>
      </trkpt>
      <trkpt lat="44.40035" lon="3.44904">
        <ele>1051</ele>
        <time>2009-07-07T13:48:38Z</time>
      </trkpt>
      <trkpt lat="44.4002" lon="3.44926">
        <ele>1051</ele>
        <time>2009-07-07T13:48:43Z</time>
      </trkpt>
      <trkpt lat="44.40009" lon="3.44949">
        <ele>1052</ele>
        <time>2009-07-07T13:48:48Z</time>
      </trkpt>
      <trkpt lat="44.39974" lon="3.45033">
        <ele>1053</ele>
        <time>2009-07-07T13:49:04Z</time>
      </trkpt>
      <trkpt lat="44.39969" lon="3.45113">
        <ele>1056</ele>
        <time>2009-07-07T13:49:18Z</time>
      </trkpt>
      <trkpt lat="44.39964" lon="3.45142">
        <ele>1055</ele>
        <time>2009-07-07T13:49:23Z</time>
      </trkpt>
      <trkpt lat="44.39962" lon="3.45181">
        <ele>1054</ele>
        <time>2009-07-07T13:49:30Z</time>
      </trkpt>
      <trkpt lat="44.39962" lon="3.45193">
        <ele>1053</ele>
        <time>2009-07-07T13:49:32Z</time>
      </trkpt>
      <trkpt lat="44.39951" lon="3.4522">
        <ele>1053</ele>
        <time>2009-07-07T13:49:37Z</time>
      </trkpt>
      <trkpt lat="44.39895" lon="3.45258">
        <ele>1050</ele>
        <time>2009-07-07T13:49:47Z</time>
      </trkpt>
      <trkpt lat="44.3985" lon="3.45288">
        <ele>1047</ele>
        <time>2009-07-07T13:49:53Z</time>
      </trkpt>
      <trkpt lat="44.39841" lon="3.45293">
        <ele>1044</ele>
        <time>2009-07-07T13:49:54Z</time>
      </trkpt>
      <trkpt lat="44.39816" lon="3.45316">
        <ele>1042</ele>
        <time>2009-07-07T13:49:57Z</time>
      </trkpt>
      <trkpt lat="44.39775" lon="3.45362">
        <ele>1039</ele>
        <time>2009-07-07T13:50:02Z</time>
      </trkpt>
      <trkpt lat="44.3976" lon="3.45381">
        <ele>1038</ele>
        <time>2009-07-07T13:50:04Z</time>
      </trkpt>
      <trkpt lat="44.39741" lon="3.45407">
        <ele>1035</ele>
        <time>2009-07-07T13:50:07Z</time>
      </trkpt>
      <trkpt lat="44.39735" lon="3.45417">
        <ele>1034</ele>
        <time>2009-07-07T13:50:08Z</time>
      </trkpt>
      <trkpt lat="44.39724" lon="3.45438">
        <ele>1033</ele>
        <time>2009-07-07T13:50:10Z</time>
      </trkpt>
      <trkpt lat="44.39693" lon="3.45466">
        <ele>1032</ele>
        <time>2009-07-07T13:50:15Z</time>
      </trkpt>
      <trkpt lat="44.39649" lon="3.45478">
        <ele>1026</ele>
        <time>2009-07-07T13:50:20Z</time>
      </trkpt>
      <trkpt lat="44.39598" lon="3.45493">
        <ele>1023</ele>
        <time>2009-07-07T13:50:25Z</time>
      </trkpt>
      <trkpt lat="44.39511" lon="3.45548">
        <ele>1022</ele>
        <time>2009-07-07T13:50:36Z</time>
      </trkpt>
      <trkpt lat="44.39421" lon="3.45601">
        <ele>1022</ele>
        <time>2009-07-07T13:50:51Z</time>
      </trkpt>
      <trkpt lat="44.39394" lon="3.45608">
        <ele>1026</ele>
        <time>2009-07-07T13:50:56Z</time>
      </trkpt>
      <trkpt lat="44.3938" lon="3.45613">
        <ele>1026</ele>
        <time>2009-07-07T13:50:59Z</time>
      </trkpt>
      <trkpt lat="44.39314" lon="3.45618">
        <ele>1030</ele>
        <time>2009-07-07T13:51:14Z</time>
      </trkpt>
      <trkpt lat="44.3931" lon="3.45618">
        <ele>1030</ele>
        <time>2009-07-07T13:51:15Z</time>
      </trkpt>
      <trkpt lat="44.39297" lon="3.45621">
        <ele>1032</ele>
        <time>2009-07-07T13:51:19Z</time>
      </trkpt>
      <trkpt lat="44.39242" lon="3.45634">
        <ele>1031</ele>
        <time>2009-07-07T13:51:36Z</time>
      </trkpt>
      <trkpt lat="44.39194" lon="3.45645">
        <ele>1031</ele>
        <time>2009-07-07T13:51:48Z</time>
      </trkpt>
      <trkpt lat="44.39164" lon="3.45654">
        <ele>1031</ele>
        <time>2009-07-07T13:51:55Z</time>
      </trkpt>
      <trkpt lat="44.39106" lon="3.4569">
        <ele>1032</ele>
        <time>2009-07-07T13:52:10Z</time>
      </trkpt>
      <trkpt lat="44.3909" lon="3.45709">
        <ele>1032</ele>
        <time>2009-07-07T13:52:15Z</time>
      </trkpt>
      <trkpt lat="44.3903" lon="3.45804">
        <ele>1033</ele>
        <time>2009-07-07T13:52:35Z</time>
      </trkpt>
      <trkpt lat="44.39008" lon="3.45805">
        <ele>1032</ele>
        <time>2009-07-07T13:52:41Z</time>
      </trkpt>
      <trkpt lat="44.38975" lon="3.45776">
        <ele>1028</ele>
        <time>2009-07-07T13:52:52Z</time>
      </trkpt>
      <trkpt lat="44.38953" lon="3.45736">
        <ele>1025</ele>
        <time>2009-07-07T13:52:59Z</time>
      </trkpt>
      <trkpt lat="44.3895" lon="3.45728">
        <ele>1024</ele>
        <time>2009-07-07T13:53:00Z</time>
      </trkpt>
      <trkpt lat="44.38937" lon="3.45686">
        <ele>1022</ele>
        <time>2009-07-07T13:53:05Z</time>
      </trkpt>
      <trkpt lat="44.38912" lon="3.45585">
        <ele>1018</ele>
        <time>2009-07-07T13:53:18Z</time>
      </trkpt>
      <trkpt lat="44.3891" lon="3.45577">
        <ele>1018</ele>
        <time>2009-07-07T13:53:19Z</time>
      </trkpt>
      <trkpt lat="44.38892" lon="3.45499">
        <ele>1018</ele>
        <time>2009-07-07T13:53:30Z</time>
      </trkpt>
      <trkpt lat="44.38873" lon="3.45418">
        <ele>1021</ele>
        <time>2009-07-07T13:53:43Z</time>
      </trkpt>
      <trkpt lat="44.38872" lon="3.45409">
        <ele>1023</ele>
        <time>2009-07-07T13:53:45Z</time>
      </trkpt>
      <trkpt lat="44.38868" lon="3.45388">
        <ele>1022</ele>
        <time>2009-07-07T13:53:57Z</time>
      </trkpt>
      <trkpt lat="44.38863" lon="3.45374">
        <ele>1021</ele>
        <time>2009-07-07T13:54:51Z</time>
      </trkpt>
      <trkpt lat="44.38853" lon="3.45339">
        <ele>1018</ele>
        <time>2009-07-07T13:55:01Z</time>
      </trkpt>
      <trkpt lat="44.38849" lon="3.45323">
        <ele>1019</ele>
        <time>2009-07-07T13:55:04Z</time>
      </trkpt>
      <trkpt lat="44.38841" lon="3.45278">
        <ele>1015</ele>
        <time>2009-07-07T13:55:11Z</time>
      </trkpt>
      <trkpt lat="44.38833" lon="3.4524">
        <ele>1011</ele>
        <time>2009-07-07T13:55:16Z</time>
      </trkpt>
      <trkpt lat="44.3883" lon="3.45231">
        <ele>1011</ele>
        <time>2009-07-07T13:55:17Z</time>
      </trkpt>
      <trkpt lat="44.38818" lon="3.45192">
        <ele>1008</ele>
        <time>2009-07-07T13:55:21Z</time>
      </trkpt>
      <trkpt lat="44.38803" lon="3.45148">
        <ele>1005</ele>
        <time>2009-07-07T13:55:25Z</time>
      </trkpt>
      <trkpt lat="44.38799" lon="3.45136">
        <ele>1003</ele>
        <time>2009-07-07T13:55:26Z</time>
      </trkpt>
      <trkpt lat="44.38751" lon="3.4505">
        <ele>1004</ele>
        <time>2009-07-07T13:55:36Z</time>
      </trkpt>
      <trkpt lat="44.38747" lon="3.45041">
        <ele>1003</ele>
        <time>2009-07-07T13:55:37Z</time>
      </trkpt>
      <trkpt lat="44.38718" lon="3.45013">
        <ele>1004</ele>
        <time>2009-07-07T13:55:43Z</time>
      </trkpt>
      <trkpt lat="44.38648" lon="3.44978">
        <ele>1006</ele>
        <time>2009-07-07T13:55:56Z</time>
      </trkpt>
      <trkpt lat="44.38627" lon="3.44966">
        <ele>1002</ele>
        <time>2009-07-07T13:56:00Z</time>
      </trkpt>
      <trkpt lat="44.38607" lon="3.44957">
        <ele>1003</ele>
        <time>2009-07-07T13:56:04Z</time>
      </trkpt>
      <trkpt lat="44.38591" lon="3.44939">
        <ele>1004</ele>
        <time>2009-07-07T13:56:08Z</time>
      </trkpt>
      <trkpt lat="44.38574" lon="3.44906">
        <ele>1004</ele>
        <time>2009-07-07T13:56:14Z</time>
      </trkpt>
      <trkpt lat="44.38559" lon="3.44865">
        <ele>1001</ele>
        <time>2009-07-07T13:56:20Z</time>
      </trkpt>
      <trkpt lat="44.3855" lon="3.44837">
        <ele>1001</ele>
        <time>2009-07-07T13:56:24Z</time>
      </trkpt>
      <trkpt lat="44.3854" lon="3.44804">
        <ele>999</ele>
        <time>2009-07-07T13:56:29Z</time>
      </trkpt>
      <trkpt lat="44.38516" lon="3.44761">
        <ele>1000</ele>
        <time>2009-07-07T13:56:36Z</time>
      </trkpt>
      <trkpt lat="44.3851" lon="3.44741">
        <ele>1000</ele>
        <time>2009-07-07T13:56:40Z</time>
      </trkpt>
      <trkpt lat="44.38511" lon="3.4472">
        <ele>1000</ele>
        <time>2009-07-07T13:56:53Z</time>
      </trkpt>
      <trkpt lat="44.38498" lon="3.44695">
        <ele>997</ele>
        <time>2009-07-07T13:57:06Z</time>
      </trkpt>
      <trkpt lat="44.38492" lon="3.44686">
        <ele>996</ele>
        <time>2009-07-07T13:57:08Z</time>
      </trkpt>
      <trkpt lat="44.38489" lon="3.4468">
        <ele>995</ele>
        <time>2009-07-07T13:57:09Z</time>
      </trkpt>
      <trkpt lat="44.3846" lon="3.44651">
        <ele>992</ele>
        <time>2009-07-07T13:57:16Z</time>
      </trkpt>
      <trkpt lat="44.38455" lon="3.44646">
        <ele>991</ele>
        <time>2009-07-07T13:57:17Z</time>
      </trkpt>
      <trkpt lat="44.38438" lon="3.44626">
        <ele>987</ele>
        <time>2009-07-07T13:57:21Z</time>
      </trkpt>
      <trkpt lat="44.38428" lon="3.44613">
        <ele>986</ele>
        <time>2009-07-07T13:57:23Z</time>
      </trkpt>
      <trkpt lat="44.38416" lon="3.44599">
        <ele>982</ele>
        <time>2009-07-07T13:57:25Z</time>
      </trkpt>
      <trkpt lat="44.38409" lon="3.44593">
        <ele>982</ele>
        <time>2009-07-07T13:57:26Z</time>
      </trkpt>
      <trkpt lat="44.38388" lon="3.44579">
        <ele>978</ele>
        <time>2009-07-07T13:57:29Z</time>
      </trkpt>
      <trkpt lat="44.38332" lon="3.44573">
        <ele>974</ele>
        <time>2009-07-07T13:57:36Z</time>
      </trkpt>
      <trkpt lat="44.38319" lon="3.44558">
        <ele>972</ele>
        <time>2009-07-07T13:57:38Z</time>
      </trkpt>
      <trkpt lat="44.38307" lon="3.4454">
        <ele>970</ele>
        <time>2009-07-07T13:57:40Z</time>
      </trkpt>
      <trkpt lat="44.38295" lon="3.4452">
        <ele>969</ele>
        <time>2009-07-07T13:57:42Z</time>
      </trkpt>
      <trkpt lat="44.38279" lon="3.44476">
        <ele>965</ele>
        <time>2009-07-07T13:57:46Z</time>
      </trkpt>
      <trkpt lat="44.38276" lon="3.44465">
        <ele>965</ele>
        <time>2009-07-07T13:57:47Z</time>
      </trkpt>
      <trkpt lat="44.38245" lon="3.44394">
        <ele>965</ele>
        <time>2009-07-07T13:57:55Z</time>
      </trkpt>
      <trkpt lat="44.3819" lon="3.44308">
        <ele>965</ele>
        <time>2009-07-07T13:58:08Z</time>
      </trkpt>
      <trkpt lat="44.3815" lon="3.44243">
        <ele>962</ele>
        <time>2009-07-07T13:58:18Z</time>
      </trkpt>
      <trkpt lat="44.38127" lon="3.44206">
        <ele>959</ele>
        <time>2009-07-07T13:58:23Z</time>
      </trkpt>
      <trkpt lat="44.38119" lon="3.4419">
        <ele>956</ele>
        <time>2009-07-07T13:58:25Z</time>
      </trkpt>
      <trkpt lat="44.38115" lon="3.44181">
        <ele>956</ele>
        <time>2009-07-07T13:58:26Z</time>
      </trkpt>
      <trkpt lat="44.38095" lon="3.44145">
        <ele>953</ele>
        <time>2009-07-07T13:58:30Z</time>
      </trkpt>
      <trkpt lat="44.38089" lon="3.44136">
        <ele>952</ele>
        <time>2009-07-07T13:58:31Z</time>
      </trkpt>
      <trkpt lat="44.38061" lon="3.44104">
        <ele>950</ele>
        <time>2009-07-07T13:58:35Z</time>
      </trkpt>
      <trkpt lat="44.38042" lon="3.44093">
        <ele>950</ele>
        <time>2009-07-07T13:58:42Z</time>
      </trkpt>
      <trkpt lat="44.38045" lon="3.44094">
        <ele>950</ele>
        <time>2009-07-07T13:59:17Z</time>
      </trkpt>
      <trkpt lat="44.38046" lon="3.44093">
        <ele>948</ele>
        <time>2009-07-07T13:59:24Z</time>
      </trkpt>
      <trkpt lat="44.38048" lon="3.44095">
        <ele>951</ele>
        <time>2009-07-07T14:00:34Z</time>
      </trkpt>
      <trkpt lat="44.38048" lon="3.44094">
        <ele>950</ele>
        <time>2009-07-07T14:01:18Z</time>
      </trkpt>
      <trkpt lat="44.3805" lon="3.44095">
        <ele>950</ele>
        <time>2009-07-07T14:03:37Z</time>
      </trkpt>
      <trkpt lat="44.38051" lon="3.44095">
        <ele>950</ele>
        <time>2009-07-07T14:03:41Z</time>
      </trkpt>
      <trkpt lat="44.38054" lon="3.44097">
        <ele>951</ele>
        <time>2009-07-07T14:03:53Z</time>
      </trkpt>
      <trkpt lat="44.38058" lon="3.44092">
        <ele>950</ele>
        <time>2009-07-07T14:03:58Z</time>
      </trkpt>
      <trkpt lat="44.38057" lon="3.44085">
        <ele>948</ele>
        <time>2009-07-07T14:04:01Z</time>
      </trkpt>
      <trkpt lat="44.3805" lon="3.44053">
        <ele>943</ele>
        <time>2009-07-07T14:04:06Z</time>
      </trkpt>
      <trkpt lat="44.38046" lon="3.44036">
        <ele>942</ele>
        <time>2009-07-07T14:04:08Z</time>
      </trkpt>
      <trkpt lat="44.38025" lon="3.43987">
        <ele>939</ele>
        <time>2009-07-07T14:04:13Z</time>
      </trkpt>
      <trkpt lat="44.38004" lon="3.43917">
        <ele>940</ele>
        <time>2009-07-07T14:04:23Z</time>
      </trkpt>
      <trkpt lat="44.37991" lon="3.43881">
        <ele>940</ele>
        <time>2009-07-07T14:04:29Z</time>
      </trkpt>
      <trkpt lat="44.37946" lon="3.43796">
        <ele>943</ele>
        <time>2009-07-07T14:04:46Z</time>
      </trkpt>
      <trkpt lat="44.37943" lon="3.43788">
        <ele>944</ele>
        <time>2009-07-07T14:04:48Z</time>
      </trkpt>
      <trkpt lat="44.3792" lon="3.43753">
        <ele>947</ele>
        <time>2009-07-07T14:04:59Z</time>
      </trkpt>
      <trkpt lat="44.37887" lon="3.43734">
        <ele>945</ele>
        <time>2009-07-07T14:05:09Z</time>
      </trkpt>
      <trkpt lat="44.37878" lon="3.43731">
        <ele>944</ele>
        <time>2009-07-07T14:05:11Z</time>
      </trkpt>
      <trkpt lat="44.37871" lon="3.43726">
        <ele>945</ele>
        <time>2009-07-07T14:05:13Z</time>
      </trkpt>
      <trkpt lat="44.37817" lon="3.43712">
        <ele>941</ele>
        <time>2009-07-07T14:05:27Z</time>
      </trkpt>
      <trkpt lat="44.37811" lon="3.43713">
        <ele>941</ele>
        <time>2009-07-07T14:05:28Z</time>
      </trkpt>
      <trkpt lat="44.37758" lon="3.43721">
        <ele>937</ele>
        <time>2009-07-07T14:05:37Z</time>
      </trkpt>
      <trkpt lat="44.37752" lon="3.43723">
        <ele>937</ele>
        <time>2009-07-07T14:05:38Z</time>
      </trkpt>
      <trkpt lat="44.37701" lon="3.43736">
        <ele>934</ele>
        <time>2009-07-07T14:05:47Z</time>
      </trkpt>
      <trkpt lat="44.37673" lon="3.43744">
        <ele>933</ele>
        <time>2009-07-07T14:05:53Z</time>
      </trkpt>
      <trkpt lat="44.37651" lon="3.43705">
        <ele>935</ele>
        <time>2009-07-07T14:06:06Z</time>
      </trkpt>
      <trkpt lat="44.37649" lon="3.43694">
        <ele>937</ele>
        <time>2009-07-07T14:06:09Z</time>
      </trkpt>
      <trkpt lat="44.37648" lon="3.4364">
        <ele>939</ele>
        <time>2009-07-07T14:06:22Z</time>
      </trkpt>
      <trkpt lat="44.37661" lon="3.43574">
        <ele>937</ele>
        <time>2009-07-07T14:06:36Z</time>
      </trkpt>
      <trkpt lat="44.37657" lon="3.43551">
        <ele>936</ele>
        <time>2009-07-07T14:06:40Z</time>
      </trkpt>
      <trkpt lat="44.37644" lon="3.43515">
        <ele>934</ele>
        <time>2009-07-07T14:06:45Z</time>
      </trkpt>
      <trkpt lat="44.37625" lon="3.43451">
        <ele>930</ele>
        <time>2009-07-07T14:06:53Z</time>
      </trkpt>
      <trkpt lat="44.37615" lon="3.434">
        <ele>927</ele>
        <time>2009-07-07T14:06:59Z</time>
      </trkpt>
      <trkpt lat="44.37613" lon="3.4339">
        <ele>926</ele>
        <time>2009-07-07T14:07:00Z</time>
      </trkpt>
      <trkpt lat="44.3761" lon="3.43345">
        <ele>925</ele>
        <time>2009-07-07T14:07:04Z</time>
      </trkpt>
      <trkpt lat="44.37627" lon="3.43248">
        <ele>925</ele>
        <time>2009-07-07T14:07:13Z</time>
      </trkpt>
      <trkpt lat="44.37638" lon="3.43219">
        <ele>926</ele>
        <time>2009-07-07T14:07:17Z</time>
      </trkpt>
      <trkpt lat="44.37644" lon="3.43189">
        <ele>928</ele>
        <time>2009-07-07T14:07:22Z</time>
      </trkpt>
      <trkpt lat="44.37649" lon="3.4317">
        <ele>929</ele>
        <time>2009-07-07T14:07:25Z</time>
      </trkpt>
      <trkpt lat="44.37678" lon="3.43113">
        <ele>930</ele>
        <time>2009-07-07T14:07:36Z</time>
      </trkpt>
      <trkpt lat="44.37736" lon="3.43067">
        <ele>934</ele>
        <time>2009-07-07T14:07:52Z</time>
      </trkpt>
      <trkpt lat="44.37793" lon="3.43011">
        <ele>932</ele>
        <time>2009-07-07T14:08:07Z</time>
      </trkpt>
      <trkpt lat="44.37799" lon="3.43001">
        <ele>931</ele>
        <time>2009-07-07T14:08:09Z</time>
      </trkpt>
      <trkpt lat="44.37804" lon="3.42992">
        <ele>934</ele>
        <time>2009-07-07T14:08:11Z</time>
      </trkpt>
      <trkpt lat="44.37805" lon="3.42988">
        <ele>934</ele>
        <time>2009-07-07T14:08:12Z</time>
      </trkpt>
      <trkpt lat="44.3781" lon="3.42973">
        <ele>931</ele>
        <time>2009-07-07T14:08:15Z</time>
      </trkpt>
      <trkpt lat="44.37815" lon="3.42955">
        <ele>929</ele>
        <time>2009-07-07T14:08:18Z</time>
      </trkpt>
      <trkpt lat="44.37828" lon="3.42932">
        <ele>927</ele>
        <time>2009-07-07T14:08:22Z</time>
      </trkpt>
      <trkpt lat="44.37837" lon="3.42919">
        <ele>923</ele>
        <time>2009-07-07T14:08:24Z</time>
      </trkpt>
      <trkpt lat="44.37873" lon="3.42887">
        <ele>919</ele>
        <time>2009-07-07T14:08:30Z</time>
      </trkpt>
      <trkpt lat="44.37884" lon="3.42879">
        <ele>922</ele>
        <time>2009-07-07T14:08:32Z</time>
      </trkpt>
      <trkpt lat="44.3789" lon="3.42873">
        <ele>922</ele>
        <time>2009-07-07T14:08:39Z</time>
      </trkpt>
      <trkpt lat="44.3789" lon="3.42873">
        <ele>922</ele>
        <time>2009-07-07T14:09:03Z</time>
      </trkpt>
      <trkpt lat="44.37889" lon="3.42851">
        <ele>920</ele>
        <time>2009-07-07T14:09:09Z</time>
      </trkpt>
      <trkpt lat="44.3789" lon="3.42828">
        <ele>917</ele>
        <time>2009-07-07T14:09:13Z</time>
      </trkpt>
      <trkpt lat="44.3789" lon="3.42815">
        <ele>915</ele>
        <time>2009-07-07T14:09:15Z</time>
      </trkpt>
      <trkpt lat="44.37887" lon="3.42801">
        <ele>914</ele>
        <time>2009-07-07T14:09:17Z</time>
      </trkpt>
      <trkpt lat="44.3788" lon="3.42772">
        <ele>913</ele>
        <time>2009-07-07T14:09:21Z</time>
      </trkpt>
      <trkpt lat="44.37876" lon="3.42729">
        <ele>914</ele>
        <time>2009-07-07T14:09:32Z</time>
      </trkpt>
      <trkpt lat="44.37877" lon="3.42726">
        <ele>914</ele>
        <time>2009-07-07T14:09:49Z</time>
      </trkpt>
      <trkpt lat="44.37884" lon="3.42703">
        <ele>911</ele>
        <time>2009-07-07T14:10:14Z</time>
      </trkpt>
      <trkpt lat="44.37886" lon="3.42693">
        <ele>911</ele>
        <time>2009-07-07T14:10:16Z</time>
      </trkpt>
      <trkpt lat="44.37885" lon="3.42674">
        <ele>907</ele>
        <time>2009-07-07T14:10:19Z</time>
      </trkpt>
      <trkpt lat="44.37884" lon="3.42659">
        <ele>905</ele>
        <time>2009-07-07T14:10:21Z</time>
      </trkpt>
      <trkpt lat="44.37885" lon="3.42643">
        <ele>903</ele>
        <time>2009-07-07T14:10:23Z</time>
      </trkpt>
      <trkpt lat="44.37885" lon="3.42624">
        <ele>902</ele>
        <time>2009-07-07T14:10:25Z</time>
      </trkpt>
      <trkpt lat="44.37885" lon="3.42604">
        <ele>898</ele>
        <time>2009-07-07T14:10:27Z</time>
      </trkpt>
      <trkpt lat="44.37882" lon="3.42573">
        <ele>893</ele>
        <time>2009-07-07T14:10:30Z</time>
      </trkpt>
      <trkpt lat="44.37873" lon="3.4254">
        <ele>886</ele>
        <time>2009-07-07T14:10:33Z</time>
      </trkpt>
      <trkpt lat="44.37865" lon="3.42516">
        <ele>881</ele>
        <time>2009-07-07T14:10:35Z</time>
      </trkpt>
      <trkpt lat="44.37858" lon="3.4249">
        <ele>880</ele>
        <time>2009-07-07T14:10:37Z</time>
      </trkpt>
      <trkpt lat="44.37847" lon="3.42452">
        <ele>881</ele>
        <time>2009-07-07T14:10:40Z</time>
      </trkpt>
      <trkpt lat="44.37828" lon="3.4241">
        <ele>880</ele>
        <time>2009-07-07T14:10:50Z</time>
      </trkpt>
      <trkpt lat="44.37824" lon="3.42407">
        <ele>880</ele>
        <time>2009-07-07T14:11:02Z</time>
      </trkpt>
      <trkpt lat="44.37828" lon="3.4241">
        <ele>879</ele>
        <time>2009-07-07T14:11:18Z</time>
      </trkpt>
      <trkpt lat="44.37833" lon="3.42423">
        <ele>880</ele>
        <time>2009-07-07T14:11:39Z</time>
      </trkpt>
      <trkpt lat="44.37834" lon="3.42429">
        <ele>880</ele>
        <time>2009-07-07T14:12:02Z</time>
      </trkpt>
      <trkpt lat="44.37837" lon="3.42442">
        <ele>881</ele>
        <time>2009-07-07T14:12:17Z</time>
      </trkpt>
      <trkpt lat="44.3784" lon="3.42446">
        <ele>881</ele>
        <time>2009-07-07T14:12:21Z</time>
      </trkpt>
      <trkpt lat="44.37842" lon="3.42453">
        <ele>882</ele>
        <time>2009-07-07T14:12:25Z</time>
      </trkpt>
      <trkpt lat="44.37848" lon="3.42467">
        <ele>883</ele>
        <time>2009-07-07T14:12:35Z</time>
      </trkpt>
      <trkpt lat="44.37847" lon="3.42469">
        <ele>884</ele>
        <time>2009-07-07T14:12:56Z</time>
      </trkpt>
      <trkpt lat="44.37849" lon="3.42461">
        <ele>884</ele>
        <time>2009-07-07T14:13:40Z</time>
      </trkpt>
      <trkpt lat="44.37852" lon="3.42461">
        <ele>883</ele>
        <time>2009-07-07T14:13:47Z</time>
      </trkpt>
      <trkpt lat="44.37855" lon="3.42459">
        <ele>881</ele>
        <time>2009-07-07T14:13:51Z</time>
      </trkpt>
      <trkpt lat="44.37857" lon="3.42467">
        <ele>881</ele>
        <time>2009-07-07T14:13:59Z</time>
      </trkpt>
      <trkpt lat="44.37862" lon="3.4248">
        <ele>879</ele>
        <time>2009-07-07T14:14:03Z</time>
      </trkpt>
      <trkpt lat="44.37871" lon="3.42497">
        <ele>879</ele>
        <time>2009-07-07T14:14:07Z</time>
      </trkpt>
      <trkpt lat="44.37883" lon="3.42509">
        <ele>877</ele>
        <time>2009-07-07T14:14:10Z</time>
      </trkpt>
      <trkpt lat="44.3789" lon="3.42515">
        <ele>876</ele>
        <time>2009-07-07T14:14:12Z</time>
      </trkpt>
      <trkpt lat="44.37895" lon="3.42521">
        <ele>874</ele>
        <time>2009-07-07T14:14:14Z</time>
      </trkpt>
      <trkpt lat="44.379" lon="3.4252">
        <ele>873</ele>
        <time>2009-07-07T14:14:16Z</time>
      </trkpt>
      <trkpt lat="44.37909" lon="3.42507">
        <ele>872</ele>
        <time>2009-07-07T14:14:22Z</time>
      </trkpt>
      <trkpt lat="44.37918" lon="3.42507">
        <ele>867</ele>
        <time>2009-07-07T14:14:24Z</time>
      </trkpt>
      <trkpt lat="44.37929" lon="3.42486">
        <ele>863</ele>
        <time>2009-07-07T14:14:29Z</time>
      </trkpt>
      <trkpt lat="44.37934" lon="3.42475">
        <ele>862</ele>
        <time>2009-07-07T14:14:31Z</time>
      </trkpt>
      <trkpt lat="44.37938" lon="3.42468">
        <ele>861</ele>
        <time>2009-07-07T14:14:39Z</time>
      </trkpt>
      <trkpt lat="44.3794" lon="3.42467">
        <ele>862</ele>
        <time>2009-07-07T14:15:06Z</time>
      </trkpt>
      <trkpt lat="44.37942" lon="3.42467">
        <ele>862</ele>
        <time>2009-07-07T14:15:34Z</time>
      </trkpt>
      <trkpt lat="44.37944" lon="3.42463">
        <ele>861</ele>
        <time>2009-07-07T14:15:58Z</time>
      </trkpt>
      <trkpt lat="44.37945" lon="3.42459">
        <ele>860</ele>
        <time>2009-07-07T14:16:11Z</time>
      </trkpt>
      <trkpt lat="44.3795" lon="3.42441">
        <ele>857</ele>
        <time>2009-07-07T14:16:15Z</time>
      </trkpt>
      <trkpt lat="44.37959" lon="3.4242">
        <ele>854</ele>
        <time>2009-07-07T14:16:19Z</time>
      </trkpt>
      <trkpt lat="44.37966" lon="3.42404">
        <ele>851</ele>
        <time>2009-07-07T14:16:23Z</time>
      </trkpt>
      <trkpt lat="44.37975" lon="3.42388">
        <ele>850</ele>
        <time>2009-07-07T14:16:32Z</time>
      </trkpt>
      <trkpt lat="44.37978" lon="3.42382">
        <ele>850</ele>
        <time>2009-07-07T14:17:00Z</time>
      </trkpt>
      <trkpt lat="44.37977" lon="3.42384">
        <ele>846</ele>
        <time>2009-07-07T14:17:14Z</time>
      </trkpt>
      <trkpt lat="44.37977" lon="3.42384">
        <ele>854</ele>
        <time>2009-07-07T14:17:15Z</time>
      </trkpt>
      <trkpt lat="44.37977" lon="3.42384">
        <ele>847</ele>
        <time>2009-07-07T14:17:16Z</time>
      </trkpt>
      <trkpt lat="44.37977" lon="3.42384">
        <ele>854</ele>
        <time>2009-07-07T14:17:17Z</time>
      </trkpt>
      <trkpt lat="44.37977" lon="3.42384">
        <ele>847</ele>
        <time>2009-07-07T14:17:18Z</time>
      </trkpt>
      <trkpt lat="44.37977" lon="3.42385">
        <ele>850</ele>
        <time>2009-07-07T14:17:19Z</time>
      </trkpt>
      <trkpt lat="44.37977" lon="3.42385">
        <ele>854</ele>
        <time>2009-07-07T14:17:20Z</time>
      </trkpt>
      <trkpt lat="44.37977" lon="3.42385">
        <ele>849</ele>
        <time>2009-07-07T14:17:21Z</time>
      </trkpt>
      <trkpt lat="44.37976" lon="3.42385">
        <ele>849</ele>
        <time>2009-07-07T14:17:22Z</time>
      </trkpt>
      <trkpt lat="44.37976" lon="3.42385">
        <ele>853</ele>
        <time>2009-07-07T14:17:24Z</time>
      </trkpt>
      <trkpt lat="44.37976" lon="3.42385">
        <ele>847</ele>
        <time>2009-07-07T14:17:25Z</time>
      </trkpt>
      <trkpt lat="44.37976" lon="3.42385">
        <ele>853</ele>
        <time>2009-07-07T14:17:26Z</time>
      </trkpt>
      <trkpt lat="44.37976" lon="3.42385">
        <ele>847</ele>
        <time>2009-07-07T14:17:27Z</time>
      </trkpt>
      <trkpt lat="44.37976" lon="3.42385">
        <ele>852</ele>
        <time>2009-07-07T14:17:28Z</time>
      </trkpt>
      <trkpt lat="44.37976" lon="3.42385">
        <ele>847</ele>
        <time>2009-07-07T14:17:29Z</time>
      </trkpt>
      <trkpt lat="44.37976" lon="3.42385">
        <ele>852</ele>
        <time>2009-07-07T14:17:30Z</time>
      </trkpt>
      <trkpt lat="44.37976" lon="3.42385">
        <ele>849</ele>
        <time>2009-07-07T14:17:31Z</time>
      </trkpt>
      <trkpt lat="44.37976" lon="3.42385">
        <ele>853</ele>
        <time>2009-07-07T14:17:32Z</time>
      </trkpt>
      <trkpt lat="44.37976" lon="3.42385">
        <ele>847</ele>
        <time>2009-07-07T14:17:33Z</time>
      </trkpt>
      <trkpt lat="44.37976" lon="3.42385">
        <ele>854</ele>
        <time>2009-07-07T14:17:34Z</time>
      </trkpt>
      <trkpt lat="44.37976" lon="3.42385">
        <ele>846</ele>
        <time>2009-07-07T14:17:35Z</time>
      </trkpt>
      <trkpt lat="44.37976" lon="3.42385">
        <ele>850</ele>
        <time>2009-07-07T14:17:36Z</time>
      </trkpt>
      <trkpt lat="44.37976" lon="3.42385">
        <ele>854</ele>
        <time>2009-07-07T14:17:37Z</time>
      </trkpt>
      <trkpt lat="44.37976" lon="3.42385">
        <ele>850</ele>
        <time>2009-07-07T14:17:38Z</time>
      </trkpt>
      <trkpt lat="44.37978" lon="3.42388">
        <ele>849</ele>
        <time>2009-07-07T14:18:56Z</time>
      </trkpt>
      <trkpt lat="44.37982" lon="3.42377">
        <ele>847</ele>
        <time>2009-07-07T14:19:18Z</time>
      </trkpt>
      <trkpt lat="44.37994" lon="3.42353">
        <ele>844</ele>
        <time>2009-07-07T14:19:24Z</time>
      </trkpt>
      <trkpt lat="44.37999" lon="3.42345">
        <ele>843</ele>
        <time>2009-07-07T14:19:26Z</time>
      </trkpt>
      <trkpt lat="44.38002" lon="3.42343">
        <ele>844</ele>
        <time>2009-07-07T14:19:27Z</time>
      </trkpt>
      <trkpt lat="44.38003" lon="3.4234">
        <ele>842</ele>
        <time>2009-07-07T14:19:29Z</time>
      </trkpt>
      <trkpt lat="44.3799" lon="3.42345">
        <ele>840</ele>
        <time>2009-07-07T14:19:33Z</time>
      </trkpt>
      <trkpt lat="44.37979" lon="3.42351">
        <ele>838</ele>
        <time>2009-07-07T14:19:36Z</time>
      </trkpt>
      <trkpt lat="44.37975" lon="3.42355">
        <ele>836</ele>
        <time>2009-07-07T14:19:38Z</time>
      </trkpt>
      <trkpt lat="44.37979" lon="3.42337">
        <ele>832</ele>
        <time>2009-07-07T14:19:44Z</time>
      </trkpt>
      <trkpt lat="44.37981" lon="3.42332">
        <ele>832</ele>
        <time>2009-07-07T14:19:45Z</time>
      </trkpt>
      <trkpt lat="44.37987" lon="3.42319">
        <ele>829</ele>
        <time>2009-07-07T14:19:48Z</time>
      </trkpt>
      <trkpt lat="44.37994" lon="3.42307">
        <ele>826</ele>
        <time>2009-07-07T14:19:52Z</time>
      </trkpt>
      <trkpt lat="44.37983" lon="3.42309">
        <ele>823</ele>
        <time>2009-07-07T14:19:56Z</time>
      </trkpt>
      <trkpt lat="44.3798" lon="3.42311">
        <ele>823</ele>
        <time>2009-07-07T14:19:57Z</time>
      </trkpt>
      <trkpt lat="44.37972" lon="3.42314">
        <ele>821</ele>
        <time>2009-07-07T14:19:59Z</time>
      </trkpt>
      <trkpt lat="44.37964" lon="3.42317">
        <ele>818</ele>
        <time>2009-07-07T14:20:02Z</time>
      </trkpt>
      <trkpt lat="44.37961" lon="3.42314">
        <ele>818</ele>
        <time>2009-07-07T14:20:05Z</time>
      </trkpt>
      <trkpt lat="44.37967" lon="3.42298">
        <ele>816</ele>
        <time>2009-07-07T14:20:09Z</time>
      </trkpt>
      <trkpt lat="44.37968" lon="3.42293">
        <ele>815</ele>
        <time>2009-07-07T14:20:11Z</time>
      </trkpt>
      <trkpt lat="44.37957" lon="3.42297">
        <ele>811</ele>
        <time>2009-07-07T14:20:16Z</time>
      </trkpt>
      <trkpt lat="44.37955" lon="3.42299">
        <ele>810</ele>
        <time>2009-07-07T14:20:17Z</time>
      </trkpt>
      <trkpt lat="44.37946" lon="3.42304">
        <ele>808</ele>
        <time>2009-07-07T14:20:21Z</time>
      </trkpt>
      <trkpt lat="44.37942" lon="3.42308">
        <ele>807</ele>
        <time>2009-07-07T14:20:31Z</time>
      </trkpt>
      <trkpt lat="44.37939" lon="3.42306">
        <ele>805</ele>
        <time>2009-07-07T14:20:54Z</time>
      </trkpt>
      <trkpt lat="44.37936" lon="3.423">
        <ele>803</ele>
        <time>2009-07-07T14:21:06Z</time>
      </trkpt>
      <trkpt lat="44.37937" lon="3.42297">
        <ele>802</ele>
        <time>2009-07-07T14:21:10Z</time>
      </trkpt>
      <trkpt lat="44.37937" lon="3.42292">
        <ele>801</ele>
        <time>2009-07-07T14:21:13Z</time>
      </trkpt>
      <trkpt lat="44.37932" lon="3.42282">
        <ele>800</ele>
        <time>2009-07-07T14:21:27Z</time>
      </trkpt>
      <trkpt lat="44.3793" lon="3.42281">
        <ele>799</ele>
        <time>2009-07-07T14:21:57Z</time>
      </trkpt>
      <trkpt lat="44.37932" lon="3.42279">
        <ele>801</ele>
        <time>2009-07-07T14:22:31Z</time>
      </trkpt>
      <trkpt lat="44.37931" lon="3.42278">
        <ele>800</ele>
        <time>2009-07-07T14:22:42Z</time>
      </trkpt>
      <trkpt lat="44.37922" lon="3.42253">
        <ele>797</ele>
        <time>2009-07-07T14:22:50Z</time>
      </trkpt>
      <trkpt lat="44.37912" lon="3.42224">
        <ele>796</ele>
        <time>2009-07-07T14:22:55Z</time>
      </trkpt>
      <trkpt lat="44.37902" lon="3.42206">
        <ele>793</ele>
        <time>2009-07-07T14:22:58Z</time>
      </trkpt>
      <trkpt lat="44.37874" lon="3.42169">
        <ele>788</ele>
        <time>2009-07-07T14:23:08Z</time>
      </trkpt>
      <trkpt lat="44.37867" lon="3.42155">
        <ele>787</ele>
        <time>2009-07-07T14:23:11Z</time>
      </trkpt>
      <trkpt lat="44.37865" lon="3.4215">
        <ele>786</ele>
        <time>2009-07-07T14:23:12Z</time>
      </trkpt>
      <trkpt lat="44.37854" lon="3.42129">
        <ele>785</ele>
        <time>2009-07-07T14:23:16Z</time>
      </trkpt>
      <trkpt lat="44.37838" lon="3.42095">
        <ele>780</ele>
        <time>2009-07-07T14:23:21Z</time>
      </trkpt>
      <trkpt lat="44.37815" lon="3.42061">
        <ele>777</ele>
        <time>2009-07-07T14:23:26Z</time>
      </trkpt>
      <trkpt lat="44.37809" lon="3.42055">
        <ele>777</ele>
        <time>2009-07-07T14:23:27Z</time>
      </trkpt>
      <trkpt lat="44.37791" lon="3.4204">
        <ele>779</ele>
        <time>2009-07-07T14:23:32Z</time>
      </trkpt>
      <trkpt lat="44.37756" lon="3.42027">
        <ele>782</ele>
        <time>2009-07-07T14:23:44Z</time>
      </trkpt>
      <trkpt lat="44.37725" lon="3.42018">
        <ele>784</ele>
        <time>2009-07-07T14:23:55Z</time>
      </trkpt>
      <trkpt lat="44.37692" lon="3.42012">
        <ele>786</ele>
        <time>2009-07-07T14:24:08Z</time>
      </trkpt>
      <trkpt lat="44.37664" lon="3.42">
        <ele>790</ele>
        <time>2009-07-07T14:24:20Z</time>
      </trkpt>
      <trkpt lat="44.37632" lon="3.41984">
        <ele>792</ele>
        <time>2009-07-07T14:24:34Z</time>
      </trkpt>
      <trkpt lat="44.37596" lon="3.41986">
        <ele>795</ele>
        <time>2009-07-07T14:24:47Z</time>
      </trkpt>
      <trkpt lat="44.37557" lon="3.41994">
        <ele>799</ele>
        <time>2009-07-07T14:25:03Z</time>
      </trkpt>
      <trkpt lat="44.37529" lon="3.42003">
        <ele>801</ele>
        <time>2009-07-07T14:25:16Z</time>
      </trkpt>
      <trkpt lat="44.37498" lon="3.4201">
        <ele>803</ele>
        <time>2009-07-07T14:25:31Z</time>
      </trkpt>
      <trkpt lat="44.37467" lon="3.42014">
        <ele>806</ele>
        <time>2009-07-07T14:25:46Z</time>
      </trkpt>
      <trkpt lat="44.3744" lon="3.42025">
        <ele>809</ele>
        <time>2009-07-07T14:25:59Z</time>
      </trkpt>
      <trkpt lat="44.3742" lon="3.42037">
        <ele>812</ele>
        <time>2009-07-07T14:26:10Z</time>
      </trkpt>
      <trkpt lat="44.37411" lon="3.42042">
        <ele>813</ele>
        <time>2009-07-07T14:26:16Z</time>
      </trkpt>
      <trkpt lat="44.37408" lon="3.42037">
        <ele>812</ele>
        <time>2009-07-07T14:26:37Z</time>
      </trkpt>
      <trkpt lat="44.37393" lon="3.4203">
        <ele>815</ele>
        <time>2009-07-07T14:26:57Z</time>
      </trkpt>
      <trkpt lat="44.37355" lon="3.4203">
        <ele>818</ele>
        <time>2009-07-07T14:27:16Z</time>
      </trkpt>
      <trkpt lat="44.37321" lon="3.42032">
        <ele>820</ele>
        <time>2009-07-07T14:27:31Z</time>
      </trkpt>
      <trkpt lat="44.37297" lon="3.42037">
        <ele>823</ele>
        <time>2009-07-07T14:27:41Z</time>
      </trkpt>
      <trkpt lat="44.37271" lon="3.42041">
        <ele>826</ele>
        <time>2009-07-07T14:27:54Z</time>
      </trkpt>
      <trkpt lat="44.37243" lon="3.42049">
        <ele>828</ele>
        <time>2009-07-07T14:28:08Z</time>
      </trkpt>
      <trkpt lat="44.37215" lon="3.42062">
        <ele>831</ele>
        <time>2009-07-07T14:28:23Z</time>
      </trkpt>
      <trkpt lat="44.37188" lon="3.42068">
        <ele>833</ele>
        <time>2009-07-07T14:28:37Z</time>
      </trkpt>
      <trkpt lat="44.37148" lon="3.42058">
        <ele>836</ele>
        <time>2009-07-07T14:28:57Z</time>
      </trkpt>
      <trkpt lat="44.37116" lon="3.42033">
        <ele>838</ele>
        <time>2009-07-07T14:29:13Z</time>
      </trkpt>
      <trkpt lat="44.37088" lon="3.42017">
        <ele>841</ele>
        <time>2009-07-07T14:29:27Z</time>
      </trkpt>
      <trkpt lat="44.37077" lon="3.42021">
        <ele>842</ele>
        <time>2009-07-07T14:29:34Z</time>
      </trkpt>
      <trkpt lat="44.37074" lon="3.42054">
        <ele>843</ele>
        <time>2009-07-07T14:29:47Z</time>
      </trkpt>
      <trkpt lat="44.37074" lon="3.42056">
        <ele>842</ele>
        <time>2009-07-07T14:30:01Z</time>
      </trkpt>
      <trkpt lat="44.37074" lon="3.42062">
        <ele>842</ele>
        <time>2009-07-07T14:33:26Z</time>
      </trkpt>
      <trkpt lat="44.37075" lon="3.4207">
        <ele>843</ele>
        <time>2009-07-07T14:33:42Z</time>
      </trkpt>
      <trkpt lat="44.37068" lon="3.42106">
        <ele>843</ele>
        <time>2009-07-07T14:33:55Z</time>
      </trkpt>
      <trkpt lat="44.3707" lon="3.42152">
        <ele>847</ele>
        <time>2009-07-07T14:34:08Z</time>
      </trkpt>
      <trkpt lat="44.37072" lon="3.42207">
        <ele>849</ele>
        <time>2009-07-07T14:34:24Z</time>
      </trkpt>
      <trkpt lat="44.37062" lon="3.4224">
        <ele>850</ele>
        <time>2009-07-07T14:34:36Z</time>
      </trkpt>
      <trkpt lat="44.37064" lon="3.42271">
        <ele>851</ele>
        <time>2009-07-07T14:34:47Z</time>
      </trkpt>
      <trkpt lat="44.37075" lon="3.42301">
        <ele>849</ele>
        <time>2009-07-07T14:34:56Z</time>
      </trkpt>
      <trkpt lat="44.37075" lon="3.42337">
        <ele>849</ele>
        <time>2009-07-07T14:35:04Z</time>
      </trkpt>
      <trkpt lat="44.37061" lon="3.42364">
        <ele>852</ele>
        <time>2009-07-07T14:35:13Z</time>
      </trkpt>
      <trkpt lat="44.37066" lon="3.42413">
        <ele>854</ele>
        <time>2009-07-07T14:35:26Z</time>
      </trkpt>
      <trkpt lat="44.3706" lon="3.42457">
        <ele>856</ele>
        <time>2009-07-07T14:35:38Z</time>
      </trkpt>
      <trkpt lat="44.3704" lon="3.42494">
        <ele>858</ele>
        <time>2009-07-07T14:35:51Z</time>
      </trkpt>
      <trkpt lat="44.37029" lon="3.42537">
        <ele>859</ele>
        <time>2009-07-07T14:36:05Z</time>
      </trkpt>
      <trkpt lat="44.37055" lon="3.42565">
        <ele>857</ele>
        <time>2009-07-07T14:36:18Z</time>
      </trkpt>
      <trkpt lat="44.37083" lon="3.42589">
        <ele>853</ele>
        <time>2009-07-07T14:36:29Z</time>
      </trkpt>
      <trkpt lat="44.37106" lon="3.42617">
        <ele>851</ele>
        <time>2009-07-07T14:36:39Z</time>
      </trkpt>
      <trkpt lat="44.37111" lon="3.42635">
        <ele>849</ele>
        <time>2009-07-07T14:36:43Z</time>
      </trkpt>
      <trkpt lat="44.37119" lon="3.4266">
        <ele>847</ele>
        <time>2009-07-07T14:36:50Z</time>
      </trkpt>
      <trkpt lat="44.37122" lon="3.42667">
        <ele>846</ele>
        <time>2009-07-07T14:36:52Z</time>
      </trkpt>
      <trkpt lat="44.37128" lon="3.42691">
        <ele>845</ele>
        <time>2009-07-07T14:36:59Z</time>
      </trkpt>
      <trkpt lat="44.37123" lon="3.42716">
        <ele>844</ele>
        <time>2009-07-07T14:37:04Z</time>
      </trkpt>
      <trkpt lat="44.37129" lon="3.42727">
        <ele>843</ele>
        <time>2009-07-07T14:37:13Z</time>
      </trkpt>
      <trkpt lat="44.37132" lon="3.42727">
        <ele>843</ele>
        <time>2009-07-07T14:37:15Z</time>
      </trkpt>
      <trkpt lat="44.37126" lon="3.42776">
        <ele>841</ele>
        <time>2009-07-07T14:37:28Z</time>
      </trkpt>
      <trkpt lat="44.37115" lon="3.42824">
        <ele>838</ele>
        <time>2009-07-07T14:37:40Z</time>
      </trkpt>
      <trkpt lat="44.37113" lon="3.42848">
        <ele>837</ele>
        <time>2009-07-07T14:37:45Z</time>
      </trkpt>
      <trkpt lat="44.37112" lon="3.42859">
        <ele>836</ele>
        <time>2009-07-07T14:37:47Z</time>
      </trkpt>
      <trkpt lat="44.37114" lon="3.42902">
        <ele>833</ele>
        <time>2009-07-07T14:37:54Z</time>
      </trkpt>
      <trkpt lat="44.37122" lon="3.42927">
        <ele>831</ele>
        <time>2009-07-07T14:37:58Z</time>
      </trkpt>
      <trkpt lat="44.37139" lon="3.42956">
        <ele>830</ele>
        <time>2009-07-07T14:38:04Z</time>
      </trkpt>
      <trkpt lat="44.37152" lon="3.42973">
        <ele>829</ele>
        <time>2009-07-07T14:38:08Z</time>
      </trkpt>
      <trkpt lat="44.37164" lon="3.43014">
        <ele>826</ele>
        <time>2009-07-07T14:38:18Z</time>
      </trkpt>
      <trkpt lat="44.37165" lon="3.43021">
        <ele>826</ele>
        <time>2009-07-07T14:38:20Z</time>
      </trkpt>
      <trkpt lat="44.37162" lon="3.43026">
        <ele>824</ele>
        <time>2009-07-07T14:38:35Z</time>
      </trkpt>
      <trkpt lat="44.37165" lon="3.43024">
        <ele>824</ele>
        <time>2009-07-07T14:39:36Z</time>
      </trkpt>
      <trkpt lat="44.37165" lon="3.43014">
        <ele>824</ele>
        <time>2009-07-07T14:40:00Z</time>
      </trkpt>
      <trkpt lat="44.37165" lon="3.43013">
        <ele>823</ele>
        <time>2009-07-07T14:40:01Z</time>
      </trkpt>
      <trkpt lat="44.37167" lon="3.43008">
        <ele>824</ele>
        <time>2009-07-07T14:40:13Z</time>
      </trkpt>
      <trkpt lat="44.37165" lon="3.43007">
        <ele>823</ele>
        <time>2009-07-07T14:40:17Z</time>
      </trkpt>
      <trkpt lat="44.37158" lon="3.42995">
        <ele>821</ele>
        <time>2009-07-07T14:40:23Z</time>
      </trkpt>
      <trkpt lat="44.37145" lon="3.42988">
        <ele>819</ele>
        <time>2009-07-07T14:40:26Z</time>
      </trkpt>
      <trkpt lat="44.37136" lon="3.42983">
        <ele>818</ele>
        <time>2009-07-07T14:40:28Z</time>
      </trkpt>
      <trkpt lat="44.37127" lon="3.42978">
        <ele>817</ele>
        <time>2009-07-07T14:40:30Z</time>
      </trkpt>
      <trkpt lat="44.37122" lon="3.42976">
        <ele>817</ele>
        <time>2009-07-07T14:40:31Z</time>
      </trkpt>
      <trkpt lat="44.37113" lon="3.42969">
        <ele>816</ele>
        <time>2009-07-07T14:40:33Z</time>
      </trkpt>
      <trkpt lat="44.37089" lon="3.42912">
        <ele>812</ele>
        <time>2009-07-07T14:40:43Z</time>
      </trkpt>
      <trkpt lat="44.3709" lon="3.42904">
        <ele>812</ele>
        <time>2009-07-07T14:40:44Z</time>
      </trkpt>
      <trkpt lat="44.37087" lon="3.42861">
        <ele>808</ele>
        <time>2009-07-07T14:40:50Z</time>
      </trkpt>
      <trkpt lat="44.3708" lon="3.42835">
        <ele>805</ele>
        <time>2009-07-07T14:40:57Z</time>
      </trkpt>
      <trkpt lat="44.3708" lon="3.42828">
        <ele>804</ele>
        <time>2009-07-07T14:41:04Z</time>
      </trkpt>
      <trkpt lat="44.37079" lon="3.42824">
        <ele>803</ele>
        <time>2009-07-07T14:41:06Z</time>
      </trkpt>
      <trkpt lat="44.37077" lon="3.42819">
        <ele>803</ele>
        <time>2009-07-07T14:41:24Z</time>
      </trkpt>
      <trkpt lat="44.37077" lon="3.4281">
        <ele>801</ele>
        <time>2009-07-07T14:41:35Z</time>
      </trkpt>
      <trkpt lat="44.37077" lon="3.42805">
        <ele>800</ele>
        <time>2009-07-07T14:41:42Z</time>
      </trkpt>
      <trkpt lat="44.37076" lon="3.42802">
        <ele>799</ele>
        <time>2009-07-07T14:41:45Z</time>
      </trkpt>
      <trkpt lat="44.37075" lon="3.42795">
        <ele>799</ele>
        <time>2009-07-07T14:42:03Z</time>
      </trkpt>
      <trkpt lat="44.37073" lon="3.42792">
        <ele>798</ele>
        <time>2009-07-07T14:42:16Z</time>
      </trkpt>
      <trkpt lat="44.37072" lon="3.42784">
        <ele>797</ele>
        <time>2009-07-07T14:42:20Z</time>
      </trkpt>
      <trkpt lat="44.3707" lon="3.42772">
        <ele>795</ele>
        <time>2009-07-07T14:42:24Z</time>
      </trkpt>
      <trkpt lat="44.37068" lon="3.42763">
        <ele>792</ele>
        <time>2009-07-07T14:42:27Z</time>
      </trkpt>
      <trkpt lat="44.37068" lon="3.4276">
        <ele>792</ele>
        <time>2009-07-07T14:42:28Z</time>
      </trkpt>
      <trkpt lat="44.37066" lon="3.42747">
        <ele>788</ele>
        <time>2009-07-07T14:42:32Z</time>
      </trkpt>
      <trkpt lat="44.37066" lon="3.4274">
        <ele>786</ele>
        <time>2009-07-07T14:42:34Z</time>
      </trkpt>
      <trkpt lat="44.3706" lon="3.4273">
        <ele>787</ele>
        <time>2009-07-07T14:42:46Z</time>
      </trkpt>
      <trkpt lat="44.37057" lon="3.42727">
        <ele>786</ele>
        <time>2009-07-07T14:42:49Z</time>
      </trkpt>
      <trkpt lat="44.37053" lon="3.42723">
        <ele>787</ele>
        <time>2009-07-07T14:42:55Z</time>
      </trkpt>
      <trkpt lat="44.37047" lon="3.42714">
        <ele>786</ele>
        <time>2009-07-07T14:43:07Z</time>
      </trkpt>
      <trkpt lat="44.37046" lon="3.42709">
        <ele>785</ele>
        <time>2009-07-07T14:43:18Z</time>
      </trkpt>
      <trkpt lat="44.37041" lon="3.42705">
        <ele>785</ele>
        <time>2009-07-07T14:43:32Z</time>
      </trkpt>
      <trkpt lat="44.37036" lon="3.427">
        <ele>783</ele>
        <time>2009-07-07T14:43:39Z</time>
      </trkpt>
      <trkpt lat="44.37032" lon="3.42697">
        <ele>784</ele>
        <time>2009-07-07T14:43:44Z</time>
      </trkpt>
      <trkpt lat="44.37028" lon="3.42695">
        <ele>784</ele>
        <time>2009-07-07T14:43:50Z</time>
      </trkpt>
      <trkpt lat="44.37026" lon="3.42693">
        <ele>783</ele>
        <time>2009-07-07T14:43:52Z</time>
      </trkpt>
      <trkpt lat="44.37015" lon="3.42689">
        <ele>783</ele>
        <time>2009-07-07T14:44:07Z</time>
      </trkpt>
      <trkpt lat="44.37013" lon="3.42679">
        <ele>781</ele>
        <time>2009-07-07T14:44:18Z</time>
      </trkpt>
      <trkpt lat="44.37004" lon="3.42672">
        <ele>781</ele>
        <time>2009-07-07T14:44:34Z</time>
      </trkpt>
      <trkpt lat="44.36987" lon="3.42662">
        <ele>782</ele>
        <time>2009-07-07T14:44:47Z</time>
      </trkpt>
      <trkpt lat="44.36968" lon="3.42648">
        <ele>782</ele>
        <time>2009-07-07T14:44:58Z</time>
      </trkpt>
      <trkpt lat="44.36958" lon="3.42607">
        <ele>783</ele>
        <time>2009-07-07T14:45:11Z</time>
      </trkpt>
      <trkpt lat="44.36937" lon="3.42589">
        <ele>786</ele>
        <time>2009-07-07T14:45:21Z</time>
      </trkpt>
      <trkpt lat="44.36923" lon="3.42574">
        <ele>788</ele>
        <time>2009-07-07T14:45:34Z</time>
      </trkpt>
      <trkpt lat="44.36922" lon="3.42574">
        <ele>787</ele>
        <time>2009-07-07T14:45:36Z</time>
      </trkpt>
      <trkpt lat="44.36913" lon="3.42566">
        <ele>788</ele>
        <time>2009-07-07T14:45:48Z</time>
      </trkpt>
      <trkpt lat="44.36907" lon="3.42559">
        <ele>790</ele>
        <time>2009-07-07T14:45:51Z</time>
      </trkpt>
      <trkpt lat="44.36901" lon="3.42518">
        <ele>790</ele>
        <time>2009-07-07T14:46:03Z</time>
      </trkpt>
      <trkpt lat="44.36903" lon="3.42494">
        <ele>787</ele>
        <time>2009-07-07T14:46:11Z</time>
      </trkpt>
      <trkpt lat="44.36913" lon="3.42481">
        <ele>786</ele>
        <time>2009-07-07T14:46:23Z</time>
      </trkpt>
      <trkpt lat="44.36916" lon="3.42477">
        <ele>785</ele>
        <time>2009-07-07T14:46:38Z</time>
      </trkpt>
      <trkpt lat="44.36917" lon="3.42475">
        <ele>785</ele>
        <time>2009-07-07T14:46:43Z</time>
      </trkpt>
      <trkpt lat="44.36918" lon="3.42462">
        <ele>781</ele>
        <time>2009-07-07T14:46:48Z</time>
      </trkpt>
      <trkpt lat="44.36916" lon="3.4245">
        <ele>778</ele>
        <time>2009-07-07T14:46:52Z</time>
      </trkpt>
      <trkpt lat="44.36916" lon="3.42448">
        <ele>778</ele>
        <time>2009-07-07T14:46:53Z</time>
      </trkpt>
      <trkpt lat="44.36915" lon="3.42434">
        <ele>775</ele>
        <time>2009-07-07T14:46:58Z</time>
      </trkpt>
      <trkpt lat="44.36919" lon="3.42424">
        <ele>772</ele>
        <time>2009-07-07T14:47:01Z</time>
      </trkpt>
      <trkpt lat="44.36922" lon="3.42416">
        <ele>770</ele>
        <time>2009-07-07T14:47:03Z</time>
      </trkpt>
      <trkpt lat="44.36926" lon="3.42407">
        <ele>767</ele>
        <time>2009-07-07T14:47:06Z</time>
      </trkpt>
      <trkpt lat="44.36933" lon="3.42398">
        <ele>767</ele>
        <time>2009-07-07T14:47:16Z</time>
      </trkpt>
      <trkpt lat="44.36946" lon="3.42392">
        <ele>764</ele>
        <time>2009-07-07T14:47:26Z</time>
      </trkpt>
      <trkpt lat="44.36949" lon="3.42391">
        <ele>763</ele>
        <time>2009-07-07T14:47:27Z</time>
      </trkpt>
      <trkpt lat="44.36954" lon="3.42389">
        <ele>762</ele>
        <time>2009-07-07T14:47:30Z</time>
      </trkpt>
      <trkpt lat="44.36956" lon="3.42386">
        <ele>762</ele>
        <time>2009-07-07T14:47:33Z</time>
      </trkpt>
      <trkpt lat="44.36952" lon="3.42376">
        <ele>757</ele>
        <time>2009-07-07T14:47:38Z</time>
      </trkpt>
      <trkpt lat="44.36952" lon="3.42371">
        <ele>754</ele>
        <time>2009-07-07T14:47:40Z</time>
      </trkpt>
      <trkpt lat="44.36952" lon="3.4237">
        <ele>754</ele>
        <time>2009-07-07T14:47:41Z</time>
      </trkpt>
      <trkpt lat="44.36951" lon="3.42363">
        <ele>750</ele>
        <time>2009-07-07T14:47:54Z</time>
      </trkpt>
      <trkpt lat="44.36951" lon="3.42361">
        <ele>750</ele>
        <time>2009-07-07T14:47:55Z</time>
      </trkpt>
      <trkpt lat="44.36948" lon="3.42354">
        <ele>747</ele>
        <time>2009-07-07T14:48:07Z</time>
      </trkpt>
      <trkpt lat="44.36944" lon="3.42354">
        <ele>745</ele>
        <time>2009-07-07T14:48:14Z</time>
      </trkpt>
      <trkpt lat="44.36942" lon="3.42351">
        <ele>743</ele>
        <time>2009-07-07T14:48:18Z</time>
      </trkpt>
      <trkpt lat="44.36942" lon="3.42347">
        <ele>742</ele>
        <time>2009-07-07T14:48:36Z</time>
      </trkpt>
      <trkpt lat="44.36942" lon="3.42333">
        <ele>740</ele>
        <time>2009-07-07T14:48:56Z</time>
      </trkpt>
      <trkpt lat="44.36941" lon="3.42322">
        <ele>737</ele>
        <time>2009-07-07T14:49:08Z</time>
      </trkpt>
      <trkpt lat="44.36939" lon="3.4231">
        <ele>737</ele>
        <time>2009-07-07T14:49:18Z</time>
      </trkpt>
      <trkpt lat="44.36938" lon="3.42305">
        <ele>735</ele>
        <time>2009-07-07T14:49:24Z</time>
      </trkpt>
      <trkpt lat="44.36935" lon="3.42289">
        <ele>734</ele>
        <time>2009-07-07T14:49:34Z</time>
      </trkpt>
      <trkpt lat="44.36928" lon="3.42274">
        <ele>730</ele>
        <time>2009-07-07T14:49:41Z</time>
      </trkpt>
      <trkpt lat="44.36926" lon="3.42263">
        <ele>728</ele>
        <time>2009-07-07T14:49:44Z</time>
      </trkpt>
      <trkpt lat="44.3692" lon="3.42248">
        <ele>729</ele>
        <time>2009-07-07T14:49:50Z</time>
      </trkpt>
      <trkpt lat="44.36902" lon="3.42225">
        <ele>728</ele>
        <time>2009-07-07T14:50:03Z</time>
      </trkpt>
      <trkpt lat="44.36897" lon="3.4222">
        <ele>727</ele>
        <time>2009-07-07T14:50:07Z</time>
      </trkpt>
      <trkpt lat="44.36896" lon="3.42214">
        <ele>725</ele>
        <time>2009-07-07T14:50:09Z</time>
      </trkpt>
      <trkpt lat="44.36897" lon="3.42203">
        <ele>723</ele>
        <time>2009-07-07T14:50:13Z</time>
      </trkpt>
      <trkpt lat="44.36903" lon="3.42168">
        <ele>720</ele>
        <time>2009-07-07T14:50:24Z</time>
      </trkpt>
      <trkpt lat="44.36901" lon="3.42158">
        <ele>718</ele>
        <time>2009-07-07T14:50:28Z</time>
      </trkpt>
      <trkpt lat="44.369" lon="3.42152">
        <ele>717</ele>
        <time>2009-07-07T14:50:30Z</time>
      </trkpt>
      <trkpt lat="44.36898" lon="3.42143">
        <ele>713</ele>
        <time>2009-07-07T14:50:33Z</time>
      </trkpt>
      <trkpt lat="44.36897" lon="3.4214">
        <ele>713</ele>
        <time>2009-07-07T14:50:34Z</time>
      </trkpt>
      <trkpt lat="44.3689" lon="3.4212">
        <ele>709</ele>
        <time>2009-07-07T14:50:40Z</time>
      </trkpt>
      <trkpt lat="44.36887" lon="3.42082">
        <ele>708</ele>
        <time>2009-07-07T14:50:46Z</time>
      </trkpt>
      <trkpt lat="44.36881" lon="3.42059">
        <ele>705</ele>
        <time>2009-07-07T14:50:50Z</time>
      </trkpt>
      <trkpt lat="44.36868" lon="3.42034">
        <ele>701</ele>
        <time>2009-07-07T14:50:54Z</time>
      </trkpt>
      <trkpt lat="44.36864" lon="3.42027">
        <ele>701</ele>
        <time>2009-07-07T14:50:55Z</time>
      </trkpt>
      <trkpt lat="44.36865" lon="3.41983">
        <ele>701</ele>
        <time>2009-07-07T14:51:04Z</time>
      </trkpt>
      <trkpt lat="44.36869" lon="3.41969">
        <ele>699</ele>
        <time>2009-07-07T14:51:07Z</time>
      </trkpt>
      <trkpt lat="44.36873" lon="3.41959">
        <ele>698</ele>
        <time>2009-07-07T14:51:09Z</time>
      </trkpt>
      <trkpt lat="44.36875" lon="3.41955">
        <ele>700</ele>
        <time>2009-07-07T14:51:12Z</time>
      </trkpt>
      <trkpt lat="44.36877" lon="3.41955">
        <ele>699</ele>
        <time>2009-07-07T14:52:03Z</time>
      </trkpt>
      <trkpt lat="44.36876" lon="3.41955">
        <ele>699</ele>
        <time>2009-07-07T14:52:18Z</time>
      </trkpt>
      <trkpt lat="44.36877" lon="3.41955">
        <ele>697</ele>
        <time>2009-07-07T14:52:52Z</time>
      </trkpt>
      <trkpt lat="44.36876" lon="3.41956">
        <ele>698</ele>
        <time>2009-07-07T14:54:20Z</time>
      </trkpt>
      <trkpt lat="44.36878" lon="3.41956">
        <ele>695</ele>
        <time>2009-07-07T14:54:56Z</time>
      </trkpt>
      <trkpt lat="44.36875" lon="3.41954">
        <ele>698</ele>
        <time>2009-07-07T14:56:11Z</time>
      </trkpt>
      <trkpt lat="44.36877" lon="3.41952">
        <ele>694</ele>
        <time>2009-07-07T14:56:58Z</time>
      </trkpt>
      <trkpt lat="44.36879" lon="3.41953">
        <ele>696</ele>
        <time>2009-07-07T14:58:06Z</time>
      </trkpt>
      <trkpt lat="44.36876" lon="3.41953">
        <ele>693</ele>
        <time>2009-07-07T14:58:40Z</time>
      </trkpt>
      <trkpt lat="44.36876" lon="3.41926">
        <ele>691</ele>
        <time>2009-07-07T14:58:48Z</time>
      </trkpt>
      <trkpt lat="44.36876" lon="3.41905">
        <ele>687</ele>
        <time>2009-07-07T14:58:51Z</time>
      </trkpt>
      <trkpt lat="44.36872" lon="3.4187">
        <ele>684</ele>
        <time>2009-07-07T14:58:57Z</time>
      </trkpt>
      <trkpt lat="44.36867" lon="3.41852">
        <ele>679</ele>
        <time>2009-07-07T14:59:01Z</time>
      </trkpt>
      <trkpt lat="44.36862" lon="3.41829">
        <ele>675</ele>
        <time>2009-07-07T14:59:07Z</time>
      </trkpt>
      <trkpt lat="44.36858" lon="3.41809">
        <ele>672</ele>
        <time>2009-07-07T14:59:14Z</time>
      </trkpt>
      <trkpt lat="44.36858" lon="3.41808">
        <ele>672</ele>
        <time>2009-07-07T15:00:08Z</time>
      </trkpt>
      <trkpt lat="44.36853" lon="3.41797">
        <ele>669</ele>
        <time>2009-07-07T15:00:59Z</time>
      </trkpt>
      <trkpt lat="44.36849" lon="3.41787">
        <ele>669</ele>
        <time>2009-07-07T15:01:11Z</time>
      </trkpt>
      <trkpt lat="44.36845" lon="3.41784">
        <ele>668</ele>
        <time>2009-07-07T15:01:20Z</time>
      </trkpt>
      <trkpt lat="44.36838" lon="3.41774">
        <ele>666</ele>
        <time>2009-07-07T15:01:30Z</time>
      </trkpt>
      <trkpt lat="44.36835" lon="3.41767">
        <ele>664</ele>
        <time>2009-07-07T15:01:34Z</time>
      </trkpt>
      <trkpt lat="44.3683" lon="3.41754">
        <ele>661</ele>
        <time>2009-07-07T15:01:41Z</time>
      </trkpt>
      <trkpt lat="44.3683" lon="3.41752">
        <ele>661</ele>
        <time>2009-07-07T15:01:42Z</time>
      </trkpt>
      <trkpt lat="44.36832" lon="3.41743">
        <ele>661</ele>
        <time>2009-07-07T15:01:56Z</time>
      </trkpt>
      <trkpt lat="44.36833" lon="3.41739">
        <ele>662</ele>
        <time>2009-07-07T15:02:06Z</time>
      </trkpt>
      <trkpt lat="44.36834" lon="3.41736">
        <ele>660</ele>
        <time>2009-07-07T15:02:09Z</time>
      </trkpt>
      <trkpt lat="44.36841" lon="3.41727">
        <ele>656</ele>
        <time>2009-07-07T15:02:19Z</time>
      </trkpt>
      <trkpt lat="44.36841" lon="3.41727">
        <ele>655</ele>
        <time>2009-07-07T15:02:24Z</time>
      </trkpt>
      <trkpt lat="44.36845" lon="3.41713">
        <ele>653</ele>
        <time>2009-07-07T15:02:34Z</time>
      </trkpt>
      <trkpt lat="44.36848" lon="3.41701">
        <ele>651</ele>
        <time>2009-07-07T15:02:40Z</time>
      </trkpt>
      <trkpt lat="44.36848" lon="3.41699">
        <ele>651</ele>
        <time>2009-07-07T15:02:44Z</time>
      </trkpt>
      <trkpt lat="44.36847" lon="3.41695">
        <ele>649</ele>
        <time>2009-07-07T15:02:47Z</time>
      </trkpt>
      <trkpt lat="44.36855" lon="3.41677">
        <ele>648</ele>
        <time>2009-07-07T15:02:54Z</time>
      </trkpt>
      <trkpt lat="44.36858" lon="3.4166">
        <ele>645</ele>
        <time>2009-07-07T15:02:57Z</time>
      </trkpt>
      <trkpt lat="44.36848" lon="3.41643">
        <ele>643</ele>
        <time>2009-07-07T15:03:04Z</time>
      </trkpt>
      <trkpt lat="44.36847" lon="3.41642">
        <ele>643</ele>
        <time>2009-07-07T15:03:05Z</time>
      </trkpt>
      <trkpt lat="44.36837" lon="3.41635">
        <ele>639</ele>
        <time>2009-07-07T15:03:13Z</time>
      </trkpt>
      <trkpt lat="44.36832" lon="3.41634">
        <ele>638</ele>
        <time>2009-07-07T15:03:22Z</time>
      </trkpt>
      <trkpt lat="44.3683" lon="3.41633">
        <ele>637</ele>
        <time>2009-07-07T15:03:24Z</time>
      </trkpt>
      <trkpt lat="44.36824" lon="3.41628">
        <ele>635</ele>
        <time>2009-07-07T15:03:32Z</time>
      </trkpt>
      <trkpt lat="44.36819" lon="3.41631">
        <ele>632</ele>
        <time>2009-07-07T15:03:43Z</time>
      </trkpt>
      <trkpt lat="44.36817" lon="3.41635">
        <ele>631</ele>
        <time>2009-07-07T15:03:47Z</time>
      </trkpt>
      <trkpt lat="44.36809" lon="3.41632">
        <ele>629</ele>
        <time>2009-07-07T15:04:01Z</time>
      </trkpt>
      <trkpt lat="44.36808" lon="3.41632">
        <ele>629</ele>
        <time>2009-07-07T15:04:06Z</time>
      </trkpt>
      <trkpt lat="44.36801" lon="3.41628">
        <ele>625</ele>
        <time>2009-07-07T15:04:11Z</time>
      </trkpt>
      <trkpt lat="44.36794" lon="3.41624">
        <ele>622</ele>
        <time>2009-07-07T15:04:15Z</time>
      </trkpt>
      <trkpt lat="44.36788" lon="3.4162">
        <ele>619</ele>
        <time>2009-07-07T15:04:20Z</time>
      </trkpt>
      <trkpt lat="44.36785" lon="3.41609">
        <ele>616</ele>
        <time>2009-07-07T15:04:31Z</time>
      </trkpt>
      <trkpt lat="44.36784" lon="3.41603">
        <ele>615</ele>
        <time>2009-07-07T15:04:34Z</time>
      </trkpt>
      <trkpt lat="44.36785" lon="3.4159">
        <ele>612</ele>
        <time>2009-07-07T15:04:42Z</time>
      </trkpt>
      <trkpt lat="44.36786" lon="3.4158">
        <ele>611</ele>
        <time>2009-07-07T15:04:55Z</time>
      </trkpt>
      <trkpt lat="44.36785" lon="3.41571">
        <ele>608</ele>
        <time>2009-07-07T15:04:59Z</time>
      </trkpt>
      <trkpt lat="44.36784" lon="3.41561">
        <ele>605</ele>
        <time>2009-07-07T15:05:03Z</time>
      </trkpt>
      <trkpt lat="44.36783" lon="3.41556">
        <ele>604</ele>
        <time>2009-07-07T15:05:15Z</time>
      </trkpt>
      <trkpt lat="44.36781" lon="3.41547">
        <ele>601</ele>
        <time>2009-07-07T15:05:29Z</time>
      </trkpt>
      <trkpt lat="44.36781" lon="3.41546">
        <ele>601</ele>
        <time>2009-07-07T15:05:32Z</time>
      </trkpt>
      <trkpt lat="44.36779" lon="3.41526">
        <ele>597</ele>
        <time>2009-07-07T15:05:40Z</time>
      </trkpt>
      <trkpt lat="44.36775" lon="3.41506">
        <ele>592</ele>
        <time>2009-07-07T15:05:47Z</time>
      </trkpt>
      <trkpt lat="44.36775" lon="3.41503">
        <ele>592</ele>
        <time>2009-07-07T15:05:48Z</time>
      </trkpt>
      <trkpt lat="44.36773" lon="3.41496">
        <ele>590</ele>
        <time>2009-07-07T15:05:54Z</time>
      </trkpt>
      <trkpt lat="44.36769" lon="3.41491">
        <ele>588</ele>
        <time>2009-07-07T15:06:05Z</time>
      </trkpt>
      <trkpt lat="44.36767" lon="3.41483">
        <ele>585</ele>
        <time>2009-07-07T15:06:15Z</time>
      </trkpt>
      <trkpt lat="44.36764" lon="3.41475">
        <ele>582</ele>
        <time>2009-07-07T15:06:18Z</time>
      </trkpt>
      <trkpt lat="44.36764" lon="3.4147">
        <ele>581</ele>
        <time>2009-07-07T15:06:20Z</time>
      </trkpt>
      <trkpt lat="44.36763" lon="3.41467">
        <ele>580</ele>
        <time>2009-07-07T15:06:22Z</time>
      </trkpt>
      <trkpt lat="44.36762" lon="3.41464">
        <ele>578</ele>
        <time>2009-07-07T15:06:25Z</time>
      </trkpt>
      <trkpt lat="44.36759" lon="3.41454">
        <ele>577</ele>
        <time>2009-07-07T15:06:39Z</time>
      </trkpt>
      <trkpt lat="44.36757" lon="3.41447">
        <ele>575</ele>
        <time>2009-07-07T15:06:46Z</time>
      </trkpt>
      <trkpt lat="44.36756" lon="3.41432">
        <ele>572</ele>
        <time>2009-07-07T15:06:52Z</time>
      </trkpt>
      <trkpt lat="44.36756" lon="3.41415">
        <ele>570</ele>
        <time>2009-07-07T15:07:00Z</time>
      </trkpt>
      <trkpt lat="44.36754" lon="3.41407">
        <ele>567</ele>
        <time>2009-07-07T15:07:08Z</time>
      </trkpt>
      <trkpt lat="44.36754" lon="3.41405">
        <ele>566</ele>
        <time>2009-07-07T15:07:10Z</time>
      </trkpt>
      <trkpt lat="44.36752" lon="3.414">
        <ele>565</ele>
        <time>2009-07-07T15:07:15Z</time>
      </trkpt>
      <trkpt lat="44.3675" lon="3.41394">
        <ele>564</ele>
        <time>2009-07-07T15:07:21Z</time>
      </trkpt>
      <trkpt lat="44.36747" lon="3.4139">
        <ele>562</ele>
        <time>2009-07-07T15:07:26Z</time>
      </trkpt>
      <trkpt lat="44.36746" lon="3.41383">
        <ele>561</ele>
        <time>2009-07-07T15:07:35Z</time>
      </trkpt>
      <trkpt lat="44.36747" lon="3.4138">
        <ele>559</ele>
        <time>2009-07-07T15:07:37Z</time>
      </trkpt>
      <trkpt lat="44.36746" lon="3.41372">
        <ele>556</ele>
        <time>2009-07-07T15:07:46Z</time>
      </trkpt>
      <trkpt lat="44.36745" lon="3.41368">
        <ele>555</ele>
        <time>2009-07-07T15:07:49Z</time>
      </trkpt>
      <trkpt lat="44.36742" lon="3.41361">
        <ele>551</ele>
        <time>2009-07-07T15:07:56Z</time>
      </trkpt>
      <trkpt lat="44.3674" lon="3.41352">
        <ele>551</ele>
        <time>2009-07-07T15:08:04Z</time>
      </trkpt>
      <trkpt lat="44.36742" lon="3.41348">
        <ele>549</ele>
        <time>2009-07-07T15:08:09Z</time>
      </trkpt>
      <trkpt lat="44.36739" lon="3.41345">
        <ele>546</ele>
        <time>2009-07-07T15:08:13Z</time>
      </trkpt>
      <trkpt lat="44.36735" lon="3.41343">
        <ele>543</ele>
        <time>2009-07-07T15:08:17Z</time>
      </trkpt>
      <trkpt lat="44.36732" lon="3.41342">
        <ele>544</ele>
        <time>2009-07-07T15:08:20Z</time>
      </trkpt>
      <trkpt lat="44.36726" lon="3.4133">
        <ele>540</ele>
        <time>2009-07-07T15:08:31Z</time>
      </trkpt>
      <trkpt lat="44.36718" lon="3.41322">
        <ele>537</ele>
        <time>2009-07-07T15:08:36Z</time>
      </trkpt>
      <trkpt lat="44.36716" lon="3.41321">
        <ele>536</ele>
        <time>2009-07-07T15:08:37Z</time>
      </trkpt>
      <trkpt lat="44.36709" lon="3.41324">
        <ele>536</ele>
        <time>2009-07-07T15:08:41Z</time>
      </trkpt>
      <trkpt lat="44.36703" lon="3.41335">
        <ele>534</ele>
        <time>2009-07-07T15:08:48Z</time>
      </trkpt>
      <trkpt lat="44.36699" lon="3.41342">
        <ele>533</ele>
        <time>2009-07-07T15:08:59Z</time>
      </trkpt>
      <trkpt lat="44.36691" lon="3.41343">
        <ele>529</ele>
        <time>2009-07-07T15:09:07Z</time>
      </trkpt>
      <trkpt lat="44.36691" lon="3.41342">
        <ele>530</ele>
        <time>2009-07-07T15:09:11Z</time>
      </trkpt>
      <trkpt lat="44.36691" lon="3.41321">
        <ele>525</ele>
        <time>2009-07-07T15:09:18Z</time>
      </trkpt>
      <trkpt lat="44.3669" lon="3.41319">
        <ele>526</ele>
        <time>2009-07-07T15:09:19Z</time>
      </trkpt>
      <trkpt lat="44.36687" lon="3.41308">
        <ele>523</ele>
        <time>2009-07-07T15:09:23Z</time>
      </trkpt>
      <trkpt lat="44.36686" lon="3.41298">
        <ele>519</ele>
        <time>2009-07-07T15:09:27Z</time>
      </trkpt>
      <trkpt lat="44.36694" lon="3.41291">
        <ele>516</ele>
        <time>2009-07-07T15:09:31Z</time>
      </trkpt>
      <trkpt lat="44.36697" lon="3.41284">
        <ele>515</ele>
        <time>2009-07-07T15:09:34Z</time>
      </trkpt>
      <trkpt lat="44.3669" lon="3.41277">
        <ele>510</ele>
        <time>2009-07-07T15:09:39Z</time>
      </trkpt>
      <trkpt lat="44.36691" lon="3.41265">
        <ele>508</ele>
        <time>2009-07-07T15:09:44Z</time>
      </trkpt>
      <trkpt lat="44.36693" lon="3.41262">
        <ele>508</ele>
        <time>2009-07-07T15:09:56Z</time>
      </trkpt>
      <trkpt lat="44.3669" lon="3.41266">
        <ele>508</ele>
        <time>2009-07-07T15:10:00Z</time>
      </trkpt>
      <trkpt lat="44.36688" lon="3.41269">
        <ele>509</ele>
        <time>2009-07-07T15:10:12Z</time>
      </trkpt>
      <trkpt lat="44.36688" lon="3.41269">
        <ele>509</ele>
        <time>2009-07-07T15:10:17Z</time>
      </trkpt>
      <trkpt lat="44.36705" lon="3.41258">
        <ele>507</ele>
        <time>2009-07-07T15:10:23Z</time>
      </trkpt>
      <trkpt lat="44.36723" lon="3.41242">
        <ele>503</ele>
        <time>2009-07-07T15:10:30Z</time>
      </trkpt>
      <trkpt lat="44.36728" lon="3.41242">
        <ele>502</ele>
        <time>2009-07-07T15:10:31Z</time>
      </trkpt>
      <trkpt lat="44.36742" lon="3.4124">
        <ele>499</ele>
        <time>2009-07-07T15:10:36Z</time>
      </trkpt>
      <trkpt lat="44.36741" lon="3.41232">
        <ele>496</ele>
        <time>2009-07-07T15:10:44Z</time>
      </trkpt>
      <trkpt lat="44.36742" lon="3.41228">
        <ele>498</ele>
        <time>2009-07-07T15:11:15Z</time>
      </trkpt>
      <trkpt lat="44.36741" lon="3.41228">
        <ele>496</ele>
        <time>2009-07-07T15:20:16Z</time>
      </trkpt>
      <trkpt lat="44.3674" lon="3.41227">
        <ele>497</ele>
        <time>2009-07-07T15:20:39Z</time>
      </trkpt>
      <trkpt lat="44.36724" lon="3.4121">
        <ele>493</ele>
        <time>2009-07-07T15:20:46Z</time>
      </trkpt>
      <trkpt lat="44.36667" lon="3.41218">
        <ele>487</ele>
        <time>2009-07-07T15:20:55Z</time>
      </trkpt>
      <trkpt lat="44.36637" lon="3.41216">
        <ele>486</ele>
        <time>2009-07-07T15:21:00Z</time>
      </trkpt>
      <trkpt lat="44.36628" lon="3.41217">
        <ele>485</ele>
        <time>2009-07-07T15:21:02Z</time>
      </trkpt>
      <trkpt lat="44.36598" lon="3.41229">
        <ele>482</ele>
        <time>2009-07-07T15:21:11Z</time>
      </trkpt>
      <trkpt lat="44.36595" lon="3.41229">
        <ele>482</ele>
        <time>2009-07-07T15:21:12Z</time>
      </trkpt>
      <trkpt lat="44.36566" lon="3.41226">
        <ele>480</ele>
        <time>2009-07-07T15:21:23Z</time>
      </trkpt>
      <trkpt lat="44.36552" lon="3.41223">
        <ele>479</ele>
        <time>2009-07-07T15:21:27Z</time>
      </trkpt>
      <trkpt lat="44.36541" lon="3.41195">
        <ele>477</ele>
        <time>2009-07-07T15:21:32Z</time>
      </trkpt>
      <trkpt lat="44.36546" lon="3.41098">
        <ele>478</ele>
        <time>2009-07-07T15:21:46Z</time>
      </trkpt>
      <trkpt lat="44.36561" lon="3.41034">
        <ele>479</ele>
        <time>2009-07-07T15:22:00Z</time>
      </trkpt>
      <trkpt lat="44.36558" lon="3.41026">
        <ele>479</ele>
        <time>2009-07-07T15:22:02Z</time>
      </trkpt>
      <trkpt lat="44.36542" lon="3.41026">
        <ele>480</ele>
        <time>2009-07-07T15:22:11Z</time>
      </trkpt>
      <trkpt lat="44.36538" lon="3.41027">
        <ele>482</ele>
        <time>2009-07-07T15:22:27Z</time>
      </trkpt>
      <trkpt lat="44.36513" lon="3.41034">
        <ele>484</ele>
        <time>2009-07-07T15:22:39Z</time>
      </trkpt>
      <trkpt lat="44.36511" lon="3.41033">
        <ele>484</ele>
        <time>2009-07-07T15:22:41Z</time>
      </trkpt>
      <trkpt lat="44.36496" lon="3.41036">
        <ele>486</ele>
        <time>2009-07-07T15:22:57Z</time>
      </trkpt>
      <trkpt lat="44.36496" lon="3.41036">
        <ele>486</ele>
        <time>2009-07-07T15:23:23Z</time>
      </trkpt>
      <trkpt lat="44.36479" lon="3.41042">
        <ele>487</ele>
        <time>2009-07-07T15:23:58Z</time>
      </trkpt>
      <trkpt lat="44.36433" lon="3.41054">
        <ele>486</ele>
        <time>2009-07-07T15:24:13Z</time>
      </trkpt>
      <trkpt lat="44.36428" lon="3.41102">
        <ele>486</ele>
        <time>2009-07-07T15:24:23Z</time>
      </trkpt>
      <trkpt lat="44.36436" lon="3.41161">
        <ele>487</ele>
        <time>2009-07-07T15:24:35Z</time>
      </trkpt>
      <trkpt lat="44.36433" lon="3.41225">
        <ele>489</ele>
        <time>2009-07-07T15:24:48Z</time>
      </trkpt>
      <trkpt lat="44.36405" lon="3.41302">
        <ele>492</ele>
        <time>2009-07-07T15:25:07Z</time>
      </trkpt>
      <trkpt lat="44.36364" lon="3.41348">
        <ele>493</ele>
        <time>2009-07-07T15:25:25Z</time>
      </trkpt>
      <trkpt lat="44.36331" lon="3.4137">
        <ele>497</ele>
        <time>2009-07-07T15:25:38Z</time>
      </trkpt>
      <trkpt lat="44.36285" lon="3.4139">
        <ele>498</ele>
        <time>2009-07-07T15:25:55Z</time>
      </trkpt>
      <trkpt lat="44.36257" lon="3.41389">
        <ele>501</ele>
        <time>2009-07-07T15:26:06Z</time>
      </trkpt>
      <trkpt lat="44.36242" lon="3.41383">
        <ele>501</ele>
        <time>2009-07-07T15:26:13Z</time>
      </trkpt>
      <trkpt lat="44.36181" lon="3.41369">
        <ele>504</ele>
        <time>2009-07-07T15:26:33Z</time>
      </trkpt>
      <trkpt lat="44.36158" lon="3.41355">
        <ele>507</ele>
        <time>2009-07-07T15:26:41Z</time>
      </trkpt>
      <trkpt lat="44.3611" lon="3.413">
        <ele>509</ele>
        <time>2009-07-07T15:27:01Z</time>
      </trkpt>
      <trkpt lat="44.36098" lon="3.41288">
        <ele>511</ele>
        <time>2009-07-07T15:27:06Z</time>
      </trkpt>
      <trkpt lat="44.36063" lon="3.41238">
        <ele>514</ele>
        <time>2009-07-07T15:27:23Z</time>
      </trkpt>
      <trkpt lat="44.36031" lon="3.41181">
        <ele>517</ele>
        <time>2009-07-07T15:27:42Z</time>
      </trkpt>
      <trkpt lat="44.36007" lon="3.41128">
        <ele>519</ele>
        <time>2009-07-07T15:27:58Z</time>
      </trkpt>
      <trkpt lat="44.35999" lon="3.41089">
        <ele>521</ele>
        <time>2009-07-07T15:28:09Z</time>
      </trkpt>
      <trkpt lat="44.36001" lon="3.4108">
        <ele>521</ele>
        <time>2009-07-07T15:28:26Z</time>
      </trkpt>
      <trkpt lat="44.36001" lon="3.41079">
        <ele>521</ele>
        <time>2009-07-07T15:28:36Z</time>
      </trkpt>
      <trkpt lat="44.35997" lon="3.41073">
        <ele>521</ele>
        <time>2009-07-07T15:28:40Z</time>
      </trkpt>
      <trkpt lat="44.35968" lon="3.41023">
        <ele>524</ele>
        <time>2009-07-07T15:28:58Z</time>
      </trkpt>
      <trkpt lat="44.3594" lon="3.41004">
        <ele>527</ele>
        <time>2009-07-07T15:29:09Z</time>
      </trkpt>
      <trkpt lat="44.35923" lon="3.4095">
        <ele>530</ele>
        <time>2009-07-07T15:29:24Z</time>
      </trkpt>
      <trkpt lat="44.35894" lon="3.40897">
        <ele>533</ele>
        <time>2009-07-07T15:29:41Z</time>
      </trkpt>
      <trkpt lat="44.35887" lon="3.40891">
        <ele>535</ele>
        <time>2009-07-07T15:29:44Z</time>
      </trkpt>
      <trkpt lat="44.35835" lon="3.40858">
        <ele>537</ele>
        <time>2009-07-07T15:30:04Z</time>
      </trkpt>
      <trkpt lat="44.35787" lon="3.40826">
        <ele>541</ele>
        <time>2009-07-07T15:30:22Z</time>
      </trkpt>
      <trkpt lat="44.35736" lon="3.40798">
        <ele>544</ele>
        <time>2009-07-07T15:30:41Z</time>
      </trkpt>
      <trkpt lat="44.35691" lon="3.40776">
        <ele>547</ele>
        <time>2009-07-07T15:30:57Z</time>
      </trkpt>
      <trkpt lat="44.35645" lon="3.40754">
        <ele>551</ele>
        <time>2009-07-07T15:31:13Z</time>
      </trkpt>
      <trkpt lat="44.35599" lon="3.40731">
        <ele>554</ele>
        <time>2009-07-07T15:31:29Z</time>
      </trkpt>
      <trkpt lat="44.35564" lon="3.40715">
        <ele>556</ele>
        <time>2009-07-07T15:31:41Z</time>
      </trkpt>
      <trkpt lat="44.35558" lon="3.40714">
        <ele>557</ele>
        <time>2009-07-07T15:31:43Z</time>
      </trkpt>
      <trkpt lat="44.35514" lon="3.40703">
        <ele>560</ele>
        <time>2009-07-07T15:31:58Z</time>
      </trkpt>
      <trkpt lat="44.35511" lon="3.40701">
        <ele>560</ele>
        <time>2009-07-07T15:31:59Z</time>
      </trkpt>
      <trkpt lat="44.35463" lon="3.40659">
        <ele>563</ele>
        <time>2009-07-07T15:32:17Z</time>
      </trkpt>
      <trkpt lat="44.35432" lon="3.40637">
        <ele>566</ele>
        <time>2009-07-07T15:32:28Z</time>
      </trkpt>
      <trkpt lat="44.35377" lon="3.40614">
        <ele>569</ele>
        <time>2009-07-07T15:32:46Z</time>
      </trkpt>
      <trkpt lat="44.3534" lon="3.4059">
        <ele>572</ele>
        <time>2009-07-07T15:32:59Z</time>
      </trkpt>
      <trkpt lat="44.35298" lon="3.40555">
        <ele>575</ele>
        <time>2009-07-07T15:33:14Z</time>
      </trkpt>
      <trkpt lat="44.35254" lon="3.40517">
        <ele>578</ele>
        <time>2009-07-07T15:33:30Z</time>
      </trkpt>
      <trkpt lat="44.35218" lon="3.40484">
        <ele>581</ele>
        <time>2009-07-07T15:33:43Z</time>
      </trkpt>
      <trkpt lat="44.35181" lon="3.40426">
        <ele>584</ele>
        <time>2009-07-07T15:34:00Z</time>
      </trkpt>
      <trkpt lat="44.35139" lon="3.40379">
        <ele>587</ele>
        <time>2009-07-07T15:34:16Z</time>
      </trkpt>
      <trkpt lat="44.35136" lon="3.40376">
        <ele>587</ele>
        <time>2009-07-07T15:34:17Z</time>
      </trkpt>
      <trkpt lat="44.35106" lon="3.40346">
        <ele>591</ele>
        <time>2009-07-07T15:34:28Z</time>
      </trkpt>
      <trkpt lat="44.35078" lon="3.40315">
        <ele>594</ele>
        <time>2009-07-07T15:34:39Z</time>
      </trkpt>
      <trkpt lat="44.35064" lon="3.40294">
        <ele>595</ele>
        <time>2009-07-07T15:34:45Z</time>
      </trkpt>
      <trkpt lat="44.35013" lon="3.40242">
        <ele>599</ele>
        <time>2009-07-07T15:35:04Z</time>
      </trkpt>
      <trkpt lat="44.35012" lon="3.40238">
        <ele>599</ele>
        <time>2009-07-07T15:35:05Z</time>
      </trkpt>
      <trkpt lat="44.34996" lon="3.40185">
        <ele>602</ele>
        <time>2009-07-07T15:35:17Z</time>
      </trkpt>
      <trkpt lat="44.34975" lon="3.40126">
        <ele>605</ele>
        <time>2009-07-07T15:35:31Z</time>
      </trkpt>
      <trkpt lat="44.34974" lon="3.40121">
        <ele>606</ele>
        <time>2009-07-07T15:35:32Z</time>
      </trkpt>
      <trkpt lat="44.34936" lon="3.40071">
        <ele>607</ele>
        <time>2009-07-07T15:35:49Z</time>
      </trkpt>
      <trkpt lat="44.34913" lon="3.40063">
        <ele>610</ele>
        <time>2009-07-07T15:35:58Z</time>
      </trkpt>
      <trkpt lat="44.34874" lon="3.40064">
        <ele>612</ele>
        <time>2009-07-07T15:36:14Z</time>
      </trkpt>
      <trkpt lat="44.3484" lon="3.40059">
        <ele>615</ele>
        <time>2009-07-07T15:36:28Z</time>
      </trkpt>
      <trkpt lat="44.34819" lon="3.40049">
        <ele>617</ele>
        <time>2009-07-07T15:36:37Z</time>
      </trkpt>
      <trkpt lat="44.34772" lon="3.4005">
        <ele>619</ele>
        <time>2009-07-07T15:36:57Z</time>
      </trkpt>
      <trkpt lat="44.34739" lon="3.40058">
        <ele>622</ele>
        <time>2009-07-07T15:37:11Z</time>
      </trkpt>
      <trkpt lat="44.34704" lon="3.40065">
        <ele>625</ele>
        <time>2009-07-07T15:37:25Z</time>
      </trkpt>
      <trkpt lat="44.34655" lon="3.40049">
        <ele>627</ele>
        <time>2009-07-07T15:37:46Z</time>
      </trkpt>
      <trkpt lat="44.34616" lon="3.40028">
        <ele>630</ele>
        <time>2009-07-07T15:38:04Z</time>
      </trkpt>
      <trkpt lat="44.34603" lon="3.40022">
        <ele>630</ele>
        <time>2009-07-07T15:38:17Z</time>
      </trkpt>
      <trkpt lat="44.346" lon="3.40022">
        <ele>631</ele>
        <time>2009-07-07T15:39:45Z</time>
      </trkpt>
      <trkpt lat="44.34557" lon="3.40013">
        <ele>633</ele>
        <time>2009-07-07T15:40:00Z</time>
      </trkpt>
      <trkpt lat="44.34528" lon="3.40003">
        <ele>635</ele>
        <time>2009-07-07T15:40:10Z</time>
      </trkpt>
      <trkpt lat="44.34484" lon="3.40002">
        <ele>638</ele>
        <time>2009-07-07T15:40:25Z</time>
      </trkpt>
      <trkpt lat="44.34436" lon="3.39986">
        <ele>642</ele>
        <time>2009-07-07T15:40:42Z</time>
      </trkpt>
      <trkpt lat="44.34403" lon="3.39941">
        <ele>644</ele>
        <time>2009-07-07T15:40:58Z</time>
      </trkpt>
      <trkpt lat="44.34372" lon="3.39903">
        <ele>646</ele>
        <time>2009-07-07T15:41:13Z</time>
      </trkpt>
      <trkpt lat="44.34325" lon="3.39879">
        <ele>650</ele>
        <time>2009-07-07T15:41:31Z</time>
      </trkpt>
      <trkpt lat="44.34287" lon="3.39835">
        <ele>651</ele>
        <time>2009-07-07T15:41:49Z</time>
      </trkpt>
      <trkpt lat="44.34244" lon="3.39822">
        <ele>654</ele>
        <time>2009-07-07T15:42:06Z</time>
      </trkpt>
      <trkpt lat="44.34203" lon="3.39841">
        <ele>657</ele>
        <time>2009-07-07T15:42:21Z</time>
      </trkpt>
      <trkpt lat="44.34149" lon="3.39862">
        <ele>661</ele>
        <time>2009-07-07T15:42:39Z</time>
      </trkpt>
      <trkpt lat="44.34108" lon="3.39879">
        <ele>664</ele>
        <time>2009-07-07T15:42:53Z</time>
      </trkpt>
      <trkpt lat="44.34069" lon="3.39906">
        <ele>665</ele>
        <time>2009-07-07T15:43:08Z</time>
      </trkpt>
      <trkpt lat="44.34054" lon="3.39855">
        <ele>666</ele>
        <time>2009-07-07T15:43:20Z</time>
      </trkpt>
      <trkpt lat="44.3405" lon="3.3981">
        <ele>669</ele>
        <time>2009-07-07T15:43:32Z</time>
      </trkpt>
      <trkpt lat="44.34056" lon="3.39757">
        <ele>671</ele>
        <time>2009-07-07T15:43:47Z</time>
      </trkpt>
      <trkpt lat="44.34049" lon="3.39705">
        <ele>674</ele>
        <time>2009-07-07T15:44:01Z</time>
      </trkpt>
      <trkpt lat="44.3402" lon="3.39655">
        <ele>677</ele>
        <time>2009-07-07T15:44:17Z</time>
      </trkpt>
      <trkpt lat="44.34026" lon="3.39606">
        <ele>679</ele>
        <time>2009-07-07T15:44:29Z</time>
      </trkpt>
      <trkpt lat="44.33999" lon="3.39571">
        <ele>682</ele>
        <time>2009-07-07T15:44:41Z</time>
      </trkpt>
      <trkpt lat="44.33962" lon="3.3953">
        <ele>685</ele>
        <time>2009-07-07T15:44:56Z</time>
      </trkpt>
      <trkpt lat="44.33949" lon="3.39474">
        <ele>688</ele>
        <time>2009-07-07T15:45:10Z</time>
      </trkpt>
      <trkpt lat="44.33971" lon="3.39429">
        <ele>691</ele>
        <time>2009-07-07T15:45:22Z</time>
      </trkpt>
      <trkpt lat="44.33998" lon="3.39368">
        <ele>695</ele>
        <time>2009-07-07T15:45:38Z</time>
      </trkpt>
      <trkpt lat="44.33999" lon="3.39364">
        <ele>695</ele>
        <time>2009-07-07T15:45:39Z</time>
      </trkpt>
      <trkpt lat="44.34" lon="3.3929">
        <ele>697</ele>
        <time>2009-07-07T15:45:56Z</time>
      </trkpt>
      <trkpt lat="44.33981" lon="3.3927">
        <ele>700</ele>
        <time>2009-07-07T15:46:04Z</time>
      </trkpt>
      <trkpt lat="44.33935" lon="3.39277">
        <ele>702</ele>
        <time>2009-07-07T15:46:18Z</time>
      </trkpt>
      <trkpt lat="44.33893" lon="3.39264">
        <ele>705</ele>
        <time>2009-07-07T15:46:32Z</time>
      </trkpt>
      <trkpt lat="44.33869" lon="3.39222">
        <ele>708</ele>
        <time>2009-07-07T15:46:45Z</time>
      </trkpt>
      <trkpt lat="44.33851" lon="3.39161">
        <ele>711</ele>
        <time>2009-07-07T15:47:00Z</time>
      </trkpt>
      <trkpt lat="44.33822" lon="3.39147">
        <ele>714</ele>
        <time>2009-07-07T15:47:10Z</time>
      </trkpt>
      <trkpt lat="44.33775" lon="3.39177">
        <ele>718</ele>
        <time>2009-07-07T15:47:26Z</time>
      </trkpt>
      <trkpt lat="44.33718" lon="3.39184">
        <ele>720</ele>
        <time>2009-07-07T15:47:44Z</time>
      </trkpt>
      <trkpt lat="44.33695" lon="3.39148">
        <ele>723</ele>
        <time>2009-07-07T15:47:55Z</time>
      </trkpt>
      <trkpt lat="44.33649" lon="3.3909">
        <ele>726</ele>
        <time>2009-07-07T15:48:15Z</time>
      </trkpt>
      <trkpt lat="44.33628" lon="3.39043">
        <ele>729</ele>
        <time>2009-07-07T15:48:29Z</time>
      </trkpt>
      <trkpt lat="44.33621" lon="3.38994">
        <ele>730</ele>
        <time>2009-07-07T15:48:42Z</time>
      </trkpt>
      <trkpt lat="44.33588" lon="3.39008">
        <ele>732</ele>
        <time>2009-07-07T15:48:54Z</time>
      </trkpt>
      <trkpt lat="44.33554" lon="3.39043">
        <ele>735</ele>
        <time>2009-07-07T15:49:08Z</time>
      </trkpt>
      <trkpt lat="44.33528" lon="3.39055">
        <ele>737</ele>
        <time>2009-07-07T15:49:17Z</time>
      </trkpt>
      <trkpt lat="44.33485" lon="3.39048">
        <ele>740</ele>
        <time>2009-07-07T15:49:32Z</time>
      </trkpt>
      <trkpt lat="44.33465" lon="3.39012">
        <ele>744</ele>
        <time>2009-07-07T15:49:43Z</time>
      </trkpt>
      <trkpt lat="44.33428" lon="3.38991">
        <ele>747</ele>
        <time>2009-07-07T15:49:57Z</time>
      </trkpt>
      <trkpt lat="44.33385" lon="3.38975">
        <ele>749</ele>
        <time>2009-07-07T15:50:12Z</time>
      </trkpt>
      <trkpt lat="44.33382" lon="3.38973">
        <ele>749</ele>
        <time>2009-07-07T15:50:13Z</time>
      </trkpt>
      <trkpt lat="44.33377" lon="3.38969">
        <ele>750</ele>
        <time>2009-07-07T15:50:15Z</time>
      </trkpt>
      <trkpt lat="44.33363" lon="3.38943">
        <ele>753</ele>
        <time>2009-07-07T15:50:23Z</time>
      </trkpt>
      <trkpt lat="44.33342" lon="3.38873">
        <ele>756</ele>
        <time>2009-07-07T15:50:41Z</time>
      </trkpt>
      <trkpt lat="44.33315" lon="3.38833">
        <ele>759</ele>
        <time>2009-07-07T15:50:54Z</time>
      </trkpt>
      <trkpt lat="44.3329" lon="3.38806">
        <ele>761</ele>
        <time>2009-07-07T15:51:09Z</time>
      </trkpt>
      <trkpt lat="44.3329" lon="3.38807">
        <ele>761</ele>
        <time>2009-07-07T15:51:50Z</time>
      </trkpt>
      <trkpt lat="44.33283" lon="3.38814">
        <ele>761</ele>
        <time>2009-07-07T15:51:55Z</time>
      </trkpt>
      <trkpt lat="44.33285" lon="3.3883">
        <ele>760</ele>
        <time>2009-07-07T15:52:00Z</time>
      </trkpt>
      <trkpt lat="44.3329" lon="3.38833">
        <ele>761</ele>
        <time>2009-07-07T15:52:03Z</time>
      </trkpt>
      <trkpt lat="44.33287" lon="3.38808">
        <ele>761</ele>
        <time>2009-07-07T15:52:11Z</time>
      </trkpt>
      <trkpt lat="44.33287" lon="3.38806">
        <ele>761</ele>
        <time>2009-07-07T15:52:22Z</time>
      </trkpt>
      <trkpt lat="44.33286" lon="3.38807">
        <ele>761</ele>
        <time>2009-07-07T15:52:57Z</time>
      </trkpt>
      <trkpt lat="44.33287" lon="3.38808">
        <ele>761</ele>
        <time>2009-07-07T15:53:20Z</time>
      </trkpt>
      <trkpt lat="44.33287" lon="3.38833">
        <ele>760</ele>
        <time>2009-07-07T15:53:30Z</time>
      </trkpt>
      <trkpt lat="44.33298" lon="3.3884">
        <ele>762</ele>
        <time>2009-07-07T15:53:34Z</time>
      </trkpt>
      <trkpt lat="44.33327" lon="3.38876">
        <ele>764</ele>
        <time>2009-07-07T15:53:48Z</time>
      </trkpt>
      <trkpt lat="44.33344" lon="3.38937">
        <ele>767</ele>
        <time>2009-07-07T15:54:04Z</time>
      </trkpt>
      <trkpt lat="44.33365" lon="3.38997">
        <ele>769</ele>
        <time>2009-07-07T15:54:21Z</time>
      </trkpt>
      <trkpt lat="44.3337" lon="3.39006">
        <ele>770</ele>
        <time>2009-07-07T15:54:25Z</time>
      </trkpt>
      <trkpt lat="44.33392" lon="3.39023">
        <ele>772</ele>
        <time>2009-07-07T15:54:41Z</time>
      </trkpt>
      <trkpt lat="44.33423" lon="3.39044">
        <ele>775</ele>
        <time>2009-07-07T15:54:54Z</time>
      </trkpt>
      <trkpt lat="44.33408" lon="3.39046">
        <ele>775</ele>
        <time>2009-07-07T15:55:01Z</time>
      </trkpt>
      <trkpt lat="44.33372" lon="3.39019">
        <ele>777</ele>
        <time>2009-07-07T15:55:17Z</time>
      </trkpt>
      <trkpt lat="44.33339" lon="3.38975">
        <ele>780</ele>
        <time>2009-07-07T15:55:38Z</time>
      </trkpt>
      <trkpt lat="44.33322" lon="3.38923">
        <ele>784</ele>
        <time>2009-07-07T15:55:55Z</time>
      </trkpt>
      <trkpt lat="44.33289" lon="3.38881">
        <ele>785</ele>
        <time>2009-07-07T15:56:12Z</time>
      </trkpt>
      <trkpt lat="44.33261" lon="3.38886">
        <ele>788</ele>
        <time>2009-07-07T15:56:24Z</time>
      </trkpt>
      <trkpt lat="44.33258" lon="3.38892">
        <ele>789</ele>
        <time>2009-07-07T15:56:26Z</time>
      </trkpt>
      <trkpt lat="44.33226" lon="3.38946">
        <ele>791</ele>
        <time>2009-07-07T15:56:45Z</time>
      </trkpt>
      <trkpt lat="44.3319" lon="3.38988">
        <ele>794</ele>
        <time>2009-07-07T15:57:04Z</time>
      </trkpt>
      <trkpt lat="44.33185" lon="3.39004">
        <ele>796</ele>
        <time>2009-07-07T15:57:09Z</time>
      </trkpt>
      <trkpt lat="44.33177" lon="3.39054">
        <ele>798</ele>
        <time>2009-07-07T15:57:24Z</time>
      </trkpt>
      <trkpt lat="44.33149" lon="3.39085">
        <ele>800</ele>
        <time>2009-07-07T15:57:38Z</time>
      </trkpt>
      <trkpt lat="44.33119" lon="3.39073">
        <ele>803</ele>
        <time>2009-07-07T15:57:51Z</time>
      </trkpt>
      <trkpt lat="44.33079" lon="3.39041">
        <ele>806</ele>
        <time>2009-07-07T15:58:10Z</time>
      </trkpt>
      <trkpt lat="44.33061" lon="3.39003">
        <ele>807</ele>
        <time>2009-07-07T15:58:23Z</time>
      </trkpt>
      <trkpt lat="44.33044" lon="3.38966">
        <ele>809</ele>
        <time>2009-07-07T15:58:35Z</time>
      </trkpt>
      <trkpt lat="44.33034" lon="3.38928">
        <ele>811</ele>
        <time>2009-07-07T15:58:48Z</time>
      </trkpt>
      <trkpt lat="44.33025" lon="3.38884">
        <ele>814</ele>
        <time>2009-07-07T15:59:01Z</time>
      </trkpt>
      <trkpt lat="44.3301" lon="3.38836">
        <ele>816</ele>
        <time>2009-07-07T15:59:16Z</time>
      </trkpt>
      <trkpt lat="44.32985" lon="3.38789">
        <ele>820</ele>
        <time>2009-07-07T15:59:31Z</time>
      </trkpt>
      <trkpt lat="44.32953" lon="3.38735">
        <ele>823</ele>
        <time>2009-07-07T15:59:50Z</time>
      </trkpt>
      <trkpt lat="44.32955" lon="3.38687">
        <ele>824</ele>
        <time>2009-07-07T16:00:04Z</time>
      </trkpt>
      <trkpt lat="44.32952" lon="3.38643">
        <ele>828</ele>
        <time>2009-07-07T16:00:18Z</time>
      </trkpt>
      <trkpt lat="44.32929" lon="3.38587">
        <ele>830</ele>
        <time>2009-07-07T16:00:36Z</time>
      </trkpt>
      <trkpt lat="44.32918" lon="3.38536">
        <ele>832</ele>
        <time>2009-07-07T16:00:51Z</time>
      </trkpt>
      <trkpt lat="44.32918" lon="3.38501">
        <ele>836</ele>
        <time>2009-07-07T16:01:01Z</time>
      </trkpt>
      <trkpt lat="44.32932" lon="3.38452">
        <ele>838</ele>
        <time>2009-07-07T16:01:17Z</time>
      </trkpt>
      <trkpt lat="44.32932" lon="3.38445">
        <ele>838</ele>
        <time>2009-07-07T16:01:22Z</time>
      </trkpt>
      <trkpt lat="44.32933" lon="3.38441">
        <ele>838</ele>
        <time>2009-07-07T16:01:40Z</time>
      </trkpt>
      <trkpt lat="44.32931" lon="3.38441">
        <ele>839</ele>
        <time>2009-07-07T16:02:07Z</time>
      </trkpt>
      <trkpt lat="44.32909" lon="3.3843">
        <ele>840</ele>
        <time>2009-07-07T16:02:19Z</time>
      </trkpt>
      <trkpt lat="44.32871" lon="3.38447">
        <ele>843</ele>
        <time>2009-07-07T16:02:35Z</time>
      </trkpt>
      <trkpt lat="44.3283" lon="3.38489">
        <ele>845</ele>
        <time>2009-07-07T16:02:55Z</time>
      </trkpt>
      <trkpt lat="44.32788" lon="3.38546">
        <ele>848</ele>
        <time>2009-07-07T16:03:18Z</time>
      </trkpt>
      <trkpt lat="44.32754" lon="3.38558">
        <ele>851</ele>
        <time>2009-07-07T16:03:32Z</time>
      </trkpt>
      <trkpt lat="44.32714" lon="3.38545">
        <ele>855</ele>
        <time>2009-07-07T16:03:48Z</time>
      </trkpt>
      <trkpt lat="44.32672" lon="3.38547">
        <ele>858</ele>
        <time>2009-07-07T16:04:04Z</time>
      </trkpt>
      <trkpt lat="44.32632" lon="3.38537">
        <ele>861</ele>
        <time>2009-07-07T16:04:20Z</time>
      </trkpt>
      <trkpt lat="44.32586" lon="3.38484">
        <ele>864</ele>
        <time>2009-07-07T16:04:42Z</time>
      </trkpt>
      <trkpt lat="44.3255" lon="3.38457">
        <ele>868</ele>
        <time>2009-07-07T16:04:57Z</time>
      </trkpt>
      <trkpt lat="44.32501" lon="3.38416">
        <ele>870</ele>
        <time>2009-07-07T16:05:18Z</time>
      </trkpt>
      <trkpt lat="44.32494" lon="3.3841">
        <ele>871</ele>
        <time>2009-07-07T16:05:21Z</time>
      </trkpt>
      <trkpt lat="44.32466" lon="3.38388">
        <ele>874</ele>
        <time>2009-07-07T16:05:33Z</time>
      </trkpt>
      <trkpt lat="44.32425" lon="3.38363">
        <ele>876</ele>
        <time>2009-07-07T16:05:50Z</time>
      </trkpt>
      <trkpt lat="44.32395" lon="3.38347">
        <ele>879</ele>
        <time>2009-07-07T16:06:02Z</time>
      </trkpt>
      <trkpt lat="44.32353" lon="3.38328">
        <ele>882</ele>
        <time>2009-07-07T16:06:18Z</time>
      </trkpt>
      <trkpt lat="44.32294" lon="3.38309">
        <ele>884</ele>
        <time>2009-07-07T16:06:40Z</time>
      </trkpt>
      <trkpt lat="44.32286" lon="3.38307">
        <ele>885</ele>
        <time>2009-07-07T16:06:43Z</time>
      </trkpt>
      <trkpt lat="44.32246" lon="3.38295">
        <ele>889</ele>
        <time>2009-07-07T16:06:58Z</time>
      </trkpt>
      <trkpt lat="44.32193" lon="3.38272">
        <ele>892</ele>
        <time>2009-07-07T16:07:18Z</time>
      </trkpt>
      <trkpt lat="44.32182" lon="3.38265">
        <ele>893</ele>
        <time>2009-07-07T16:07:22Z</time>
      </trkpt>
      <trkpt lat="44.32151" lon="3.38228">
        <ele>896</ele>
        <time>2009-07-07T16:07:36Z</time>
      </trkpt>
      <trkpt lat="44.32118" lon="3.38159">
        <ele>899</ele>
        <time>2009-07-07T16:07:57Z</time>
      </trkpt>
      <trkpt lat="44.32083" lon="3.3811">
        <ele>902</ele>
        <time>2009-07-07T16:08:16Z</time>
      </trkpt>
      <trkpt lat="44.32051" lon="3.38106">
        <ele>904</ele>
        <time>2009-07-07T16:08:29Z</time>
      </trkpt>
      <trkpt lat="44.32043" lon="3.38108">
        <ele>904</ele>
        <time>2009-07-07T16:08:41Z</time>
      </trkpt>
      <trkpt lat="44.3204" lon="3.38109">
        <ele>905</ele>
        <time>2009-07-07T16:09:11Z</time>
      </trkpt>
      <trkpt lat="44.32041" lon="3.38108">
        <ele>906</ele>
        <time>2009-07-07T16:09:49Z</time>
      </trkpt>
      <trkpt lat="44.3204" lon="3.38108">
        <ele>906</ele>
        <time>2009-07-07T16:12:26Z</time>
      </trkpt>
      <trkpt lat="44.3204" lon="3.38108">
        <ele>908</ele>
        <time>2009-07-07T16:13:50Z</time>
      </trkpt>
      <trkpt lat="44.3204" lon="3.38108">
        <ele>907</ele>
        <time>2009-07-07T16:14:12Z</time>
      </trkpt>
      <trkpt lat="44.32037" lon="3.38112">
        <ele>907</ele>
        <time>2009-07-07T16:16:08Z</time>
      </trkpt>
      <trkpt lat="44.32038" lon="3.38113">
        <ele>905</ele>
        <time>2009-07-07T16:16:48Z</time>
      </trkpt>
      <trkpt lat="44.32033" lon="3.38116">
        <ele>907</ele>
        <time>2009-07-07T16:17:02Z</time>
      </trkpt>
      <trkpt lat="44.32029" lon="3.38118">
        <ele>908</ele>
        <time>2009-07-07T16:17:06Z</time>
      </trkpt>
      <trkpt lat="44.32026" lon="3.38119">
        <ele>907</ele>
        <time>2009-07-07T16:17:11Z</time>
      </trkpt>
      <trkpt lat="44.32021" lon="3.38123">
        <ele>907</ele>
        <time>2009-07-07T16:17:15Z</time>
      </trkpt>
      <trkpt lat="44.32012" lon="3.38126">
        <ele>907</ele>
        <time>2009-07-07T16:17:22Z</time>
      </trkpt>
      <trkpt lat="44.32002" lon="3.38131">
        <ele>908</ele>
        <time>2009-07-07T16:17:30Z</time>
      </trkpt>
      <trkpt lat="44.31981" lon="3.38143">
        <ele>908</ele>
        <time>2009-07-07T16:17:46Z</time>
      </trkpt>
      <trkpt lat="44.31979" lon="3.38144">
        <ele>908</ele>
        <time>2009-07-07T16:17:48Z</time>
      </trkpt>
      <trkpt lat="44.31966" lon="3.38151">
        <ele>908</ele>
        <time>2009-07-07T16:17:59Z</time>
      </trkpt>
      <trkpt lat="44.31955" lon="3.38156">
        <ele>909</ele>
        <time>2009-07-07T16:18:07Z</time>
      </trkpt>
      <trkpt lat="44.31927" lon="3.38177">
        <ele>909</ele>
        <time>2009-07-07T16:18:25Z</time>
      </trkpt>
      <trkpt lat="44.31904" lon="3.38201">
        <ele>909</ele>
        <time>2009-07-07T16:18:43Z</time>
      </trkpt>
      <trkpt lat="44.31897" lon="3.38207">
        <ele>909</ele>
        <time>2009-07-07T16:18:48Z</time>
      </trkpt>
      <trkpt lat="44.31863" lon="3.38243">
        <ele>910</ele>
        <time>2009-07-07T16:19:10Z</time>
      </trkpt>
      <trkpt lat="44.31831" lon="3.38264">
        <ele>911</ele>
        <time>2009-07-07T16:19:28Z</time>
      </trkpt>
      <trkpt lat="44.31785" lon="3.3825">
        <ele>913</ele>
        <time>2009-07-07T16:19:43Z</time>
      </trkpt>
      <trkpt lat="44.31726" lon="3.38233">
        <ele>915</ele>
        <time>2009-07-07T16:20:02Z</time>
      </trkpt>
      <trkpt lat="44.31667" lon="3.3822">
        <ele>917</ele>
        <time>2009-07-07T16:20:22Z</time>
      </trkpt>
      <trkpt lat="44.31589" lon="3.38218">
        <ele>920</ele>
        <time>2009-07-07T16:20:47Z</time>
      </trkpt>
      <trkpt lat="44.31537" lon="3.38234">
        <ele>922</ele>
        <time>2009-07-07T16:21:04Z</time>
      </trkpt>
      <trkpt lat="44.31486" lon="3.38235">
        <ele>926</ele>
        <time>2009-07-07T16:21:20Z</time>
      </trkpt>
      <trkpt lat="44.31427" lon="3.38247">
        <ele>927</ele>
        <time>2009-07-07T16:21:39Z</time>
      </trkpt>
      <trkpt lat="44.31379" lon="3.3831">
        <ele>930</ele>
        <time>2009-07-07T16:21:59Z</time>
      </trkpt>
      <trkpt lat="44.31359" lon="3.38373">
        <ele>933</ele>
        <time>2009-07-07T16:22:14Z</time>
      </trkpt>
      <trkpt lat="44.31346" lon="3.38452">
        <ele>935</ele>
        <time>2009-07-07T16:22:32Z</time>
      </trkpt>
      <trkpt lat="44.3133" lon="3.38539">
        <ele>937</ele>
        <time>2009-07-07T16:22:52Z</time>
      </trkpt>
      <trkpt lat="44.31316" lon="3.38618">
        <ele>939</ele>
        <time>2009-07-07T16:23:10Z</time>
      </trkpt>
      <trkpt lat="44.3133" lon="3.38688">
        <ele>941</ele>
        <time>2009-07-07T16:23:27Z</time>
      </trkpt>
      <trkpt lat="44.31342" lon="3.38785">
        <ele>943</ele>
        <time>2009-07-07T16:23:48Z</time>
      </trkpt>
      <trkpt lat="44.31364" lon="3.38878">
        <ele>946</ele>
        <time>2009-07-07T16:24:09Z</time>
      </trkpt>
      <trkpt lat="44.31376" lon="3.3897">
        <ele>948</ele>
        <time>2009-07-07T16:24:29Z</time>
      </trkpt>
      <trkpt lat="44.31386" lon="3.39042">
        <ele>951</ele>
        <time>2009-07-07T16:24:45Z</time>
      </trkpt>
      <trkpt lat="44.31392" lon="3.39138">
        <ele>953</ele>
        <time>2009-07-07T16:25:06Z</time>
      </trkpt>
      <trkpt lat="44.31414" lon="3.39251">
        <ele>956</ele>
        <time>2009-07-07T16:25:31Z</time>
      </trkpt>
      <trkpt lat="44.31403" lon="3.39301">
        <ele>958</ele>
        <time>2009-07-07T16:25:43Z</time>
      </trkpt>
      <trkpt lat="44.31365" lon="3.39338">
        <ele>960</ele>
        <time>2009-07-07T16:25:57Z</time>
      </trkpt>
      <trkpt lat="44.31329" lon="3.39434">
        <ele>963</ele>
        <time>2009-07-07T16:26:20Z</time>
      </trkpt>
      <trkpt lat="44.3133" lon="3.39456">
        <ele>965</ele>
        <time>2009-07-07T16:26:26Z</time>
      </trkpt>
      <trkpt lat="44.31346" lon="3.39462">
        <ele>966</ele>
        <time>2009-07-07T16:26:33Z</time>
      </trkpt>
      <trkpt lat="44.3137" lon="3.3947">
        <ele>970</ele>
        <time>2009-07-07T16:26:43Z</time>
      </trkpt>
      <trkpt lat="44.31378" lon="3.3948">
        <ele>973</ele>
        <time>2009-07-07T16:26:48Z</time>
      </trkpt>
      <trkpt lat="44.31388" lon="3.3952">
        <ele>976</ele>
        <time>2009-07-07T16:27:03Z</time>
      </trkpt>
      <trkpt lat="44.31402" lon="3.39562">
        <ele>979</ele>
        <time>2009-07-07T16:27:20Z</time>
      </trkpt>
      <trkpt lat="44.31416" lon="3.39593">
        <ele>982</ele>
        <time>2009-07-07T16:27:34Z</time>
      </trkpt>
      <trkpt lat="44.31426" lon="3.39626">
        <ele>983</ele>
        <time>2009-07-07T16:27:49Z</time>
      </trkpt>
      <trkpt lat="44.31444" lon="3.39665">
        <ele>987</ele>
        <time>2009-07-07T16:28:08Z</time>
      </trkpt>
      <trkpt lat="44.31465" lon="3.39695">
        <ele>990</ele>
        <time>2009-07-07T16:28:25Z</time>
      </trkpt>
      <trkpt lat="44.3148" lon="3.39714">
        <ele>992</ele>
        <time>2009-07-07T16:28:43Z</time>
      </trkpt>
      <trkpt lat="44.31479" lon="3.39713">
        <ele>992</ele>
        <time>2009-07-07T16:28:55Z</time>
      </trkpt>
      <trkpt lat="44.31463" lon="3.39705">
        <ele>990</ele>
        <time>2009-07-07T16:29:05Z</time>
      </trkpt>
      <trkpt lat="44.31444" lon="3.39732">
        <ele>988</ele>
        <time>2009-07-07T16:29:14Z</time>
      </trkpt>
      <trkpt lat="44.31451" lon="3.39809">
        <ele>988</ele>
        <time>2009-07-07T16:29:30Z</time>
      </trkpt>
      <trkpt lat="44.31464" lon="3.39889">
        <ele>988</ele>
        <time>2009-07-07T16:29:46Z</time>
      </trkpt>
      <trkpt lat="44.31465" lon="3.39895">
        <ele>988</ele>
        <time>2009-07-07T16:29:47Z</time>
      </trkpt>
      <trkpt lat="44.31483" lon="3.39992">
        <ele>987</ele>
        <time>2009-07-07T16:30:03Z</time>
      </trkpt>
      <trkpt lat="44.31502" lon="3.40024">
        <ele>984</ele>
        <time>2009-07-07T16:30:08Z</time>
      </trkpt>
      <trkpt lat="44.31521" lon="3.40045">
        <ele>982</ele>
        <time>2009-07-07T16:30:12Z</time>
      </trkpt>
      <trkpt lat="44.31563" lon="3.4012">
        <ele>982</ele>
        <time>2009-07-07T16:30:25Z</time>
      </trkpt>
      <trkpt lat="44.31583" lon="3.40181">
        <ele>984</ele>
        <time>2009-07-07T16:30:35Z</time>
      </trkpt>
      <trkpt lat="44.31585" lon="3.40209">
        <ele>983</ele>
        <time>2009-07-07T16:30:39Z</time>
      </trkpt>
      <trkpt lat="44.31584" lon="3.40232">
        <ele>982</ele>
        <time>2009-07-07T16:30:42Z</time>
      </trkpt>
      <trkpt lat="44.31585" lon="3.40257">
        <ele>980</ele>
        <time>2009-07-07T16:30:45Z</time>
      </trkpt>
      <trkpt lat="44.31599" lon="3.40347">
        <ele>979</ele>
        <time>2009-07-07T16:30:56Z</time>
      </trkpt>
      <trkpt lat="44.31591" lon="3.40393">
        <ele>979</ele>
        <time>2009-07-07T16:31:02Z</time>
      </trkpt>
      <trkpt lat="44.31552" lon="3.40501">
        <ele>982</ele>
        <time>2009-07-07T16:31:21Z</time>
      </trkpt>
      <trkpt lat="44.31536" lon="3.40545">
        <ele>983</ele>
        <time>2009-07-07T16:31:34Z</time>
      </trkpt>
      <trkpt lat="44.31504" lon="3.40633">
        <ele>985</ele>
        <time>2009-07-07T16:31:54Z</time>
      </trkpt>
      <trkpt lat="44.31474" lon="3.40648">
        <ele>983</ele>
        <time>2009-07-07T16:32:05Z</time>
      </trkpt>
      <trkpt lat="44.31468" lon="3.40648">
        <ele>982</ele>
        <time>2009-07-07T16:32:07Z</time>
      </trkpt>
      <trkpt lat="44.31444" lon="3.40648">
        <ele>981</ele>
        <time>2009-07-07T16:32:18Z</time>
      </trkpt>
      <trkpt lat="44.31442" lon="3.40648">
        <ele>981</ele>
        <time>2009-07-07T16:32:33Z</time>
      </trkpt>
      <trkpt lat="44.31434" lon="3.40646">
        <ele>981</ele>
        <time>2009-07-07T16:32:39Z</time>
      </trkpt>
      <trkpt lat="44.31429" lon="3.40653">
        <ele>980</ele>
        <time>2009-07-07T16:32:43Z</time>
      </trkpt>
      <trkpt lat="44.31378" lon="3.40697">
        <ele>979</ele>
        <time>2009-07-07T16:32:59Z</time>
      </trkpt>
      <trkpt lat="44.31372" lon="3.40703">
        <ele>978</ele>
        <time>2009-07-07T16:33:01Z</time>
      </trkpt>
      <trkpt lat="44.31343" lon="3.40753">
        <ele>979</ele>
        <time>2009-07-07T16:33:15Z</time>
      </trkpt>
      <trkpt lat="44.31329" lon="3.40795">
        <ele>980</ele>
        <time>2009-07-07T16:33:27Z</time>
      </trkpt>
      <trkpt lat="44.31283" lon="3.40823">
        <ele>982</ele>
        <time>2009-07-07T16:33:43Z</time>
      </trkpt>
      <trkpt lat="44.31222" lon="3.40866">
        <ele>983</ele>
        <time>2009-07-07T16:34:03Z</time>
      </trkpt>
      <trkpt lat="44.31198" lon="3.4089">
        <ele>985</ele>
        <time>2009-07-07T16:34:15Z</time>
      </trkpt>
      <trkpt lat="44.31177" lon="3.40917">
        <ele>987</ele>
        <time>2009-07-07T16:34:30Z</time>
      </trkpt>
      <trkpt lat="44.3115" lon="3.40952">
        <ele>988</ele>
        <time>2009-07-07T16:34:47Z</time>
      </trkpt>
      <trkpt lat="44.31109" lon="3.40973">
        <ele>990</ele>
        <time>2009-07-07T16:35:07Z</time>
      </trkpt>
      <trkpt lat="44.31074" lon="3.40967">
        <ele>987</ele>
        <time>2009-07-07T16:35:22Z</time>
      </trkpt>
      <trkpt lat="44.31057" lon="3.40971">
        <ele>983</ele>
        <time>2009-07-07T16:35:27Z</time>
      </trkpt>
      <trkpt lat="44.31053" lon="3.40972">
        <ele>983</ele>
        <time>2009-07-07T16:35:28Z</time>
      </trkpt>
      <trkpt lat="44.31033" lon="3.4098">
        <ele>981</ele>
        <time>2009-07-07T16:35:33Z</time>
      </trkpt>
      <trkpt lat="44.31021" lon="3.40984">
        <ele>979</ele>
        <time>2009-07-07T16:35:36Z</time>
      </trkpt>
      <trkpt lat="44.30982" lon="3.41">
        <ele>976</ele>
        <time>2009-07-07T16:35:45Z</time>
      </trkpt>
      <trkpt lat="44.30951" lon="3.41011">
        <ele>973</ele>
        <time>2009-07-07T16:35:54Z</time>
      </trkpt>
      <trkpt lat="44.30942" lon="3.41015">
        <ele>971</ele>
        <time>2009-07-07T16:35:57Z</time>
      </trkpt>
      <trkpt lat="44.30923" lon="3.41022">
        <ele>968</ele>
        <time>2009-07-07T16:36:03Z</time>
      </trkpt>
      <trkpt lat="44.30919" lon="3.41023">
        <ele>967</ele>
        <time>2009-07-07T16:36:04Z</time>
      </trkpt>
      <trkpt lat="44.3089" lon="3.41037">
        <ele>964</ele>
        <time>2009-07-07T16:36:12Z</time>
      </trkpt>
      <trkpt lat="44.30886" lon="3.41039">
        <ele>963</ele>
        <time>2009-07-07T16:36:13Z</time>
      </trkpt>
      <trkpt lat="44.30859" lon="3.41055">
        <ele>959</ele>
        <time>2009-07-07T16:36:18Z</time>
      </trkpt>
      <trkpt lat="44.30837" lon="3.41064">
        <ele>958</ele>
        <time>2009-07-07T16:36:22Z</time>
      </trkpt>
      <trkpt lat="44.30817" lon="3.41068">
        <ele>956</ele>
        <time>2009-07-07T16:36:25Z</time>
      </trkpt>
      <trkpt lat="44.30789" lon="3.41074">
        <ele>955</ele>
        <time>2009-07-07T16:36:29Z</time>
      </trkpt>
      <trkpt lat="44.30767" lon="3.41078">
        <ele>955</ele>
        <time>2009-07-07T16:36:33Z</time>
      </trkpt>
      <trkpt lat="44.30714" lon="3.41074">
        <ele>955</ele>
        <time>2009-07-07T16:36:47Z</time>
      </trkpt>
      <trkpt lat="44.30675" lon="3.41063">
        <ele>955</ele>
        <time>2009-07-07T16:37:02Z</time>
      </trkpt>
      <trkpt lat="44.3064" lon="3.41065">
        <ele>955</ele>
        <time>2009-07-07T16:37:17Z</time>
      </trkpt>
      <trkpt lat="44.30593" lon="3.41077">
        <ele>954</ele>
        <time>2009-07-07T16:37:32Z</time>
      </trkpt>
      <trkpt lat="44.30545" lon="3.41088">
        <ele>952</ele>
        <time>2009-07-07T16:37:46Z</time>
      </trkpt>
      <trkpt lat="44.30504" lon="3.41097">
        <ele>949</ele>
        <time>2009-07-07T16:37:58Z</time>
      </trkpt>
      <trkpt lat="44.30455" lon="3.41101">
        <ele>948</ele>
        <time>2009-07-07T16:38:11Z</time>
      </trkpt>
      <trkpt lat="44.30407" lon="3.41103">
        <ele>949</ele>
        <time>2009-07-07T16:38:27Z</time>
      </trkpt>
      <trkpt lat="44.30386" lon="3.41098">
        <ele>949</ele>
        <time>2009-07-07T16:38:36Z</time>
      </trkpt>
      <trkpt lat="44.30357" lon="3.4109">
        <ele>951</ele>
        <time>2009-07-07T16:38:50Z</time>
      </trkpt>
      <trkpt lat="44.30335" lon="3.41082">
        <ele>952</ele>
        <time>2009-07-07T16:39:02Z</time>
      </trkpt>
      <trkpt lat="44.30314" lon="3.41076">
        <ele>952</ele>
        <time>2009-07-07T16:39:12Z</time>
      </trkpt>
      <trkpt lat="44.30301" lon="3.41071">
        <ele>953</ele>
        <time>2009-07-07T16:39:18Z</time>
      </trkpt>
      <trkpt lat="44.30281" lon="3.4106">
        <ele>954</ele>
        <time>2009-07-07T16:39:29Z</time>
      </trkpt>
      <trkpt lat="44.30255" lon="3.41047">
        <ele>955</ele>
        <time>2009-07-07T16:39:44Z</time>
      </trkpt>
      <trkpt lat="44.30253" lon="3.41046">
        <ele>955</ele>
        <time>2009-07-07T16:39:56Z</time>
      </trkpt>
      <trkpt lat="44.30231" lon="3.41036">
        <ele>955</ele>
        <time>2009-07-07T16:40:09Z</time>
      </trkpt>
      <trkpt lat="44.3019" lon="3.41033">
        <ele>957</ele>
        <time>2009-07-07T16:40:27Z</time>
      </trkpt>
      <trkpt lat="44.30156" lon="3.41038">
        <ele>959</ele>
        <time>2009-07-07T16:40:43Z</time>
      </trkpt>
      <trkpt lat="44.30121" lon="3.41055">
        <ele>959</ele>
        <time>2009-07-07T16:40:59Z</time>
      </trkpt>
      <trkpt lat="44.30063" lon="3.41083">
        <ele>958</ele>
        <time>2009-07-07T16:41:16Z</time>
      </trkpt>
      <trkpt lat="44.30037" lon="3.41095">
        <ele>955</ele>
        <time>2009-07-07T16:41:22Z</time>
      </trkpt>
      <trkpt lat="44.30004" lon="3.41146">
        <ele>953</ele>
        <time>2009-07-07T16:41:35Z</time>
      </trkpt>
      <trkpt lat="44.29986" lon="3.41193">
        <ele>950</ele>
        <time>2009-07-07T16:41:42Z</time>
      </trkpt>
      <trkpt lat="44.29949" lon="3.41301">
        <ele>949</ele>
        <time>2009-07-07T16:41:55Z</time>
      </trkpt>
      <trkpt lat="44.29933" lon="3.4134">
        <ele>948</ele>
        <time>2009-07-07T16:42:00Z</time>
      </trkpt>
      <trkpt lat="44.29927" lon="3.41443">
        <ele>947</ele>
        <time>2009-07-07T16:42:14Z</time>
      </trkpt>
      <trkpt lat="44.2993" lon="3.41462">
        <ele>947</ele>
        <time>2009-07-07T16:42:18Z</time>
      </trkpt>
      <trkpt lat="44.29935" lon="3.41485">
        <ele>945</ele>
        <time>2009-07-07T16:42:22Z</time>
      </trkpt>
      <trkpt lat="44.29951" lon="3.41527">
        <ele>944</ele>
        <time>2009-07-07T16:42:33Z</time>
      </trkpt>
      <trkpt lat="44.29961" lon="3.41535">
        <ele>943</ele>
        <time>2009-07-07T16:43:11Z</time>
      </trkpt>
      <trkpt lat="44.29982" lon="3.41561">
        <ele>938</ele>
        <time>2009-07-07T16:43:16Z</time>
      </trkpt>
      <trkpt lat="44.29988" lon="3.41567">
        <ele>936</ele>
        <time>2009-07-07T16:43:17Z</time>
      </trkpt>
      <trkpt lat="44.30017" lon="3.41591">
        <ele>934</ele>
        <time>2009-07-07T16:43:21Z</time>
      </trkpt>
      <trkpt lat="44.30102" lon="3.41635">
        <ele>935</ele>
        <time>2009-07-07T16:43:33Z</time>
      </trkpt>
      <trkpt lat="44.30118" lon="3.41644">
        <ele>935</ele>
        <time>2009-07-07T16:43:40Z</time>
      </trkpt>
      <trkpt lat="44.30125" lon="3.41653">
        <ele>936</ele>
        <time>2009-07-07T16:43:51Z</time>
      </trkpt>
      <trkpt lat="44.30124" lon="3.41652">
        <ele>936</ele>
        <time>2009-07-07T16:44:13Z</time>
      </trkpt>
      <trkpt lat="44.30125" lon="3.41647">
        <ele>936</ele>
        <time>2009-07-07T16:44:48Z</time>
      </trkpt>
      <trkpt lat="44.30125" lon="3.41645">
        <ele>937</ele>
        <time>2009-07-07T16:45:13Z</time>
      </trkpt>
      <trkpt lat="44.30125" lon="3.41644">
        <ele>937</ele>
        <time>2009-07-07T16:45:57Z</time>
      </trkpt>
      <trkpt lat="44.30126" lon="3.41643">
        <ele>937</ele>
        <time>2009-07-07T16:47:13Z</time>
      </trkpt>
      <trkpt lat="44.30126" lon="3.41645">
        <ele>937</ele>
        <time>2009-07-07T16:48:13Z</time>
      </trkpt>
      <trkpt lat="44.30126" lon="3.41644">
        <ele>937</ele>
        <time>2009-07-07T16:48:53Z</time>
      </trkpt>
      <trkpt lat="44.30125" lon="3.41643">
        <ele>937</ele>
        <time>2009-07-07T16:49:22Z</time>
      </trkpt>
      <trkpt lat="44.30118" lon="3.41633">
        <ele>936</ele>
        <time>2009-07-07T16:49:33Z</time>
      </trkpt>
      <trkpt lat="44.30121" lon="3.41614">
        <ele>936</ele>
        <time>2009-07-07T16:49:46Z</time>
      </trkpt>
      <trkpt lat="44.30128" lon="3.41607">
        <ele>936</ele>
        <time>2009-07-07T16:50:03Z</time>
      </trkpt>
    </trkseg>
  </trk>
</gpx>